<?xml version="1.0" encoding="UTF-8" standalone="no" ?>
<gpx xmlns="http://www.topografix.com/GPX/1/1" xmlns:xsi="http://www.w3.org/2001/XMLSchema-instance" xsi:schemaLocation="http://www.topografix.com/GPX/1/1 http://www.topografix.com/GPX/1/1/gpx.xsd" version="1.1" creator="VisuGPX - https://www.visugpx.com">
  <metadata>
    <name>Maroilles Enfert vert 2013 53Km</name>
    <desc><![CDATA[Enfer vert 2013 de Maroilles. Attention elle passe dans des chemins privée qui seront à contourner]]></desc>
  </metadata>
  <trk>
    <name><![CDATA[ACTIVE LOG 001]]></name>
    <trkseg>
      <trkpt lat="50.14848" lon="3.76995">
        <ele>139.0478515625</ele>
        <time>2013-04-07T07:01:53Z</time>
      </trkpt>
      <trkpt lat="50.14874" lon="3.77028">
        <ele>138.08654785156</ele>
        <time>2013-04-07T07:01:59Z</time>
      </trkpt>
      <trkpt lat="50.14883" lon="3.77034">
        <ele>137.12524414062</ele>
        <time>2013-04-07T07:02:01Z</time>
      </trkpt>
      <trkpt lat="50.14899" lon="3.77036">
        <ele>136.64465332031</ele>
        <time>2013-04-07T07:02:04Z</time>
      </trkpt>
      <trkpt lat="50.1491" lon="3.77035">
        <ele>135.20251464844</ele>
        <time>2013-04-07T07:02:11Z</time>
      </trkpt>
      <trkpt lat="50.1491" lon="3.77035">
        <ele>135.20251464844</ele>
        <time>2013-04-07T07:02:12Z</time>
      </trkpt>
      <trkpt lat="50.14913" lon="3.77035">
        <ele>135.68310546875</ele>
        <time>2013-04-07T07:02:17Z</time>
      </trkpt>
      <trkpt lat="50.14914" lon="3.7702">
        <ele>134.72192382812</ele>
        <time>2013-04-07T07:02:22Z</time>
      </trkpt>
      <trkpt lat="50.14895" lon="3.7691">
        <ele>136.64465332031</ele>
        <time>2013-04-07T07:02:35Z</time>
      </trkpt>
      <trkpt lat="50.14885" lon="3.7687">
        <ele>136.64465332031</ele>
        <time>2013-04-07T07:02:39Z</time>
      </trkpt>
      <trkpt lat="50.14879" lon="3.76842">
        <ele>136.64465332031</ele>
        <time>2013-04-07T07:02:42Z</time>
      </trkpt>
      <trkpt lat="50.14851" lon="3.76782">
        <ele>135.68310546875</ele>
        <time>2013-04-07T07:02:51Z</time>
      </trkpt>
      <trkpt lat="50.14823" lon="3.76674">
        <ele>137.12524414062</ele>
        <time>2013-04-07T07:03:07Z</time>
      </trkpt>
      <trkpt lat="50.1479" lon="3.76524">
        <ele>136.16394042969</ele>
        <time>2013-04-07T07:03:26Z</time>
      </trkpt>
      <trkpt lat="50.14753" lon="3.76373">
        <ele>136.16394042969</ele>
        <time>2013-04-07T07:03:46Z</time>
      </trkpt>
      <trkpt lat="50.14719" lon="3.76264">
        <ele>136.64465332031</ele>
        <time>2013-04-07T07:04:01Z</time>
      </trkpt>
      <trkpt lat="50.14656" lon="3.76189">
        <ele>138.08654785156</ele>
        <time>2013-04-07T07:04:16Z</time>
      </trkpt>
      <trkpt lat="50.14649" lon="3.76179">
        <ele>138.56726074219</ele>
        <time>2013-04-07T07:04:18Z</time>
      </trkpt>
      <trkpt lat="50.14598" lon="3.76072">
        <ele>140.97045898438</ele>
        <time>2013-04-07T07:04:34Z</time>
      </trkpt>
      <trkpt lat="50.14574" lon="3.75992">
        <ele>141.93176269531</ele>
        <time>2013-04-07T07:04:47Z</time>
      </trkpt>
      <trkpt lat="50.14566" lon="3.7587">
        <ele>141.45104980469</ele>
        <time>2013-04-07T07:05:06Z</time>
      </trkpt>
      <trkpt lat="50.14552" lon="3.75733">
        <ele>141.93176269531</ele>
        <time>2013-04-07T07:05:27Z</time>
      </trkpt>
      <trkpt lat="50.14544" lon="3.7565">
        <ele>141.93176269531</ele>
        <time>2013-04-07T07:05:44Z</time>
      </trkpt>
      <trkpt lat="50.14543" lon="3.75642">
        <ele>141.93176269531</ele>
        <time>2013-04-07T07:05:47Z</time>
      </trkpt>
      <trkpt lat="50.14568" lon="3.75618">
        <ele>141.45104980469</ele>
        <time>2013-04-07T07:05:59Z</time>
      </trkpt>
      <trkpt lat="50.14568" lon="3.75618">
        <ele>140.00915527344</ele>
        <time>2013-04-07T07:06:02Z</time>
      </trkpt>
      <trkpt lat="50.14568" lon="3.75618">
        <ele>141.45104980469</ele>
        <time>2013-04-07T07:06:06Z</time>
      </trkpt>
      <trkpt lat="50.14568" lon="3.75618">
        <ele>146.2578125</ele>
        <time>2013-04-07T07:06:09Z</time>
      </trkpt>
      <trkpt lat="50.14568" lon="3.75618">
        <ele>146.2578125</ele>
        <time>2013-04-07T07:06:10Z</time>
      </trkpt>
      <trkpt lat="50.14568" lon="3.75618">
        <ele>141.93176269531</ele>
        <time>2013-04-07T07:06:11Z</time>
      </trkpt>
      <trkpt lat="50.14568" lon="3.75618">
        <ele>141.93176269531</ele>
        <time>2013-04-07T07:06:12Z</time>
      </trkpt>
      <trkpt lat="50.14568" lon="3.75618">
        <ele>136.16394042969</ele>
        <time>2013-04-07T07:06:22Z</time>
      </trkpt>
      <trkpt lat="50.14568" lon="3.75618">
        <ele>136.16394042969</ele>
        <time>2013-04-07T07:06:23Z</time>
      </trkpt>
      <trkpt lat="50.14568" lon="3.75618">
        <ele>140.48986816406</ele>
        <time>2013-04-07T07:06:24Z</time>
      </trkpt>
      <trkpt lat="50.14568" lon="3.75618">
        <ele>140.48986816406</ele>
        <time>2013-04-07T07:06:25Z</time>
      </trkpt>
      <trkpt lat="50.14568" lon="3.75618">
        <ele>138.08654785156</ele>
        <time>2013-04-07T07:06:29Z</time>
      </trkpt>
      <trkpt lat="50.14568" lon="3.75618">
        <ele>146.73840332031</ele>
        <time>2013-04-07T07:06:30Z</time>
      </trkpt>
      <trkpt lat="50.14568" lon="3.75618">
        <ele>146.73840332031</ele>
        <time>2013-04-07T07:06:31Z</time>
      </trkpt>
      <trkpt lat="50.14568" lon="3.75618">
        <ele>140.97045898438</ele>
        <time>2013-04-07T07:06:32Z</time>
      </trkpt>
      <trkpt lat="50.14568" lon="3.75618">
        <ele>140.97045898438</ele>
        <time>2013-04-07T07:06:33Z</time>
      </trkpt>
      <trkpt lat="50.14568" lon="3.75618">
        <ele>147.69970703125</ele>
        <time>2013-04-07T07:06:34Z</time>
      </trkpt>
      <trkpt lat="50.14568" lon="3.75618">
        <ele>147.69970703125</ele>
        <time>2013-04-07T07:06:35Z</time>
      </trkpt>
      <trkpt lat="50.14568" lon="3.75618">
        <ele>142.41247558594</ele>
        <time>2013-04-07T07:06:36Z</time>
      </trkpt>
      <trkpt lat="50.14568" lon="3.75618">
        <ele>141.45104980469</ele>
        <time>2013-04-07T07:06:38Z</time>
      </trkpt>
      <trkpt lat="50.14568" lon="3.75618">
        <ele>137.12524414062</ele>
        <time>2013-04-07T07:06:41Z</time>
      </trkpt>
      <trkpt lat="50.14568" lon="3.75618">
        <ele>137.12524414062</ele>
        <time>2013-04-07T07:06:42Z</time>
      </trkpt>
      <trkpt lat="50.14568" lon="3.75618">
        <ele>143.37365722656</ele>
        <time>2013-04-07T07:06:43Z</time>
      </trkpt>
      <trkpt lat="50.14568" lon="3.75618">
        <ele>143.37365722656</ele>
        <time>2013-04-07T07:06:44Z</time>
      </trkpt>
      <trkpt lat="50.14568" lon="3.75618">
        <ele>145.29638671875</ele>
        <time>2013-04-07T07:06:46Z</time>
      </trkpt>
      <trkpt lat="50.14568" lon="3.75618">
        <ele>141.93176269531</ele>
        <time>2013-04-07T07:06:47Z</time>
      </trkpt>
      <trkpt lat="50.14568" lon="3.75618">
        <ele>141.93176269531</ele>
        <time>2013-04-07T07:06:48Z</time>
      </trkpt>
      <trkpt lat="50.14568" lon="3.75618">
        <ele>139.52844238281</ele>
        <time>2013-04-07T07:06:50Z</time>
      </trkpt>
      <trkpt lat="50.14568" lon="3.75618">
        <ele>141.93176269531</ele>
        <time>2013-04-07T07:06:52Z</time>
      </trkpt>
      <trkpt lat="50.14568" lon="3.75618">
        <ele>143.37365722656</ele>
        <time>2013-04-07T07:06:54Z</time>
      </trkpt>
      <trkpt lat="50.14568" lon="3.75618">
        <ele>141.93176269531</ele>
        <time>2013-04-07T07:06:56Z</time>
      </trkpt>
      <trkpt lat="50.14568" lon="3.75618">
        <ele>136.64465332031</ele>
        <time>2013-04-07T07:07:02Z</time>
      </trkpt>
      <trkpt lat="50.14568" lon="3.75618">
        <ele>136.64465332031</ele>
        <time>2013-04-07T07:07:03Z</time>
      </trkpt>
      <trkpt lat="50.14568" lon="3.75618">
        <ele>139.52844238281</ele>
        <time>2013-04-07T07:07:05Z</time>
      </trkpt>
      <trkpt lat="50.14568" lon="3.75618">
        <ele>141.45104980469</ele>
        <time>2013-04-07T07:07:09Z</time>
      </trkpt>
      <trkpt lat="50.14568" lon="3.75618">
        <ele>148.18041992188</ele>
        <time>2013-04-07T07:07:10Z</time>
      </trkpt>
      <trkpt lat="50.14568" lon="3.75618">
        <ele>148.18041992188</ele>
        <time>2013-04-07T07:07:11Z</time>
      </trkpt>
      <trkpt lat="50.14568" lon="3.75618">
        <ele>142.89306640625</ele>
        <time>2013-04-07T07:07:12Z</time>
      </trkpt>
      <trkpt lat="50.14568" lon="3.75618">
        <ele>142.89306640625</ele>
        <time>2013-04-07T07:07:13Z</time>
      </trkpt>
      <trkpt lat="50.14568" lon="3.75618">
        <ele>142.89306640625</ele>
        <time>2013-04-07T07:07:24Z</time>
      </trkpt>
      <trkpt lat="50.14568" lon="3.75618">
        <ele>141.93176269531</ele>
        <time>2013-04-07T07:07:26Z</time>
      </trkpt>
      <trkpt lat="50.14568" lon="3.75618">
        <ele>144.33520507812</ele>
        <time>2013-04-07T07:07:28Z</time>
      </trkpt>
      <trkpt lat="50.14568" lon="3.75618">
        <ele>141.93176269531</ele>
        <time>2013-04-07T07:07:30Z</time>
      </trkpt>
      <trkpt lat="50.14597" lon="3.75599">
        <ele>140.48986816406</ele>
        <time>2013-04-07T07:07:40Z</time>
      </trkpt>
      <trkpt lat="50.1463" lon="3.75574">
        <ele>139.0478515625</ele>
        <time>2013-04-07T07:07:48Z</time>
      </trkpt>
      <trkpt lat="50.14697" lon="3.75529">
        <ele>135.68310546875</ele>
        <time>2013-04-07T07:08:00Z</time>
      </trkpt>
      <trkpt lat="50.14725" lon="3.75519">
        <ele>134.2412109375</ele>
        <time>2013-04-07T07:08:04Z</time>
      </trkpt>
      <trkpt lat="50.14779" lon="3.75511">
        <ele>131.837890625</ele>
        <time>2013-04-07T07:08:11Z</time>
      </trkpt>
      <trkpt lat="50.14821" lon="3.75505">
        <ele>132.79931640625</ele>
        <time>2013-04-07T07:08:17Z</time>
      </trkpt>
      <trkpt lat="50.14843" lon="3.75467">
        <ele>130.87670898438</ele>
        <time>2013-04-07T07:08:23Z</time>
      </trkpt>
      <trkpt lat="50.14846" lon="3.75449">
        <ele>130.87670898438</ele>
        <time>2013-04-07T07:08:25Z</time>
      </trkpt>
      <trkpt lat="50.14856" lon="3.75309">
        <ele>131.837890625</ele>
        <time>2013-04-07T07:08:42Z</time>
      </trkpt>
      <trkpt lat="50.14869" lon="3.75155">
        <ele>131.35729980469</ele>
        <time>2013-04-07T07:09:01Z</time>
      </trkpt>
      <trkpt lat="50.14872" lon="3.75132">
        <ele>132.31860351562</ele>
        <time>2013-04-07T07:09:04Z</time>
      </trkpt>
      <trkpt lat="50.14881" lon="3.74981">
        <ele>131.837890625</ele>
        <time>2013-04-07T07:09:21Z</time>
      </trkpt>
      <trkpt lat="50.14879" lon="3.74857">
        <ele>131.35729980469</ele>
        <time>2013-04-07T07:09:36Z</time>
      </trkpt>
      <trkpt lat="50.14881" lon="3.74833">
        <ele>130.87670898438</ele>
        <time>2013-04-07T07:09:39Z</time>
      </trkpt>
      <trkpt lat="50.14901" lon="3.74802">
        <ele>130.39599609375</ele>
        <time>2013-04-07T07:09:44Z</time>
      </trkpt>
      <trkpt lat="50.14911" lon="3.7479">
        <ele>129.43469238281</ele>
        <time>2013-04-07T07:09:46Z</time>
      </trkpt>
      <trkpt lat="50.15018" lon="3.74674">
        <ele>130.87670898438</ele>
        <time>2013-04-07T07:10:06Z</time>
      </trkpt>
      <trkpt lat="50.15106" lon="3.74596">
        <ele>129.91528320312</ele>
        <time>2013-04-07T07:10:23Z</time>
      </trkpt>
      <trkpt lat="50.15128" lon="3.7458">
        <ele>129.91528320312</ele>
        <time>2013-04-07T07:10:27Z</time>
      </trkpt>
      <trkpt lat="50.15215" lon="3.74485">
        <ele>131.35729980469</ele>
        <time>2013-04-07T07:10:44Z</time>
      </trkpt>
      <trkpt lat="50.15288" lon="3.74423">
        <ele>130.87670898438</ele>
        <time>2013-04-07T07:10:58Z</time>
      </trkpt>
      <trkpt lat="50.15337" lon="3.74385">
        <ele>130.87670898438</ele>
        <time>2013-04-07T07:11:08Z</time>
      </trkpt>
      <trkpt lat="50.15364" lon="3.74385">
        <ele>130.87670898438</ele>
        <time>2013-04-07T07:11:13Z</time>
      </trkpt>
      <trkpt lat="50.15472" lon="3.74427">
        <ele>130.87670898438</ele>
        <time>2013-04-07T07:11:34Z</time>
      </trkpt>
      <trkpt lat="50.1551" lon="3.74432">
        <ele>132.31860351562</ele>
        <time>2013-04-07T07:11:42Z</time>
      </trkpt>
      <trkpt lat="50.15528" lon="3.74419">
        <ele>132.79931640625</ele>
        <time>2013-04-07T07:11:47Z</time>
      </trkpt>
      <trkpt lat="50.15598" lon="3.74362">
        <ele>134.2412109375</ele>
        <time>2013-04-07T07:12:03Z</time>
      </trkpt>
      <trkpt lat="50.15623" lon="3.74352">
        <ele>135.20251464844</ele>
        <time>2013-04-07T07:12:08Z</time>
      </trkpt>
      <trkpt lat="50.15679" lon="3.7434">
        <ele>133.76049804688</ele>
        <time>2013-04-07T07:12:20Z</time>
      </trkpt>
      <trkpt lat="50.15741" lon="3.74307">
        <ele>130.39599609375</ele>
        <time>2013-04-07T07:12:29Z</time>
      </trkpt>
      <trkpt lat="50.1577" lon="3.74289">
        <ele>129.43469238281</ele>
        <time>2013-04-07T07:12:33Z</time>
      </trkpt>
      <trkpt lat="50.15814" lon="3.74294">
        <ele>132.31860351562</ele>
        <time>2013-04-07T07:12:39Z</time>
      </trkpt>
      <trkpt lat="50.15831" lon="3.74298">
        <ele>134.2412109375</ele>
        <time>2013-04-07T07:12:42Z</time>
      </trkpt>
      <trkpt lat="50.15936" lon="3.74327">
        <ele>132.31860351562</ele>
        <time>2013-04-07T07:12:59Z</time>
      </trkpt>
      <trkpt lat="50.16061" lon="3.74356">
        <ele>133.76049804688</ele>
        <time>2013-04-07T07:13:20Z</time>
      </trkpt>
      <trkpt lat="50.161" lon="3.74344">
        <ele>135.20251464844</ele>
        <time>2013-04-07T07:13:28Z</time>
      </trkpt>
      <trkpt lat="50.16126" lon="3.74335">
        <ele>134.72192382812</ele>
        <time>2013-04-07T07:13:33Z</time>
      </trkpt>
      <trkpt lat="50.16215" lon="3.74351">
        <ele>135.68310546875</ele>
        <time>2013-04-07T07:13:49Z</time>
      </trkpt>
      <trkpt lat="50.16291" lon="3.74374">
        <ele>136.64465332031</ele>
        <time>2013-04-07T07:14:04Z</time>
      </trkpt>
      <trkpt lat="50.1629" lon="3.74402">
        <ele>135.20251464844</ele>
        <time>2013-04-07T07:14:09Z</time>
      </trkpt>
      <trkpt lat="50.16268" lon="3.745">
        <ele>136.16394042969</ele>
        <time>2013-04-07T07:14:23Z</time>
      </trkpt>
      <trkpt lat="50.16254" lon="3.74554">
        <ele>138.08654785156</ele>
        <time>2013-04-07T07:14:32Z</time>
      </trkpt>
      <trkpt lat="50.16245" lon="3.74598">
        <ele>138.56726074219</ele>
        <time>2013-04-07T07:14:38Z</time>
      </trkpt>
      <trkpt lat="50.1623" lon="3.74664">
        <ele>140.48986816406</ele>
        <time>2013-04-07T07:14:46Z</time>
      </trkpt>
      <trkpt lat="50.16223" lon="3.74698">
        <ele>141.45104980469</ele>
        <time>2013-04-07T07:14:51Z</time>
      </trkpt>
      <trkpt lat="50.16208" lon="3.74776">
        <ele>142.89306640625</ele>
        <time>2013-04-07T07:15:01Z</time>
      </trkpt>
      <trkpt lat="50.16183" lon="3.74886">
        <ele>143.85437011719</ele>
        <time>2013-04-07T07:15:15Z</time>
      </trkpt>
      <trkpt lat="50.16169" lon="3.74951">
        <ele>142.89306640625</ele>
        <time>2013-04-07T07:15:22Z</time>
      </trkpt>
      <trkpt lat="50.16162" lon="3.74981">
        <ele>142.41247558594</ele>
        <time>2013-04-07T07:15:25Z</time>
      </trkpt>
      <trkpt lat="50.16137" lon="3.75096">
        <ele>142.41247558594</ele>
        <time>2013-04-07T07:15:38Z</time>
      </trkpt>
      <trkpt lat="50.16114" lon="3.75203">
        <ele>140.97045898438</ele>
        <time>2013-04-07T07:15:50Z</time>
      </trkpt>
      <trkpt lat="50.16093" lon="3.75301">
        <ele>140.00915527344</ele>
        <time>2013-04-07T07:16:00Z</time>
      </trkpt>
      <trkpt lat="50.16067" lon="3.7542">
        <ele>139.0478515625</ele>
        <time>2013-04-07T07:16:11Z</time>
      </trkpt>
      <trkpt lat="50.16058" lon="3.75465">
        <ele>139.0478515625</ele>
        <time>2013-04-07T07:16:15Z</time>
      </trkpt>
      <trkpt lat="50.16069" lon="3.75503">
        <ele>137.12524414062</ele>
        <time>2013-04-07T07:16:19Z</time>
      </trkpt>
      <trkpt lat="50.16075" lon="3.75503">
        <ele>136.64465332031</ele>
        <time>2013-04-07T07:16:20Z</time>
      </trkpt>
      <trkpt lat="50.16133" lon="3.75502">
        <ele>140.00915527344</ele>
        <time>2013-04-07T07:16:29Z</time>
      </trkpt>
      <trkpt lat="50.1627" lon="3.75501">
        <ele>138.08654785156</ele>
        <time>2013-04-07T07:16:50Z</time>
      </trkpt>
      <trkpt lat="50.16299" lon="3.75501">
        <ele>137.12524414062</ele>
        <time>2013-04-07T07:16:54Z</time>
      </trkpt>
      <trkpt lat="50.16362" lon="3.75501">
        <ele>133.27990722656</ele>
        <time>2013-04-07T07:17:02Z</time>
      </trkpt>
      <trkpt lat="50.16371" lon="3.75501">
        <ele>133.27990722656</ele>
        <time>2013-04-07T07:17:03Z</time>
      </trkpt>
      <trkpt lat="50.16397" lon="3.75501">
        <ele>131.837890625</ele>
        <time>2013-04-07T07:17:06Z</time>
      </trkpt>
      <trkpt lat="50.16475" lon="3.75501">
        <ele>134.2412109375</ele>
        <time>2013-04-07T07:17:16Z</time>
      </trkpt>
      <trkpt lat="50.16513" lon="3.75503">
        <ele>136.16394042969</ele>
        <time>2013-04-07T07:17:22Z</time>
      </trkpt>
      <trkpt lat="50.16525" lon="3.75503">
        <ele>136.16394042969</ele>
        <time>2013-04-07T07:17:24Z</time>
      </trkpt>
      <trkpt lat="50.16584" lon="3.75505">
        <ele>137.60583496094</ele>
        <time>2013-04-07T07:17:35Z</time>
      </trkpt>
      <trkpt lat="50.1663" lon="3.75507">
        <ele>136.64465332031</ele>
        <time>2013-04-07T07:17:44Z</time>
      </trkpt>
      <trkpt lat="50.16647" lon="3.75507">
        <ele>137.12524414062</ele>
        <time>2013-04-07T07:17:47Z</time>
      </trkpt>
      <trkpt lat="50.16662" lon="3.75508">
        <ele>137.12524414062</ele>
        <time>2013-04-07T07:17:50Z</time>
      </trkpt>
      <trkpt lat="50.16679" lon="3.75508">
        <ele>137.12524414062</ele>
        <time>2013-04-07T07:17:53Z</time>
      </trkpt>
      <trkpt lat="50.16689" lon="3.75509">
        <ele>136.64465332031</ele>
        <time>2013-04-07T07:17:55Z</time>
      </trkpt>
      <trkpt lat="50.16703" lon="3.7548">
        <ele>136.64465332031</ele>
        <time>2013-04-07T07:18:00Z</time>
      </trkpt>
      <trkpt lat="50.16703" lon="3.75335">
        <ele>138.08654785156</ele>
        <time>2013-04-07T07:18:18Z</time>
      </trkpt>
      <trkpt lat="50.16703" lon="3.75305">
        <ele>138.56726074219</ele>
        <time>2013-04-07T07:18:22Z</time>
      </trkpt>
      <trkpt lat="50.16703" lon="3.7521">
        <ele>141.45104980469</ele>
        <time>2013-04-07T07:18:35Z</time>
      </trkpt>
      <trkpt lat="50.16703" lon="3.7518">
        <ele>141.93176269531</ele>
        <time>2013-04-07T07:18:39Z</time>
      </trkpt>
      <trkpt lat="50.16703" lon="3.75164">
        <ele>142.41247558594</ele>
        <time>2013-04-07T07:18:41Z</time>
      </trkpt>
      <trkpt lat="50.16703" lon="3.75091">
        <ele>142.89306640625</ele>
        <time>2013-04-07T07:18:51Z</time>
      </trkpt>
      <trkpt lat="50.16704" lon="3.75038">
        <ele>143.37365722656</ele>
        <time>2013-04-07T07:18:59Z</time>
      </trkpt>
      <trkpt lat="50.16705" lon="3.74919">
        <ele>145.29638671875</ele>
        <time>2013-04-07T07:19:16Z</time>
      </trkpt>
      <trkpt lat="50.16706" lon="3.74843">
        <ele>146.73840332031</ele>
        <time>2013-04-07T07:19:27Z</time>
      </trkpt>
      <trkpt lat="50.16707" lon="3.74829">
        <ele>147.69970703125</ele>
        <time>2013-04-07T07:19:29Z</time>
      </trkpt>
      <trkpt lat="50.16707" lon="3.7475">
        <ele>149.62231445312</ele>
        <time>2013-04-07T07:19:42Z</time>
      </trkpt>
      <trkpt lat="50.16708" lon="3.74666">
        <ele>150.10302734375</ele>
        <time>2013-04-07T07:19:56Z</time>
      </trkpt>
      <trkpt lat="50.16708" lon="3.74583">
        <ele>148.18041992188</ele>
        <time>2013-04-07T07:20:09Z</time>
      </trkpt>
      <trkpt lat="50.16709" lon="3.74504">
        <ele>147.69970703125</ele>
        <time>2013-04-07T07:20:21Z</time>
      </trkpt>
      <trkpt lat="50.16709" lon="3.74491">
        <ele>147.69970703125</ele>
        <time>2013-04-07T07:20:22Z</time>
      </trkpt>
      <trkpt lat="50.16709" lon="3.74456">
        <ele>146.73840332031</ele>
        <time>2013-04-07T07:20:27Z</time>
      </trkpt>
      <trkpt lat="50.16709" lon="3.74412">
        <ele>146.2578125</ele>
        <time>2013-04-07T07:20:33Z</time>
      </trkpt>
      <trkpt lat="50.16708" lon="3.7434">
        <ele>144.81579589844</ele>
        <time>2013-04-07T07:20:43Z</time>
      </trkpt>
      <trkpt lat="50.16707" lon="3.74314">
        <ele>142.89306640625</ele>
        <time>2013-04-07T07:20:46Z</time>
      </trkpt>
      <trkpt lat="50.16707" lon="3.74271">
        <ele>140.97045898438</ele>
        <time>2013-04-07T07:20:50Z</time>
      </trkpt>
      <trkpt lat="50.16707" lon="3.74261">
        <ele>139.52844238281</ele>
        <time>2013-04-07T07:20:51Z</time>
      </trkpt>
      <trkpt lat="50.16707" lon="3.74208">
        <ele>138.08654785156</ele>
        <time>2013-04-07T07:20:55Z</time>
      </trkpt>
      <trkpt lat="50.16707" lon="3.74185">
        <ele>137.60583496094</ele>
        <time>2013-04-07T07:20:57Z</time>
      </trkpt>
      <trkpt lat="50.16707" lon="3.74132">
        <ele>140.48986816406</ele>
        <time>2013-04-07T07:21:02Z</time>
      </trkpt>
      <trkpt lat="50.16707" lon="3.74093">
        <ele>142.89306640625</ele>
        <time>2013-04-07T07:21:06Z</time>
      </trkpt>
      <trkpt lat="50.16707" lon="3.74086">
        <ele>143.37365722656</ele>
        <time>2013-04-07T07:21:07Z</time>
      </trkpt>
      <trkpt lat="50.16722" lon="3.74048">
        <ele>145.29638671875</ele>
        <time>2013-04-07T07:21:13Z</time>
      </trkpt>
      <trkpt lat="50.1673" lon="3.7404">
        <ele>144.81579589844</ele>
        <time>2013-04-07T07:21:15Z</time>
      </trkpt>
      <trkpt lat="50.16728" lon="3.74004">
        <ele>145.29638671875</ele>
        <time>2013-04-07T07:21:20Z</time>
      </trkpt>
      <trkpt lat="50.16722" lon="3.73991">
        <ele>145.77709960938</ele>
        <time>2013-04-07T07:21:22Z</time>
      </trkpt>
      <trkpt lat="50.1671" lon="3.73966">
        <ele>146.73840332031</ele>
        <time>2013-04-07T07:21:26Z</time>
      </trkpt>
      <trkpt lat="50.16679" lon="3.73901">
        <ele>147.21899414062</ele>
        <time>2013-04-07T07:21:36Z</time>
      </trkpt>
      <trkpt lat="50.16639" lon="3.73819">
        <ele>144.81579589844</ele>
        <time>2013-04-07T07:21:46Z</time>
      </trkpt>
      <trkpt lat="50.16621" lon="3.7378">
        <ele>142.89306640625</ele>
        <time>2013-04-07T07:21:50Z</time>
      </trkpt>
      <trkpt lat="50.16606" lon="3.73748">
        <ele>140.00915527344</ele>
        <time>2013-04-07T07:21:53Z</time>
      </trkpt>
      <trkpt lat="50.1659" lon="3.73718">
        <ele>140.97045898438</ele>
        <time>2013-04-07T07:21:56Z</time>
      </trkpt>
      <trkpt lat="50.16573" lon="3.73683">
        <ele>142.41247558594</ele>
        <time>2013-04-07T07:22:00Z</time>
      </trkpt>
      <trkpt lat="50.16567" lon="3.73671">
        <ele>143.37365722656</ele>
        <time>2013-04-07T07:22:02Z</time>
      </trkpt>
      <trkpt lat="50.16552" lon="3.7364">
        <ele>145.77709960938</ele>
        <time>2013-04-07T07:22:07Z</time>
      </trkpt>
      <trkpt lat="50.1654" lon="3.73614">
        <ele>146.73840332031</ele>
        <time>2013-04-07T07:22:11Z</time>
      </trkpt>
      <trkpt lat="50.16509" lon="3.73546">
        <ele>149.62231445312</ele>
        <time>2013-04-07T07:22:22Z</time>
      </trkpt>
      <trkpt lat="50.16496" lon="3.7352">
        <ele>149.62231445312</ele>
        <time>2013-04-07T07:22:26Z</time>
      </trkpt>
      <trkpt lat="50.16457" lon="3.73439">
        <ele>147.69970703125</ele>
        <time>2013-04-07T07:22:38Z</time>
      </trkpt>
      <trkpt lat="50.16453" lon="3.73432">
        <ele>147.69970703125</ele>
        <time>2013-04-07T07:22:39Z</time>
      </trkpt>
      <trkpt lat="50.1642" lon="3.73363">
        <ele>144.81579589844</ele>
        <time>2013-04-07T07:22:48Z</time>
      </trkpt>
      <trkpt lat="50.16399" lon="3.7332">
        <ele>141.93176269531</ele>
        <time>2013-04-07T07:22:53Z</time>
      </trkpt>
      <trkpt lat="50.16367" lon="3.73254">
        <ele>138.08654785156</ele>
        <time>2013-04-07T07:22:59Z</time>
      </trkpt>
      <trkpt lat="50.16361" lon="3.73243">
        <ele>138.08654785156</ele>
        <time>2013-04-07T07:23:00Z</time>
      </trkpt>
      <trkpt lat="50.16346" lon="3.73208">
        <ele>135.68310546875</ele>
        <time>2013-04-07T07:23:03Z</time>
      </trkpt>
      <trkpt lat="50.16323" lon="3.73161">
        <ele>134.2412109375</ele>
        <time>2013-04-07T07:23:07Z</time>
      </trkpt>
      <trkpt lat="50.16271" lon="3.73055">
        <ele>133.27990722656</ele>
        <time>2013-04-07T07:23:16Z</time>
      </trkpt>
      <trkpt lat="50.16247" lon="3.73007">
        <ele>134.72192382812</ele>
        <time>2013-04-07T07:23:21Z</time>
      </trkpt>
      <trkpt lat="50.16239" lon="3.7299">
        <ele>134.72192382812</ele>
        <time>2013-04-07T07:23:23Z</time>
      </trkpt>
      <trkpt lat="50.16207" lon="3.72924">
        <ele>137.60583496094</ele>
        <time>2013-04-07T07:23:32Z</time>
      </trkpt>
      <trkpt lat="50.1618" lon="3.72869">
        <ele>140.48986816406</ele>
        <time>2013-04-07T07:23:40Z</time>
      </trkpt>
      <trkpt lat="50.16168" lon="3.72844">
        <ele>141.45104980469</ele>
        <time>2013-04-07T07:23:44Z</time>
      </trkpt>
      <trkpt lat="50.1616" lon="3.72828">
        <ele>141.93176269531</ele>
        <time>2013-04-07T07:23:47Z</time>
      </trkpt>
      <trkpt lat="50.16149" lon="3.72804">
        <ele>141.45104980469</ele>
        <time>2013-04-07T07:23:51Z</time>
      </trkpt>
      <trkpt lat="50.1613" lon="3.72763">
        <ele>142.41247558594</ele>
        <time>2013-04-07T07:23:57Z</time>
      </trkpt>
      <trkpt lat="50.16074" lon="3.72651">
        <ele>144.33520507812</ele>
        <time>2013-04-07T07:24:14Z</time>
      </trkpt>
      <trkpt lat="50.16018" lon="3.72534">
        <ele>144.33520507812</ele>
        <time>2013-04-07T07:24:32Z</time>
      </trkpt>
      <trkpt lat="50.16015" lon="3.72527">
        <ele>144.33520507812</ele>
        <time>2013-04-07T07:24:33Z</time>
      </trkpt>
      <trkpt lat="50.15984" lon="3.72462">
        <ele>143.37365722656</ele>
        <time>2013-04-07T07:24:42Z</time>
      </trkpt>
      <trkpt lat="50.15962" lon="3.72417">
        <ele>141.45104980469</ele>
        <time>2013-04-07T07:24:48Z</time>
      </trkpt>
      <trkpt lat="50.15931" lon="3.72358">
        <ele>139.0478515625</ele>
        <time>2013-04-07T07:24:56Z</time>
      </trkpt>
      <trkpt lat="50.15909" lon="3.72315">
        <ele>137.60583496094</ele>
        <time>2013-04-07T07:25:01Z</time>
      </trkpt>
      <trkpt lat="50.15891" lon="3.72275">
        <ele>138.56726074219</ele>
        <time>2013-04-07T07:25:06Z</time>
      </trkpt>
      <trkpt lat="50.15854" lon="3.72198">
        <ele>142.41247558594</ele>
        <time>2013-04-07T07:25:17Z</time>
      </trkpt>
      <trkpt lat="50.15848" lon="3.72186">
        <ele>143.37365722656</ele>
        <time>2013-04-07T07:25:19Z</time>
      </trkpt>
      <trkpt lat="50.15829" lon="3.72145">
        <ele>145.77709960938</ele>
        <time>2013-04-07T07:25:26Z</time>
      </trkpt>
      <trkpt lat="50.15787" lon="3.7206">
        <ele>149.1416015625</ele>
        <time>2013-04-07T07:25:41Z</time>
      </trkpt>
      <trkpt lat="50.1572" lon="3.71922">
        <ele>151.06420898438</ele>
        <time>2013-04-07T07:26:05Z</time>
      </trkpt>
      <trkpt lat="50.15697" lon="3.71871">
        <ele>152.02575683594</ele>
        <time>2013-04-07T07:26:20Z</time>
      </trkpt>
      <trkpt lat="50.15719" lon="3.71835">
        <ele>153.94836425781</ele>
        <time>2013-04-07T07:26:35Z</time>
      </trkpt>
      <trkpt lat="50.15748" lon="3.71789">
        <ele>155.39025878906</ele>
        <time>2013-04-07T07:26:51Z</time>
      </trkpt>
      <trkpt lat="50.15793" lon="3.71718">
        <ele>158.27416992188</ele>
        <time>2013-04-07T07:27:13Z</time>
      </trkpt>
      <trkpt lat="50.15836" lon="3.71649">
        <ele>159.23547363281</ele>
        <time>2013-04-07T07:27:34Z</time>
      </trkpt>
      <trkpt lat="50.15888" lon="3.71571">
        <ele>157.31286621094</ele>
        <time>2013-04-07T07:27:51Z</time>
      </trkpt>
      <trkpt lat="50.15896" lon="3.71559">
        <ele>156.83215332031</ele>
        <time>2013-04-07T07:27:53Z</time>
      </trkpt>
      <trkpt lat="50.15909" lon="3.71538">
        <ele>154.42895507812</ele>
        <time>2013-04-07T07:27:56Z</time>
      </trkpt>
      <trkpt lat="50.15927" lon="3.7151">
        <ele>152.98693847656</ele>
        <time>2013-04-07T07:28:00Z</time>
      </trkpt>
      <trkpt lat="50.15948" lon="3.71477">
        <ele>154.42895507812</ele>
        <time>2013-04-07T07:28:05Z</time>
      </trkpt>
      <trkpt lat="50.15984" lon="3.71418">
        <ele>156.3515625</ele>
        <time>2013-04-07T07:28:16Z</time>
      </trkpt>
      <trkpt lat="50.16015" lon="3.71371">
        <ele>157.31286621094</ele>
        <time>2013-04-07T07:28:25Z</time>
      </trkpt>
      <trkpt lat="50.16026" lon="3.71355">
        <ele>155.87097167969</ele>
        <time>2013-04-07T07:28:28Z</time>
      </trkpt>
      <trkpt lat="50.1603" lon="3.71348">
        <ele>154.90954589844</ele>
        <time>2013-04-07T07:28:29Z</time>
      </trkpt>
      <trkpt lat="50.16044" lon="3.71328">
        <ele>153.94836425781</ele>
        <time>2013-04-07T07:28:32Z</time>
      </trkpt>
      <trkpt lat="50.16059" lon="3.71303">
        <ele>152.02575683594</ele>
        <time>2013-04-07T07:28:35Z</time>
      </trkpt>
      <trkpt lat="50.16081" lon="3.71268">
        <ele>149.1416015625</ele>
        <time>2013-04-07T07:28:39Z</time>
      </trkpt>
      <trkpt lat="50.16127" lon="3.712">
        <ele>152.50634765625</ele>
        <time>2013-04-07T07:28:48Z</time>
      </trkpt>
      <trkpt lat="50.16131" lon="3.71193">
        <ele>152.50634765625</ele>
        <time>2013-04-07T07:28:49Z</time>
      </trkpt>
      <trkpt lat="50.16164" lon="3.71142">
        <ele>152.98693847656</ele>
        <time>2013-04-07T07:28:57Z</time>
      </trkpt>
      <trkpt lat="50.16208" lon="3.71072">
        <ele>150.10302734375</ele>
        <time>2013-04-07T07:29:08Z</time>
      </trkpt>
      <trkpt lat="50.16258" lon="3.70989">
        <ele>150.10302734375</ele>
        <time>2013-04-07T07:29:19Z</time>
      </trkpt>
      <trkpt lat="50.16286" lon="3.70945">
        <ele>152.98693847656</ele>
        <time>2013-04-07T07:29:26Z</time>
      </trkpt>
      <trkpt lat="50.16312" lon="3.70908">
        <ele>155.39025878906</ele>
        <time>2013-04-07T07:29:33Z</time>
      </trkpt>
      <trkpt lat="50.16354" lon="3.70843">
        <ele>158.75476074219</ele>
        <time>2013-04-07T07:29:45Z</time>
      </trkpt>
      <trkpt lat="50.16382" lon="3.70799">
        <ele>158.75476074219</ele>
        <time>2013-04-07T07:29:56Z</time>
      </trkpt>
      <trkpt lat="50.1639" lon="3.70786">
        <ele>157.79357910156</ele>
        <time>2013-04-07T07:29:59Z</time>
      </trkpt>
      <trkpt lat="50.16424" lon="3.70732">
        <ele>154.42895507812</ele>
        <time>2013-04-07T07:30:08Z</time>
      </trkpt>
      <trkpt lat="50.16429" lon="3.70725">
        <ele>153.94836425781</ele>
        <time>2013-04-07T07:30:09Z</time>
      </trkpt>
      <trkpt lat="50.16496" lon="3.70617">
        <ele>153.94836425781</ele>
        <time>2013-04-07T07:30:26Z</time>
      </trkpt>
      <trkpt lat="50.16538" lon="3.70553">
        <ele>157.31286621094</ele>
        <time>2013-04-07T07:30:39Z</time>
      </trkpt>
      <trkpt lat="50.16543" lon="3.70546">
        <ele>158.27416992188</ele>
        <time>2013-04-07T07:30:41Z</time>
      </trkpt>
      <trkpt lat="50.16538" lon="3.70528">
        <ele>158.27416992188</ele>
        <time>2013-04-07T07:30:46Z</time>
      </trkpt>
      <trkpt lat="50.1651" lon="3.7046">
        <ele>158.27416992188</ele>
        <time>2013-04-07T07:31:02Z</time>
      </trkpt>
      <trkpt lat="50.16493" lon="3.70415">
        <ele>159.71618652344</ele>
        <time>2013-04-07T07:31:13Z</time>
      </trkpt>
      <trkpt lat="50.16467" lon="3.70348">
        <ele>161.63891601562</ele>
        <time>2013-04-07T07:31:28Z</time>
      </trkpt>
      <trkpt lat="50.16437" lon="3.70277">
        <ele>163.5615234375</ele>
        <time>2013-04-07T07:31:44Z</time>
      </trkpt>
      <trkpt lat="50.16429" lon="3.70255">
        <ele>163.5615234375</ele>
        <time>2013-04-07T07:31:49Z</time>
      </trkpt>
      <trkpt lat="50.16402" lon="3.70189">
        <ele>165.00341796875</ele>
        <time>2013-04-07T07:32:05Z</time>
      </trkpt>
      <trkpt lat="50.1639" lon="3.70157">
        <ele>165.48413085938</ele>
        <time>2013-04-07T07:32:13Z</time>
      </trkpt>
      <trkpt lat="50.16372" lon="3.70113">
        <ele>165.96472167969</ele>
        <time>2013-04-07T07:32:25Z</time>
      </trkpt>
      <trkpt lat="50.16344" lon="3.70046">
        <ele>166.4453125</ele>
        <time>2013-04-07T07:32:40Z</time>
      </trkpt>
      <trkpt lat="50.16317" lon="3.69972">
        <ele>166.92602539062</ele>
        <time>2013-04-07T07:32:55Z</time>
      </trkpt>
      <trkpt lat="50.16278" lon="3.69876">
        <ele>165.00341796875</ele>
        <time>2013-04-07T07:33:13Z</time>
      </trkpt>
      <trkpt lat="50.16235" lon="3.69761">
        <ele>164.04211425781</ele>
        <time>2013-04-07T07:33:34Z</time>
      </trkpt>
      <trkpt lat="50.16193" lon="3.69656">
        <ele>166.4453125</ele>
        <time>2013-04-07T07:33:55Z</time>
      </trkpt>
      <trkpt lat="50.1616" lon="3.6957">
        <ele>169.32946777344</ele>
        <time>2013-04-07T07:34:12Z</time>
      </trkpt>
      <trkpt lat="50.16141" lon="3.69525">
        <ele>170.77136230469</ele>
        <time>2013-04-07T07:34:22Z</time>
      </trkpt>
      <trkpt lat="50.16108" lon="3.69443">
        <ele>173.17468261719</ele>
        <time>2013-04-07T07:34:39Z</time>
      </trkpt>
      <trkpt lat="50.16068" lon="3.69339">
        <ele>174.13586425781</ele>
        <time>2013-04-07T07:34:58Z</time>
      </trkpt>
      <trkpt lat="50.16066" lon="3.69334">
        <ele>174.13586425781</ele>
        <time>2013-04-07T07:34:59Z</time>
      </trkpt>
      <trkpt lat="50.16035" lon="3.6926">
        <ele>171.73266601562</ele>
        <time>2013-04-07T07:35:12Z</time>
      </trkpt>
      <trkpt lat="50.16027" lon="3.69239">
        <ele>171.25207519531</ele>
        <time>2013-04-07T07:35:15Z</time>
      </trkpt>
      <trkpt lat="50.16019" lon="3.69217">
        <ele>169.81005859375</ele>
        <time>2013-04-07T07:35:18Z</time>
      </trkpt>
      <trkpt lat="50.15981" lon="3.69117">
        <ele>165.48413085938</ele>
        <time>2013-04-07T07:35:30Z</time>
      </trkpt>
      <trkpt lat="50.15973" lon="3.69098">
        <ele>164.04211425781</ele>
        <time>2013-04-07T07:35:32Z</time>
      </trkpt>
      <trkpt lat="50.15966" lon="3.69078">
        <ele>163.08081054688</ele>
        <time>2013-04-07T07:35:34Z</time>
      </trkpt>
      <trkpt lat="50.15953" lon="3.69047">
        <ele>161.63891601562</ele>
        <time>2013-04-07T07:35:37Z</time>
      </trkpt>
      <trkpt lat="50.15944" lon="3.69026">
        <ele>160.67749023438</ele>
        <time>2013-04-07T07:35:39Z</time>
      </trkpt>
      <trkpt lat="50.15922" lon="3.68968">
        <ele>161.63891601562</ele>
        <time>2013-04-07T07:35:45Z</time>
      </trkpt>
      <trkpt lat="50.15887" lon="3.68882">
        <ele>165.48413085938</ele>
        <time>2013-04-07T07:35:56Z</time>
      </trkpt>
      <trkpt lat="50.15874" lon="3.68848">
        <ele>167.40673828125</ele>
        <time>2013-04-07T07:36:01Z</time>
      </trkpt>
      <trkpt lat="50.15857" lon="3.68805">
        <ele>169.32946777344</ele>
        <time>2013-04-07T07:36:08Z</time>
      </trkpt>
      <trkpt lat="50.15805" lon="3.68674">
        <ele>169.81005859375</ele>
        <time>2013-04-07T07:36:28Z</time>
      </trkpt>
      <trkpt lat="50.15789" lon="3.68632">
        <ele>170.29064941406</ele>
        <time>2013-04-07T07:36:34Z</time>
      </trkpt>
      <trkpt lat="50.15784" lon="3.68619">
        <ele>170.29064941406</ele>
        <time>2013-04-07T07:36:36Z</time>
      </trkpt>
      <trkpt lat="50.15754" lon="3.68541">
        <ele>169.81005859375</ele>
        <time>2013-04-07T07:36:48Z</time>
      </trkpt>
      <trkpt lat="50.1574" lon="3.68507">
        <ele>168.84875488281</ele>
        <time>2013-04-07T07:36:53Z</time>
      </trkpt>
      <trkpt lat="50.15693" lon="3.68387">
        <ele>165.48413085938</ele>
        <time>2013-04-07T07:37:10Z</time>
      </trkpt>
      <trkpt lat="50.15675" lon="3.6834">
        <ele>164.52270507812</ele>
        <time>2013-04-07T07:37:16Z</time>
      </trkpt>
      <trkpt lat="50.15649" lon="3.68274">
        <ele>161.63891601562</ele>
        <time>2013-04-07T07:37:24Z</time>
      </trkpt>
      <trkpt lat="50.15596" lon="3.68141">
        <ele>163.5615234375</ele>
        <time>2013-04-07T07:37:41Z</time>
      </trkpt>
      <trkpt lat="50.15546" lon="3.68019">
        <ele>165.96472167969</ele>
        <time>2013-04-07T07:38:00Z</time>
      </trkpt>
      <trkpt lat="50.15538" lon="3.67999">
        <ele>165.48413085938</ele>
        <time>2013-04-07T07:38:03Z</time>
      </trkpt>
      <trkpt lat="50.15529" lon="3.67977">
        <ele>164.52270507812</ele>
        <time>2013-04-07T07:38:06Z</time>
      </trkpt>
      <trkpt lat="50.15484" lon="3.67855">
        <ele>166.4453125</ele>
        <time>2013-04-07T07:38:24Z</time>
      </trkpt>
      <trkpt lat="50.15482" lon="3.67849">
        <ele>166.4453125</ele>
        <time>2013-04-07T07:38:25Z</time>
      </trkpt>
      <trkpt lat="50.15449" lon="3.67761">
        <ele>167.88732910156</ele>
        <time>2013-04-07T07:38:40Z</time>
      </trkpt>
      <trkpt lat="50.15402" lon="3.67644">
        <ele>165.96472167969</ele>
        <time>2013-04-07T07:38:58Z</time>
      </trkpt>
      <trkpt lat="50.15371" lon="3.67566">
        <ele>166.92602539062</ele>
        <time>2013-04-07T07:39:09Z</time>
      </trkpt>
      <trkpt lat="50.15324" lon="3.67446">
        <ele>167.88732910156</ele>
        <time>2013-04-07T07:39:26Z</time>
      </trkpt>
      <trkpt lat="50.15276" lon="3.67325">
        <ele>166.92602539062</ele>
        <time>2013-04-07T07:39:45Z</time>
      </trkpt>
      <trkpt lat="50.15271" lon="3.67314">
        <ele>166.92602539062</ele>
        <time>2013-04-07T07:39:47Z</time>
      </trkpt>
      <trkpt lat="50.15284" lon="3.67292">
        <ele>165.48413085938</ele>
        <time>2013-04-07T07:39:53Z</time>
      </trkpt>
      <trkpt lat="50.15322" lon="3.67278">
        <ele>166.92602539062</ele>
        <time>2013-04-07T07:40:04Z</time>
      </trkpt>
      <trkpt lat="50.15338" lon="3.67272">
        <ele>166.92602539062</ele>
        <time>2013-04-07T07:40:08Z</time>
      </trkpt>
      <trkpt lat="50.15389" lon="3.67256">
        <ele>167.40673828125</ele>
        <time>2013-04-07T07:40:20Z</time>
      </trkpt>
      <trkpt lat="50.15439" lon="3.67239">
        <ele>166.4453125</ele>
        <time>2013-04-07T07:40:32Z</time>
      </trkpt>
      <trkpt lat="50.15491" lon="3.67218">
        <ele>166.4453125</ele>
        <time>2013-04-07T07:40:44Z</time>
      </trkpt>
      <trkpt lat="50.15542" lon="3.67199">
        <ele>165.48413085938</ele>
        <time>2013-04-07T07:40:55Z</time>
      </trkpt>
      <trkpt lat="50.1557" lon="3.67188">
        <ele>164.52270507812</ele>
        <time>2013-04-07T07:41:01Z</time>
      </trkpt>
      <trkpt lat="50.15583" lon="3.67183">
        <ele>164.04211425781</ele>
        <time>2013-04-07T07:41:04Z</time>
      </trkpt>
      <trkpt lat="50.15621" lon="3.67171">
        <ele>163.5615234375</ele>
        <time>2013-04-07T07:41:13Z</time>
      </trkpt>
      <trkpt lat="50.15702" lon="3.6714">
        <ele>161.158203125</ele>
        <time>2013-04-07T07:41:30Z</time>
      </trkpt>
      <trkpt lat="50.15707" lon="3.67139">
        <ele>160.19689941406</ele>
        <time>2013-04-07T07:41:31Z</time>
      </trkpt>
      <trkpt lat="50.15722" lon="3.67132">
        <ele>159.71618652344</ele>
        <time>2013-04-07T07:41:34Z</time>
      </trkpt>
      <trkpt lat="50.15751" lon="3.67119">
        <ele>156.83215332031</ele>
        <time>2013-04-07T07:41:39Z</time>
      </trkpt>
      <trkpt lat="50.15778" lon="3.67107">
        <ele>156.83215332031</ele>
        <time>2013-04-07T07:41:46Z</time>
      </trkpt>
      <trkpt lat="50.15802" lon="3.67096">
        <ele>157.31286621094</ele>
        <time>2013-04-07T07:41:51Z</time>
      </trkpt>
      <trkpt lat="50.15845" lon="3.67082">
        <ele>159.71618652344</ele>
        <time>2013-04-07T07:42:00Z</time>
      </trkpt>
      <trkpt lat="50.15849" lon="3.67081">
        <ele>160.19689941406</ele>
        <time>2013-04-07T07:42:02Z</time>
      </trkpt>
      <trkpt lat="50.15887" lon="3.67073">
        <ele>162.60009765625</ele>
        <time>2013-04-07T07:42:13Z</time>
      </trkpt>
      <trkpt lat="50.15915" lon="3.67067">
        <ele>163.5615234375</ele>
        <time>2013-04-07T07:42:20Z</time>
      </trkpt>
      <trkpt lat="50.15942" lon="3.67061">
        <ele>164.04211425781</ele>
        <time>2013-04-07T07:42:29Z</time>
      </trkpt>
      <trkpt lat="50.15983" lon="3.67053">
        <ele>163.08081054688</ele>
        <time>2013-04-07T07:42:38Z</time>
      </trkpt>
      <trkpt lat="50.16018" lon="3.67046">
        <ele>163.5615234375</ele>
        <time>2013-04-07T07:42:47Z</time>
      </trkpt>
      <trkpt lat="50.16069" lon="3.67036">
        <ele>164.52270507812</ele>
        <time>2013-04-07T07:42:59Z</time>
      </trkpt>
      <trkpt lat="50.16081" lon="3.67033">
        <ele>165.48413085938</ele>
        <time>2013-04-07T07:43:03Z</time>
      </trkpt>
      <trkpt lat="50.1612" lon="3.67023">
        <ele>165.96472167969</ele>
        <time>2013-04-07T07:43:12Z</time>
      </trkpt>
      <trkpt lat="50.16149" lon="3.67016">
        <ele>166.4453125</ele>
        <time>2013-04-07T07:43:18Z</time>
      </trkpt>
      <trkpt lat="50.1616" lon="3.67014">
        <ele>167.40673828125</ele>
        <time>2013-04-07T07:43:21Z</time>
      </trkpt>
      <trkpt lat="50.16174" lon="3.6701">
        <ele>167.40673828125</ele>
        <time>2013-04-07T07:43:31Z</time>
      </trkpt>
      <trkpt lat="50.16186" lon="3.67008">
        <ele>167.40673828125</ele>
        <time>2013-04-07T07:43:35Z</time>
      </trkpt>
      <trkpt lat="50.16194" lon="3.67006">
        <ele>167.40673828125</ele>
        <time>2013-04-07T07:43:44Z</time>
      </trkpt>
      <trkpt lat="50.16191" lon="3.67003">
        <ele>167.88732910156</ele>
        <time>2013-04-07T07:43:53Z</time>
      </trkpt>
      <trkpt lat="50.16178" lon="3.67008">
        <ele>167.88732910156</ele>
        <time>2013-04-07T07:44:05Z</time>
      </trkpt>
      <trkpt lat="50.16167" lon="3.6701">
        <ele>167.88732910156</ele>
        <time>2013-04-07T07:44:12Z</time>
      </trkpt>
      <trkpt lat="50.16136" lon="3.67019">
        <ele>165.96472167969</ele>
        <time>2013-04-07T07:44:23Z</time>
      </trkpt>
      <trkpt lat="50.16126" lon="3.67023">
        <ele>166.4453125</ele>
        <time>2013-04-07T07:44:26Z</time>
      </trkpt>
      <trkpt lat="50.16089" lon="3.67029">
        <ele>165.00341796875</ele>
        <time>2013-04-07T07:44:38Z</time>
      </trkpt>
      <trkpt lat="50.16067" lon="3.67034">
        <ele>165.00341796875</ele>
        <time>2013-04-07T07:44:48Z</time>
      </trkpt>
      <trkpt lat="50.16026" lon="3.67044">
        <ele>163.5615234375</ele>
        <time>2013-04-07T07:44:56Z</time>
      </trkpt>
      <trkpt lat="50.15984" lon="3.67052">
        <ele>164.04211425781</ele>
        <time>2013-04-07T07:45:05Z</time>
      </trkpt>
      <trkpt lat="50.15947" lon="3.6706">
        <ele>164.52270507812</ele>
        <time>2013-04-07T07:45:14Z</time>
      </trkpt>
      <trkpt lat="50.15911" lon="3.67068">
        <ele>164.04211425781</ele>
        <time>2013-04-07T07:45:23Z</time>
      </trkpt>
      <trkpt lat="50.15902" lon="3.6707">
        <ele>163.08081054688</ele>
        <time>2013-04-07T07:45:27Z</time>
      </trkpt>
      <trkpt lat="50.15891" lon="3.67072">
        <ele>162.60009765625</ele>
        <time>2013-04-07T07:45:39Z</time>
      </trkpt>
      <trkpt lat="50.15891" lon="3.67072">
        <ele>164.52270507812</ele>
        <time>2013-04-07T07:47:18Z</time>
      </trkpt>
      <trkpt lat="50.15882" lon="3.67074">
        <ele>163.5615234375</ele>
        <time>2013-04-07T07:47:22Z</time>
      </trkpt>
      <trkpt lat="50.15855" lon="3.6708">
        <ele>162.11950683594</ele>
        <time>2013-04-07T07:47:33Z</time>
      </trkpt>
      <trkpt lat="50.15846" lon="3.67082">
        <ele>159.71618652344</ele>
        <time>2013-04-07T07:47:35Z</time>
      </trkpt>
      <trkpt lat="50.15816" lon="3.67089">
        <ele>159.23547363281</ele>
        <time>2013-04-07T07:47:41Z</time>
      </trkpt>
      <trkpt lat="50.15784" lon="3.67104">
        <ele>160.67749023438</ele>
        <time>2013-04-07T07:47:53Z</time>
      </trkpt>
      <trkpt lat="50.15764" lon="3.67113">
        <ele>161.158203125</ele>
        <time>2013-04-07T07:47:59Z</time>
      </trkpt>
      <trkpt lat="50.15758" lon="3.67116">
        <ele>161.63891601562</ele>
        <time>2013-04-07T07:48:01Z</time>
      </trkpt>
      <trkpt lat="50.15716" lon="3.6713">
        <ele>162.11950683594</ele>
        <time>2013-04-07T07:48:04Z</time>
      </trkpt>
      <trkpt lat="50.15735" lon="3.67126">
        <ele>160.19689941406</ele>
        <time>2013-04-07T07:48:06Z</time>
      </trkpt>
      <trkpt lat="50.15729" lon="3.67129">
        <ele>162.11950683594</ele>
        <time>2013-04-07T07:48:08Z</time>
      </trkpt>
      <trkpt lat="50.15707" lon="3.67108">
        <ele>164.04211425781</ele>
        <time>2013-04-07T07:48:10Z</time>
      </trkpt>
      <trkpt lat="50.15706" lon="3.67107">
        <ele>164.04211425781</ele>
        <time>2013-04-07T07:48:11Z</time>
      </trkpt>
      <trkpt lat="50.15699" lon="3.67088">
        <ele>164.52270507812</ele>
        <time>2013-04-07T07:48:16Z</time>
      </trkpt>
      <trkpt lat="50.15691" lon="3.67067">
        <ele>162.60009765625</ele>
        <time>2013-04-07T07:48:20Z</time>
      </trkpt>
      <trkpt lat="50.15686" lon="3.67056">
        <ele>163.5615234375</ele>
        <time>2013-04-07T07:48:22Z</time>
      </trkpt>
      <trkpt lat="50.15672" lon="3.6702">
        <ele>164.52270507812</ele>
        <time>2013-04-07T07:48:32Z</time>
      </trkpt>
      <trkpt lat="50.15658" lon="3.66985">
        <ele>164.04211425781</ele>
        <time>2013-04-07T07:48:39Z</time>
      </trkpt>
      <trkpt lat="50.15654" lon="3.66974">
        <ele>163.5615234375</ele>
        <time>2013-04-07T07:48:41Z</time>
      </trkpt>
      <trkpt lat="50.15636" lon="3.66923">
        <ele>165.48413085938</ele>
        <time>2013-04-07T07:48:52Z</time>
      </trkpt>
      <trkpt lat="50.15641" lon="3.66867">
        <ele>166.4453125</ele>
        <time>2013-04-07T07:49:01Z</time>
      </trkpt>
      <trkpt lat="50.15641" lon="3.66838">
        <ele>166.4453125</ele>
        <time>2013-04-07T07:49:05Z</time>
      </trkpt>
      <trkpt lat="50.15642" lon="3.66757">
        <ele>164.52270507812</ele>
        <time>2013-04-07T07:49:16Z</time>
      </trkpt>
      <trkpt lat="50.15643" lon="3.66695">
        <ele>165.00341796875</ele>
        <time>2013-04-07T07:49:25Z</time>
      </trkpt>
      <trkpt lat="50.15643" lon="3.66657">
        <ele>164.52270507812</ele>
        <time>2013-04-07T07:49:30Z</time>
      </trkpt>
      <trkpt lat="50.15643" lon="3.66584">
        <ele>164.04211425781</ele>
        <time>2013-04-07T07:49:37Z</time>
      </trkpt>
      <trkpt lat="50.15641" lon="3.66545">
        <ele>163.5615234375</ele>
        <time>2013-04-07T07:49:41Z</time>
      </trkpt>
      <trkpt lat="50.15573" lon="3.66472">
        <ele>164.52270507812</ele>
        <time>2013-04-07T07:49:57Z</time>
      </trkpt>
      <trkpt lat="50.15536" lon="3.66427">
        <ele>166.4453125</ele>
        <time>2013-04-07T07:50:06Z</time>
      </trkpt>
      <trkpt lat="50.1551" lon="3.66398">
        <ele>167.88732910156</ele>
        <time>2013-04-07T07:50:13Z</time>
      </trkpt>
      <trkpt lat="50.15483" lon="3.66397">
        <ele>168.84875488281</ele>
        <time>2013-04-07T07:50:18Z</time>
      </trkpt>
      <trkpt lat="50.15425" lon="3.66431">
        <ele>167.40673828125</ele>
        <time>2013-04-07T07:50:30Z</time>
      </trkpt>
      <trkpt lat="50.15392" lon="3.66453">
        <ele>166.4453125</ele>
        <time>2013-04-07T07:50:36Z</time>
      </trkpt>
      <trkpt lat="50.1538" lon="3.66461">
        <ele>165.48413085938</ele>
        <time>2013-04-07T07:50:38Z</time>
      </trkpt>
      <trkpt lat="50.15348" lon="3.66482">
        <ele>163.5615234375</ele>
        <time>2013-04-07T07:50:43Z</time>
      </trkpt>
      <trkpt lat="50.15257" lon="3.66554">
        <ele>159.71618652344</ele>
        <time>2013-04-07T07:50:57Z</time>
      </trkpt>
      <trkpt lat="50.15201" lon="3.66595">
        <ele>161.63891601562</ele>
        <time>2013-04-07T07:51:09Z</time>
      </trkpt>
      <trkpt lat="50.15158" lon="3.66627">
        <ele>164.52270507812</ele>
        <time>2013-04-07T07:51:20Z</time>
      </trkpt>
      <trkpt lat="50.15155" lon="3.66629">
        <ele>165.00341796875</ele>
        <time>2013-04-07T07:51:21Z</time>
      </trkpt>
      <trkpt lat="50.151" lon="3.66669">
        <ele>166.92602539062</ele>
        <time>2013-04-07T07:51:37Z</time>
      </trkpt>
      <trkpt lat="50.15043" lon="3.66714">
        <ele>166.92602539062</ele>
        <time>2013-04-07T07:51:53Z</time>
      </trkpt>
      <trkpt lat="50.1504" lon="3.66716">
        <ele>166.92602539062</ele>
        <time>2013-04-07T07:51:54Z</time>
      </trkpt>
      <trkpt lat="50.15044" lon="3.66738">
        <ele>168.36804199219</ele>
        <time>2013-04-07T07:52:00Z</time>
      </trkpt>
      <trkpt lat="50.15064" lon="3.66792">
        <ele>167.88732910156</ele>
        <time>2013-04-07T07:52:12Z</time>
      </trkpt>
      <trkpt lat="50.1507" lon="3.66808">
        <ele>167.88732910156</ele>
        <time>2013-04-07T07:52:15Z</time>
      </trkpt>
      <trkpt lat="50.15093" lon="3.66863">
        <ele>167.40673828125</ele>
        <time>2013-04-07T07:52:27Z</time>
      </trkpt>
      <trkpt lat="50.15097" lon="3.66873">
        <ele>167.88732910156</ele>
        <time>2013-04-07T07:52:29Z</time>
      </trkpt>
      <trkpt lat="50.15078" lon="3.66897">
        <ele>166.92602539062</ele>
        <time>2013-04-07T07:52:37Z</time>
      </trkpt>
      <trkpt lat="50.15073" lon="3.66903">
        <ele>167.88732910156</ele>
        <time>2013-04-07T07:52:39Z</time>
      </trkpt>
      <trkpt lat="50.15044" lon="3.66936">
        <ele>169.32946777344</ele>
        <time>2013-04-07T07:52:50Z</time>
      </trkpt>
      <trkpt lat="50.15017" lon="3.66967">
        <ele>170.77136230469</ele>
        <time>2013-04-07T07:53:01Z</time>
      </trkpt>
      <trkpt lat="50.14986" lon="3.67003">
        <ele>170.77136230469</ele>
        <time>2013-04-07T07:53:12Z</time>
      </trkpt>
      <trkpt lat="50.14956" lon="3.67039">
        <ele>171.73266601562</ele>
        <time>2013-04-07T07:53:22Z</time>
      </trkpt>
      <trkpt lat="50.14933" lon="3.67066">
        <ele>171.73266601562</ele>
        <time>2013-04-07T07:53:28Z</time>
      </trkpt>
      <trkpt lat="50.14914" lon="3.67088">
        <ele>172.69396972656</ele>
        <time>2013-04-07T07:53:38Z</time>
      </trkpt>
      <trkpt lat="50.14877" lon="3.6713">
        <ele>173.17468261719</ele>
        <time>2013-04-07T07:53:52Z</time>
      </trkpt>
      <trkpt lat="50.14852" lon="3.67159">
        <ele>173.17468261719</ele>
        <time>2013-04-07T07:54:01Z</time>
      </trkpt>
      <trkpt lat="50.14817" lon="3.672">
        <ele>174.61657714844</ele>
        <time>2013-04-07T07:54:12Z</time>
      </trkpt>
      <trkpt lat="50.14796" lon="3.67226">
        <ele>174.61657714844</ele>
        <time>2013-04-07T07:54:20Z</time>
      </trkpt>
      <trkpt lat="50.14782" lon="3.67242">
        <ele>175.09729003906</ele>
        <time>2013-04-07T07:54:25Z</time>
      </trkpt>
      <trkpt lat="50.14778" lon="3.67247">
        <ele>175.09729003906</ele>
        <time>2013-04-07T07:54:28Z</time>
      </trkpt>
      <trkpt lat="50.14772" lon="3.67255">
        <ele>175.09729003906</ele>
        <time>2013-04-07T07:54:31Z</time>
      </trkpt>
      <trkpt lat="50.14751" lon="3.6728">
        <ele>175.57788085938</ele>
        <time>2013-04-07T07:54:41Z</time>
      </trkpt>
      <trkpt lat="50.14724" lon="3.67312">
        <ele>175.09729003906</ele>
        <time>2013-04-07T07:54:50Z</time>
      </trkpt>
      <trkpt lat="50.14707" lon="3.67333">
        <ele>175.09729003906</ele>
        <time>2013-04-07T07:54:56Z</time>
      </trkpt>
      <trkpt lat="50.147" lon="3.67341">
        <ele>175.57788085938</ele>
        <time>2013-04-07T07:54:59Z</time>
      </trkpt>
      <trkpt lat="50.14671" lon="3.67374">
        <ele>175.57788085938</ele>
        <time>2013-04-07T07:55:11Z</time>
      </trkpt>
      <trkpt lat="50.14645" lon="3.67404">
        <ele>175.57788085938</ele>
        <time>2013-04-07T07:55:20Z</time>
      </trkpt>
      <trkpt lat="50.14616" lon="3.67437">
        <ele>176.05859375</ele>
        <time>2013-04-07T07:55:31Z</time>
      </trkpt>
      <trkpt lat="50.14587" lon="3.6747">
        <ele>176.05859375</ele>
        <time>2013-04-07T07:55:41Z</time>
      </trkpt>
      <trkpt lat="50.14557" lon="3.67504">
        <ele>177.02001953125</ele>
        <time>2013-04-07T07:55:52Z</time>
      </trkpt>
      <trkpt lat="50.14526" lon="3.67541">
        <ele>176.53930664062</ele>
        <time>2013-04-07T07:56:02Z</time>
      </trkpt>
      <trkpt lat="50.14491" lon="3.67582">
        <ele>176.53930664062</ele>
        <time>2013-04-07T07:56:12Z</time>
      </trkpt>
      <trkpt lat="50.14456" lon="3.67624">
        <ele>176.53930664062</ele>
        <time>2013-04-07T07:56:22Z</time>
      </trkpt>
      <trkpt lat="50.14443" lon="3.67641">
        <ele>177.02001953125</ele>
        <time>2013-04-07T07:56:26Z</time>
      </trkpt>
      <trkpt lat="50.1437" lon="3.67642">
        <ele>173.6552734375</ele>
        <time>2013-04-07T07:56:41Z</time>
      </trkpt>
      <trkpt lat="50.14316" lon="3.67631">
        <ele>171.73266601562</ele>
        <time>2013-04-07T07:56:50Z</time>
      </trkpt>
      <trkpt lat="50.14267" lon="3.67622">
        <ele>171.25207519531</ele>
        <time>2013-04-07T07:56:58Z</time>
      </trkpt>
      <trkpt lat="50.14256" lon="3.67652">
        <ele>171.73266601562</ele>
        <time>2013-04-07T07:57:04Z</time>
      </trkpt>
      <trkpt lat="50.14258" lon="3.67656">
        <ele>171.73266601562</ele>
        <time>2013-04-07T07:57:05Z</time>
      </trkpt>
      <trkpt lat="50.14293" lon="3.67734">
        <ele>172.69396972656</ele>
        <time>2013-04-07T07:57:21Z</time>
      </trkpt>
      <trkpt lat="50.14325" lon="3.67805">
        <ele>174.13586425781</ele>
        <time>2013-04-07T07:57:34Z</time>
      </trkpt>
      <trkpt lat="50.14353" lon="3.67869">
        <ele>177.50061035156</ele>
        <time>2013-04-07T07:57:46Z</time>
      </trkpt>
      <trkpt lat="50.14366" lon="3.67901">
        <ele>178.4619140625</ele>
        <time>2013-04-07T07:57:52Z</time>
      </trkpt>
      <trkpt lat="50.14423" lon="3.68025">
        <ele>177.02001953125</ele>
        <time>2013-04-07T07:58:12Z</time>
      </trkpt>
      <trkpt lat="50.14493" lon="3.68185">
        <ele>177.02001953125</ele>
        <time>2013-04-07T07:58:31Z</time>
      </trkpt>
      <trkpt lat="50.1456" lon="3.68331">
        <ele>175.57788085938</ele>
        <time>2013-04-07T07:58:49Z</time>
      </trkpt>
      <trkpt lat="50.14572" lon="3.68358">
        <ele>175.09729003906</ele>
        <time>2013-04-07T07:58:52Z</time>
      </trkpt>
      <trkpt lat="50.1458" lon="3.68377">
        <ele>174.13586425781</ele>
        <time>2013-04-07T07:58:54Z</time>
      </trkpt>
      <trkpt lat="50.14618" lon="3.68463">
        <ele>171.25207519531</ele>
        <time>2013-04-07T07:59:03Z</time>
      </trkpt>
      <trkpt lat="50.14678" lon="3.68593">
        <ele>170.29064941406</ele>
        <time>2013-04-07T07:59:17Z</time>
      </trkpt>
      <trkpt lat="50.14674" lon="3.68633">
        <ele>170.77136230469</ele>
        <time>2013-04-07T07:59:22Z</time>
      </trkpt>
      <trkpt lat="50.14667" lon="3.68649">
        <ele>171.25207519531</ele>
        <time>2013-04-07T07:59:24Z</time>
      </trkpt>
      <trkpt lat="50.14657" lon="3.68685">
        <ele>173.17468261719</ele>
        <time>2013-04-07T07:59:29Z</time>
      </trkpt>
      <trkpt lat="50.14633" lon="3.68758">
        <ele>175.09729003906</ele>
        <time>2013-04-07T07:59:38Z</time>
      </trkpt>
      <trkpt lat="50.14614" lon="3.68805">
        <ele>177.50061035156</ele>
        <time>2013-04-07T07:59:47Z</time>
      </trkpt>
      <trkpt lat="50.14595" lon="3.68853">
        <ele>178.4619140625</ele>
        <time>2013-04-07T07:59:56Z</time>
      </trkpt>
      <trkpt lat="50.14584" lon="3.68882">
        <ele>178.94262695312</ele>
        <time>2013-04-07T08:00:01Z</time>
      </trkpt>
      <trkpt lat="50.14569" lon="3.68922">
        <ele>180.38452148438</ele>
        <time>2013-04-07T08:00:10Z</time>
      </trkpt>
      <trkpt lat="50.14541" lon="3.68992">
        <ele>179.42321777344</ele>
        <time>2013-04-07T08:00:21Z</time>
      </trkpt>
      <trkpt lat="50.14518" lon="3.6905">
        <ele>180.38452148438</ele>
        <time>2013-04-07T08:00:31Z</time>
      </trkpt>
      <trkpt lat="50.1451" lon="3.6907">
        <ele>180.38452148438</ele>
        <time>2013-04-07T08:00:34Z</time>
      </trkpt>
      <trkpt lat="50.14492" lon="3.69113">
        <ele>181.34582519531</ele>
        <time>2013-04-07T08:00:42Z</time>
      </trkpt>
      <trkpt lat="50.14479" lon="3.69145">
        <ele>180.865234375</ele>
        <time>2013-04-07T08:00:47Z</time>
      </trkpt>
      <trkpt lat="50.14457" lon="3.69202">
        <ele>182.30712890625</ele>
        <time>2013-04-07T08:00:57Z</time>
      </trkpt>
      <trkpt lat="50.14456" lon="3.69205">
        <ele>182.78784179688</ele>
        <time>2013-04-07T08:01:01Z</time>
      </trkpt>
      <trkpt lat="50.14427" lon="3.6924">
        <ele>182.78784179688</ele>
        <time>2013-04-07T08:01:14Z</time>
      </trkpt>
      <trkpt lat="50.14427" lon="3.6924">
        <ele>182.30712890625</ele>
        <time>2013-04-07T08:01:36Z</time>
      </trkpt>
      <trkpt lat="50.14427" lon="3.6924">
        <ele>182.78784179688</ele>
        <time>2013-04-07T08:02:00Z</time>
      </trkpt>
      <trkpt lat="50.14427" lon="3.6924">
        <ele>182.78784179688</ele>
        <time>2013-04-07T08:02:14Z</time>
      </trkpt>
      <trkpt lat="50.14427" lon="3.6924">
        <ele>180.865234375</ele>
        <time>2013-04-07T08:12:21Z</time>
      </trkpt>
      <trkpt lat="50.14427" lon="3.6924">
        <ele>180.865234375</ele>
        <time>2013-04-07T08:12:44Z</time>
      </trkpt>
      <trkpt lat="50.14427" lon="3.6924">
        <ele>180.38452148438</ele>
        <time>2013-04-07T08:18:53Z</time>
      </trkpt>
      <trkpt lat="50.14427" lon="3.6924">
        <ele>179.90380859375</ele>
        <time>2013-04-07T08:19:43Z</time>
      </trkpt>
      <trkpt lat="50.14427" lon="3.6924">
        <ele>180.865234375</ele>
        <time>2013-04-07T08:20:14Z</time>
      </trkpt>
      <trkpt lat="50.14427" lon="3.6924">
        <ele>180.865234375</ele>
        <time>2013-04-07T08:20:48Z</time>
      </trkpt>
      <trkpt lat="50.14427" lon="3.6924">
        <ele>180.38452148438</ele>
        <time>2013-04-07T08:21:46Z</time>
      </trkpt>
      <trkpt lat="50.14427" lon="3.6924">
        <ele>180.38452148438</ele>
        <time>2013-04-07T08:22:18Z</time>
      </trkpt>
      <trkpt lat="50.14427" lon="3.6924">
        <ele>179.90380859375</ele>
        <time>2013-04-07T08:22:47Z</time>
      </trkpt>
      <trkpt lat="50.14421" lon="3.69232">
        <ele>180.38452148438</ele>
        <time>2013-04-07T08:22:52Z</time>
      </trkpt>
      <trkpt lat="50.14416" lon="3.69226">
        <ele>180.38452148438</ele>
        <time>2013-04-07T08:22:58Z</time>
      </trkpt>
      <trkpt lat="50.1441" lon="3.69217">
        <ele>180.38452148438</ele>
        <time>2013-04-07T08:23:03Z</time>
      </trkpt>
      <trkpt lat="50.1441" lon="3.69216">
        <ele>179.90380859375</ele>
        <time>2013-04-07T08:23:13Z</time>
      </trkpt>
      <trkpt lat="50.14384" lon="3.69164">
        <ele>179.90380859375</ele>
        <time>2013-04-07T08:23:25Z</time>
      </trkpt>
      <trkpt lat="50.14344" lon="3.69079">
        <ele>177.02001953125</ele>
        <time>2013-04-07T08:23:39Z</time>
      </trkpt>
      <trkpt lat="50.14331" lon="3.69052">
        <ele>176.53930664062</ele>
        <time>2013-04-07T08:23:42Z</time>
      </trkpt>
      <trkpt lat="50.1432" lon="3.69028">
        <ele>177.98120117188</ele>
        <time>2013-04-07T08:23:46Z</time>
      </trkpt>
      <trkpt lat="50.14323" lon="3.69005">
        <ele>177.98120117188</ele>
        <time>2013-04-07T08:23:48Z</time>
      </trkpt>
      <trkpt lat="50.14333" lon="3.68984">
        <ele>177.50061035156</ele>
        <time>2013-04-07T08:23:54Z</time>
      </trkpt>
      <trkpt lat="50.14334" lon="3.6898">
        <ele>178.4619140625</ele>
        <time>2013-04-07T08:24:05Z</time>
      </trkpt>
      <trkpt lat="50.14334" lon="3.6898">
        <ele>177.98120117188</ele>
        <time>2013-04-07T08:25:50Z</time>
      </trkpt>
      <trkpt lat="50.14334" lon="3.6898">
        <ele>178.4619140625</ele>
        <time>2013-04-07T08:32:47Z</time>
      </trkpt>
      <trkpt lat="50.14304" lon="3.68995">
        <ele>179.42321777344</ele>
        <time>2013-04-07T08:32:53Z</time>
      </trkpt>
      <trkpt lat="50.14304" lon="3.68995">
        <ele>178.94262695312</ele>
        <time>2013-04-07T08:33:06Z</time>
      </trkpt>
      <trkpt lat="50.14304" lon="3.68995">
        <ele>177.50061035156</ele>
        <time>2013-04-07T08:34:18Z</time>
      </trkpt>
      <trkpt lat="50.14304" lon="3.68995">
        <ele>177.50061035156</ele>
        <time>2013-04-07T08:34:38Z</time>
      </trkpt>
      <trkpt lat="50.14306" lon="3.68948">
        <ele>176.53930664062</ele>
        <time>2013-04-07T08:34:47Z</time>
      </trkpt>
      <trkpt lat="50.143" lon="3.68875">
        <ele>173.17468261719</ele>
        <time>2013-04-07T08:34:54Z</time>
      </trkpt>
      <trkpt lat="50.14302" lon="3.68857">
        <ele>172.69396972656</ele>
        <time>2013-04-07T08:34:56Z</time>
      </trkpt>
      <trkpt lat="50.14306" lon="3.68823">
        <ele>171.25207519531</ele>
        <time>2013-04-07T08:35:00Z</time>
      </trkpt>
      <trkpt lat="50.14312" lon="3.6879">
        <ele>170.29064941406</ele>
        <time>2013-04-07T08:35:10Z</time>
      </trkpt>
      <trkpt lat="50.14312" lon="3.6879">
        <ele>170.29064941406</ele>
        <time>2013-04-07T08:35:12Z</time>
      </trkpt>
      <trkpt lat="50.14312" lon="3.6879">
        <ele>170.77136230469</ele>
        <time>2013-04-07T08:35:19Z</time>
      </trkpt>
      <trkpt lat="50.14315" lon="3.68761">
        <ele>170.77136230469</ele>
        <time>2013-04-07T08:35:24Z</time>
      </trkpt>
      <trkpt lat="50.14313" lon="3.68715">
        <ele>169.32946777344</ele>
        <time>2013-04-07T08:35:31Z</time>
      </trkpt>
      <trkpt lat="50.14317" lon="3.68683">
        <ele>170.29064941406</ele>
        <time>2013-04-07T08:35:35Z</time>
      </trkpt>
      <trkpt lat="50.14312" lon="3.68653">
        <ele>172.69396972656</ele>
        <time>2013-04-07T08:35:40Z</time>
      </trkpt>
      <trkpt lat="50.14306" lon="3.686">
        <ele>173.6552734375</ele>
        <time>2013-04-07T08:35:49Z</time>
      </trkpt>
      <trkpt lat="50.14299" lon="3.68557">
        <ele>175.09729003906</ele>
        <time>2013-04-07T08:35:56Z</time>
      </trkpt>
      <trkpt lat="50.14296" lon="3.68527">
        <ele>176.05859375</ele>
        <time>2013-04-07T08:36:02Z</time>
      </trkpt>
      <trkpt lat="50.14292" lon="3.68484">
        <ele>175.57788085938</ele>
        <time>2013-04-07T08:36:10Z</time>
      </trkpt>
      <trkpt lat="50.14291" lon="3.68479">
        <ele>176.05859375</ele>
        <time>2013-04-07T08:36:11Z</time>
      </trkpt>
      <trkpt lat="50.14293" lon="3.68444">
        <ele>176.05859375</ele>
        <time>2013-04-07T08:36:18Z</time>
      </trkpt>
      <trkpt lat="50.14291" lon="3.68395">
        <ele>176.05859375</ele>
        <time>2013-04-07T08:36:25Z</time>
      </trkpt>
      <trkpt lat="50.1429" lon="3.68374">
        <ele>176.05859375</ele>
        <time>2013-04-07T08:36:28Z</time>
      </trkpt>
      <trkpt lat="50.1429" lon="3.6836">
        <ele>175.57788085938</ele>
        <time>2013-04-07T08:36:30Z</time>
      </trkpt>
      <trkpt lat="50.14287" lon="3.6831">
        <ele>174.13586425781</ele>
        <time>2013-04-07T08:36:37Z</time>
      </trkpt>
      <trkpt lat="50.14285" lon="3.68259">
        <ele>173.6552734375</ele>
        <time>2013-04-07T08:36:45Z</time>
      </trkpt>
      <trkpt lat="50.14284" lon="3.68242">
        <ele>173.6552734375</ele>
        <time>2013-04-07T08:36:47Z</time>
      </trkpt>
      <trkpt lat="50.14283" lon="3.68204">
        <ele>173.17468261719</ele>
        <time>2013-04-07T08:36:51Z</time>
      </trkpt>
      <trkpt lat="50.14282" lon="3.68175">
        <ele>173.17468261719</ele>
        <time>2013-04-07T08:36:55Z</time>
      </trkpt>
      <trkpt lat="50.14281" lon="3.68144">
        <ele>173.17468261719</ele>
        <time>2013-04-07T08:37:01Z</time>
      </trkpt>
      <trkpt lat="50.14276" lon="3.68083">
        <ele>172.69396972656</ele>
        <time>2013-04-07T08:37:10Z</time>
      </trkpt>
      <trkpt lat="50.14271" lon="3.68043">
        <ele>172.69396972656</ele>
        <time>2013-04-07T08:37:15Z</time>
      </trkpt>
      <trkpt lat="50.1427" lon="3.68003">
        <ele>172.21325683594</ele>
        <time>2013-04-07T08:37:22Z</time>
      </trkpt>
      <trkpt lat="50.14271" lon="3.67988">
        <ele>172.21325683594</ele>
        <time>2013-04-07T08:37:24Z</time>
      </trkpt>
      <trkpt lat="50.14265" lon="3.67941">
        <ele>170.77136230469</ele>
        <time>2013-04-07T08:37:31Z</time>
      </trkpt>
      <trkpt lat="50.14263" lon="3.67901">
        <ele>169.81005859375</ele>
        <time>2013-04-07T08:37:35Z</time>
      </trkpt>
      <trkpt lat="50.14255" lon="3.67816">
        <ele>168.84875488281</ele>
        <time>2013-04-07T08:37:44Z</time>
      </trkpt>
      <trkpt lat="50.14252" lon="3.67791">
        <ele>168.36804199219</ele>
        <time>2013-04-07T08:37:47Z</time>
      </trkpt>
      <trkpt lat="50.14249" lon="3.67727">
        <ele>168.84875488281</ele>
        <time>2013-04-07T08:37:56Z</time>
      </trkpt>
      <trkpt lat="50.14246" lon="3.6769">
        <ele>168.84875488281</ele>
        <time>2013-04-07T08:38:01Z</time>
      </trkpt>
      <trkpt lat="50.14244" lon="3.67661">
        <ele>168.36804199219</ele>
        <time>2013-04-07T08:38:05Z</time>
      </trkpt>
      <trkpt lat="50.14244" lon="3.6765">
        <ele>168.84875488281</ele>
        <time>2013-04-07T08:38:08Z</time>
      </trkpt>
      <trkpt lat="50.14245" lon="3.67627">
        <ele>169.81005859375</ele>
        <time>2013-04-07T08:38:15Z</time>
      </trkpt>
      <trkpt lat="50.14242" lon="3.67619">
        <ele>169.32946777344</ele>
        <time>2013-04-07T08:38:18Z</time>
      </trkpt>
      <trkpt lat="50.14178" lon="3.67673">
        <ele>168.84875488281</ele>
        <time>2013-04-07T08:38:29Z</time>
      </trkpt>
      <trkpt lat="50.14103" lon="3.67754">
        <ele>169.81005859375</ele>
        <time>2013-04-07T08:38:46Z</time>
      </trkpt>
      <trkpt lat="50.14088" lon="3.67749">
        <ele>170.29064941406</ele>
        <time>2013-04-07T08:38:53Z</time>
      </trkpt>
      <trkpt lat="50.14094" lon="3.67655">
        <ele>171.25207519531</ele>
        <time>2013-04-07T08:39:07Z</time>
      </trkpt>
      <trkpt lat="50.14109" lon="3.67494">
        <ele>170.77136230469</ele>
        <time>2013-04-07T08:39:27Z</time>
      </trkpt>
      <trkpt lat="50.14122" lon="3.67334">
        <ele>168.84875488281</ele>
        <time>2013-04-07T08:39:44Z</time>
      </trkpt>
      <trkpt lat="50.14128" lon="3.67276">
        <ele>169.81005859375</ele>
        <time>2013-04-07T08:39:50Z</time>
      </trkpt>
      <trkpt lat="50.14125" lon="3.67235">
        <ele>169.32946777344</ele>
        <time>2013-04-07T08:39:55Z</time>
      </trkpt>
      <trkpt lat="50.14113" lon="3.67135">
        <ele>169.81005859375</ele>
        <time>2013-04-07T08:40:05Z</time>
      </trkpt>
      <trkpt lat="50.14111" lon="3.67086">
        <ele>171.73266601562</ele>
        <time>2013-04-07T08:40:10Z</time>
      </trkpt>
      <trkpt lat="50.14108" lon="3.67038">
        <ele>172.69396972656</ele>
        <time>2013-04-07T08:40:16Z</time>
      </trkpt>
      <trkpt lat="50.14137" lon="3.6697">
        <ele>172.21325683594</ele>
        <time>2013-04-07T08:40:27Z</time>
      </trkpt>
      <trkpt lat="50.1417" lon="3.66915">
        <ele>172.21325683594</ele>
        <time>2013-04-07T08:40:36Z</time>
      </trkpt>
      <trkpt lat="50.14254" lon="3.6677">
        <ele>171.73266601562</ele>
        <time>2013-04-07T08:40:57Z</time>
      </trkpt>
      <trkpt lat="50.14274" lon="3.66737">
        <ele>171.73266601562</ele>
        <time>2013-04-07T08:41:02Z</time>
      </trkpt>
      <trkpt lat="50.14269" lon="3.66697">
        <ele>171.73266601562</ele>
        <time>2013-04-07T08:41:07Z</time>
      </trkpt>
      <trkpt lat="50.142" lon="3.66599">
        <ele>170.29064941406</ele>
        <time>2013-04-07T08:41:20Z</time>
      </trkpt>
      <trkpt lat="50.14189" lon="3.66582">
        <ele>168.84875488281</ele>
        <time>2013-04-07T08:41:22Z</time>
      </trkpt>
      <trkpt lat="50.14142" lon="3.66514">
        <ele>166.92602539062</ele>
        <time>2013-04-07T08:41:29Z</time>
      </trkpt>
      <trkpt lat="50.14127" lon="3.66491">
        <ele>165.00341796875</ele>
        <time>2013-04-07T08:41:31Z</time>
      </trkpt>
      <trkpt lat="50.14095" lon="3.66443">
        <ele>161.158203125</ele>
        <time>2013-04-07T08:41:35Z</time>
      </trkpt>
      <trkpt lat="50.14087" lon="3.66432">
        <ele>161.158203125</ele>
        <time>2013-04-07T08:41:36Z</time>
      </trkpt>
      <trkpt lat="50.13988" lon="3.66287">
        <ele>160.67749023438</ele>
        <time>2013-04-07T08:41:50Z</time>
      </trkpt>
      <trkpt lat="50.13949" lon="3.66228">
        <ele>161.63891601562</ele>
        <time>2013-04-07T08:41:57Z</time>
      </trkpt>
      <trkpt lat="50.13912" lon="3.66173">
        <ele>164.52270507812</ele>
        <time>2013-04-07T08:42:04Z</time>
      </trkpt>
      <trkpt lat="50.13834" lon="3.66062">
        <ele>166.92602539062</ele>
        <time>2013-04-07T08:42:22Z</time>
      </trkpt>
      <trkpt lat="50.13769" lon="3.65966">
        <ele>170.29064941406</ele>
        <time>2013-04-07T08:42:42Z</time>
      </trkpt>
      <trkpt lat="50.13754" lon="3.65947">
        <ele>170.77136230469</ele>
        <time>2013-04-07T08:42:47Z</time>
      </trkpt>
      <trkpt lat="50.13748" lon="3.65862">
        <ele>170.77136230469</ele>
        <time>2013-04-07T08:42:58Z</time>
      </trkpt>
      <trkpt lat="50.1375" lon="3.65831">
        <ele>170.77136230469</ele>
        <time>2013-04-07T08:43:02Z</time>
      </trkpt>
      <trkpt lat="50.13752" lon="3.65808">
        <ele>169.81005859375</ele>
        <time>2013-04-07T08:43:05Z</time>
      </trkpt>
      <trkpt lat="50.13732" lon="3.65762">
        <ele>169.81005859375</ele>
        <time>2013-04-07T08:43:12Z</time>
      </trkpt>
      <trkpt lat="50.13661" lon="3.65666">
        <ele>168.84875488281</ele>
        <time>2013-04-07T08:43:28Z</time>
      </trkpt>
      <trkpt lat="50.13637" lon="3.65621">
        <ele>168.36804199219</ele>
        <time>2013-04-07T08:43:34Z</time>
      </trkpt>
      <trkpt lat="50.13613" lon="3.65615">
        <ele>168.36804199219</ele>
        <time>2013-04-07T08:43:39Z</time>
      </trkpt>
      <trkpt lat="50.13534" lon="3.65728">
        <ele>166.92602539062</ele>
        <time>2013-04-07T08:43:56Z</time>
      </trkpt>
      <trkpt lat="50.13525" lon="3.65741">
        <ele>165.96472167969</ele>
        <time>2013-04-07T08:43:58Z</time>
      </trkpt>
      <trkpt lat="50.13498" lon="3.6578">
        <ele>164.52270507812</ele>
        <time>2013-04-07T08:44:04Z</time>
      </trkpt>
      <trkpt lat="50.13444" lon="3.65857">
        <ele>161.63891601562</ele>
        <time>2013-04-07T08:44:15Z</time>
      </trkpt>
      <trkpt lat="50.1343" lon="3.65851">
        <ele>163.08081054688</ele>
        <time>2013-04-07T08:44:19Z</time>
      </trkpt>
      <trkpt lat="50.13375" lon="3.65779">
        <ele>163.08081054688</ele>
        <time>2013-04-07T08:44:33Z</time>
      </trkpt>
      <trkpt lat="50.13299" lon="3.65666">
        <ele>163.5615234375</ele>
        <time>2013-04-07T08:44:50Z</time>
      </trkpt>
      <trkpt lat="50.13284" lon="3.65645">
        <ele>161.63891601562</ele>
        <time>2013-04-07T08:44:53Z</time>
      </trkpt>
      <trkpt lat="50.13263" lon="3.6562">
        <ele>160.19689941406</ele>
        <time>2013-04-07T08:44:57Z</time>
      </trkpt>
      <trkpt lat="50.13236" lon="3.65584">
        <ele>158.27416992188</ele>
        <time>2013-04-07T08:45:02Z</time>
      </trkpt>
      <trkpt lat="50.13224" lon="3.65569">
        <ele>156.83215332031</ele>
        <time>2013-04-07T08:45:04Z</time>
      </trkpt>
      <trkpt lat="50.13213" lon="3.65554">
        <ele>155.39025878906</ele>
        <time>2013-04-07T08:45:06Z</time>
      </trkpt>
      <trkpt lat="50.13202" lon="3.6554">
        <ele>156.83215332031</ele>
        <time>2013-04-07T08:45:08Z</time>
      </trkpt>
      <trkpt lat="50.13171" lon="3.65498">
        <ele>159.23547363281</ele>
        <time>2013-04-07T08:45:15Z</time>
      </trkpt>
      <trkpt lat="50.13165" lon="3.65431">
        <ele>158.27416992188</ele>
        <time>2013-04-07T08:45:25Z</time>
      </trkpt>
      <trkpt lat="50.13165" lon="3.65409">
        <ele>157.79357910156</ele>
        <time>2013-04-07T08:45:28Z</time>
      </trkpt>
      <trkpt lat="50.13166" lon="3.65279">
        <ele>161.158203125</ele>
        <time>2013-04-07T08:45:45Z</time>
      </trkpt>
      <trkpt lat="50.13165" lon="3.65155">
        <ele>164.52270507812</ele>
        <time>2013-04-07T08:46:06Z</time>
      </trkpt>
      <trkpt lat="50.13165" lon="3.65045">
        <ele>165.96472167969</ele>
        <time>2013-04-07T08:46:24Z</time>
      </trkpt>
      <trkpt lat="50.13165" lon="3.64893">
        <ele>165.00341796875</ele>
        <time>2013-04-07T08:46:46Z</time>
      </trkpt>
      <trkpt lat="50.13165" lon="3.64763">
        <ele>163.5615234375</ele>
        <time>2013-04-07T08:47:00Z</time>
      </trkpt>
      <trkpt lat="50.13164" lon="3.64734">
        <ele>163.08081054688</ele>
        <time>2013-04-07T08:47:03Z</time>
      </trkpt>
      <trkpt lat="50.13163" lon="3.64712">
        <ele>162.11950683594</ele>
        <time>2013-04-07T08:47:05Z</time>
      </trkpt>
      <trkpt lat="50.13162" lon="3.64648">
        <ele>160.19689941406</ele>
        <time>2013-04-07T08:47:11Z</time>
      </trkpt>
      <trkpt lat="50.13162" lon="3.64612">
        <ele>160.67749023438</ele>
        <time>2013-04-07T08:47:15Z</time>
      </trkpt>
      <trkpt lat="50.13162" lon="3.64559">
        <ele>158.75476074219</ele>
        <time>2013-04-07T08:47:20Z</time>
      </trkpt>
      <trkpt lat="50.13148" lon="3.64515">
        <ele>157.31286621094</ele>
        <time>2013-04-07T08:47:25Z</time>
      </trkpt>
      <trkpt lat="50.1313" lon="3.64501">
        <ele>155.39025878906</ele>
        <time>2013-04-07T08:47:28Z</time>
      </trkpt>
      <trkpt lat="50.13049" lon="3.64439">
        <ele>158.27416992188</ele>
        <time>2013-04-07T08:47:43Z</time>
      </trkpt>
      <trkpt lat="50.12959" lon="3.6437">
        <ele>157.31286621094</ele>
        <time>2013-04-07T08:48:03Z</time>
      </trkpt>
      <trkpt lat="50.12965" lon="3.64347">
        <ele>157.31286621094</ele>
        <time>2013-04-07T08:48:08Z</time>
      </trkpt>
      <trkpt lat="50.13031" lon="3.64319">
        <ele>157.31286621094</ele>
        <time>2013-04-07T08:48:25Z</time>
      </trkpt>
      <trkpt lat="50.13035" lon="3.64318">
        <ele>156.83215332031</ele>
        <time>2013-04-07T08:48:26Z</time>
      </trkpt>
      <trkpt lat="50.13066" lon="3.64306">
        <ele>156.3515625</ele>
        <time>2013-04-07T08:48:34Z</time>
      </trkpt>
      <trkpt lat="50.13085" lon="3.64302">
        <ele>155.87097167969</ele>
        <time>2013-04-07T08:48:38Z</time>
      </trkpt>
      <trkpt lat="50.13095" lon="3.64249">
        <ele>155.39025878906</ele>
        <time>2013-04-07T08:48:45Z</time>
      </trkpt>
      <trkpt lat="50.13061" lon="3.64094">
        <ele>156.3515625</ele>
        <time>2013-04-07T08:49:01Z</time>
      </trkpt>
      <trkpt lat="50.13052" lon="3.64049">
        <ele>156.83215332031</ele>
        <time>2013-04-07T08:49:06Z</time>
      </trkpt>
      <trkpt lat="50.13053" lon="3.64003">
        <ele>156.3515625</ele>
        <time>2013-04-07T08:49:11Z</time>
      </trkpt>
      <trkpt lat="50.13058" lon="3.63979">
        <ele>156.3515625</ele>
        <time>2013-04-07T08:49:14Z</time>
      </trkpt>
      <trkpt lat="50.13048" lon="3.63948">
        <ele>155.87097167969</ele>
        <time>2013-04-07T08:49:19Z</time>
      </trkpt>
      <trkpt lat="50.1296" lon="3.63926">
        <ele>155.87097167969</ele>
        <time>2013-04-07T08:49:35Z</time>
      </trkpt>
      <trkpt lat="50.12865" lon="3.63891">
        <ele>156.3515625</ele>
        <time>2013-04-07T08:49:51Z</time>
      </trkpt>
      <trkpt lat="50.12755" lon="3.63854">
        <ele>157.79357910156</ele>
        <time>2013-04-07T08:50:07Z</time>
      </trkpt>
      <trkpt lat="50.12701" lon="3.63832">
        <ele>157.79357910156</ele>
        <time>2013-04-07T08:50:16Z</time>
      </trkpt>
      <trkpt lat="50.12595" lon="3.6376">
        <ele>155.39025878906</ele>
        <time>2013-04-07T08:50:34Z</time>
      </trkpt>
      <trkpt lat="50.12471" lon="3.63644">
        <ele>155.39025878906</ele>
        <time>2013-04-07T08:50:56Z</time>
      </trkpt>
      <trkpt lat="50.12342" lon="3.63531">
        <ele>152.50634765625</ele>
        <time>2013-04-07T08:51:18Z</time>
      </trkpt>
      <trkpt lat="50.12257" lon="3.63458">
        <ele>152.98693847656</ele>
        <time>2013-04-07T08:51:33Z</time>
      </trkpt>
      <trkpt lat="50.12265" lon="3.63433">
        <ele>154.42895507812</ele>
        <time>2013-04-07T08:51:39Z</time>
      </trkpt>
      <trkpt lat="50.12271" lon="3.63419">
        <ele>153.46765136719</ele>
        <time>2013-04-07T08:51:43Z</time>
      </trkpt>
      <trkpt lat="50.12284" lon="3.63395">
        <ele>152.50634765625</ele>
        <time>2013-04-07T08:51:47Z</time>
      </trkpt>
      <trkpt lat="50.12301" lon="3.63347">
        <ele>152.98693847656</ele>
        <time>2013-04-07T08:51:54Z</time>
      </trkpt>
      <trkpt lat="50.12304" lon="3.63314">
        <ele>152.98693847656</ele>
        <time>2013-04-07T08:51:58Z</time>
      </trkpt>
      <trkpt lat="50.12286" lon="3.63256">
        <ele>154.42895507812</ele>
        <time>2013-04-07T08:52:06Z</time>
      </trkpt>
      <trkpt lat="50.12265" lon="3.63219">
        <ele>155.39025878906</ele>
        <time>2013-04-07T08:52:13Z</time>
      </trkpt>
      <trkpt lat="50.12236" lon="3.63184">
        <ele>154.90954589844</ele>
        <time>2013-04-07T08:52:20Z</time>
      </trkpt>
      <trkpt lat="50.12215" lon="3.63153">
        <ele>155.39025878906</ele>
        <time>2013-04-07T08:52:27Z</time>
      </trkpt>
      <trkpt lat="50.12219" lon="3.6312">
        <ele>154.42895507812</ele>
        <time>2013-04-07T08:52:34Z</time>
      </trkpt>
      <trkpt lat="50.12256" lon="3.63102">
        <ele>155.87097167969</ele>
        <time>2013-04-07T08:52:46Z</time>
      </trkpt>
      <trkpt lat="50.12336" lon="3.63132">
        <ele>156.83215332031</ele>
        <time>2013-04-07T08:53:04Z</time>
      </trkpt>
      <trkpt lat="50.12386" lon="3.63147">
        <ele>157.79357910156</ele>
        <time>2013-04-07T08:53:16Z</time>
      </trkpt>
      <trkpt lat="50.12403" lon="3.63141">
        <ele>157.79357910156</ele>
        <time>2013-04-07T08:53:20Z</time>
      </trkpt>
      <trkpt lat="50.12483" lon="3.63089">
        <ele>155.39025878906</ele>
        <time>2013-04-07T08:53:37Z</time>
      </trkpt>
      <trkpt lat="50.12501" lon="3.63079">
        <ele>153.94836425781</ele>
        <time>2013-04-07T08:53:40Z</time>
      </trkpt>
      <trkpt lat="50.12538" lon="3.63051">
        <ele>154.90954589844</ele>
        <time>2013-04-07T08:53:48Z</time>
      </trkpt>
      <trkpt lat="50.12552" lon="3.63013">
        <ele>155.87097167969</ele>
        <time>2013-04-07T08:53:54Z</time>
      </trkpt>
      <trkpt lat="50.12559" lon="3.62971">
        <ele>155.87097167969</ele>
        <time>2013-04-07T08:54:00Z</time>
      </trkpt>
      <trkpt lat="50.12563" lon="3.6294">
        <ele>157.79357910156</ele>
        <time>2013-04-07T08:54:06Z</time>
      </trkpt>
      <trkpt lat="50.12585" lon="3.62906">
        <ele>158.27416992188</ele>
        <time>2013-04-07T08:54:18Z</time>
      </trkpt>
      <trkpt lat="50.12618" lon="3.62947">
        <ele>158.27416992188</ele>
        <time>2013-04-07T08:54:29Z</time>
      </trkpt>
      <trkpt lat="50.12665" lon="3.62961">
        <ele>158.75476074219</ele>
        <time>2013-04-07T08:54:43Z</time>
      </trkpt>
      <trkpt lat="50.12703" lon="3.62932">
        <ele>161.63891601562</ele>
        <time>2013-04-07T08:54:55Z</time>
      </trkpt>
      <trkpt lat="50.12715" lon="3.62876">
        <ele>162.60009765625</ele>
        <time>2013-04-07T08:55:05Z</time>
      </trkpt>
      <trkpt lat="50.12712" lon="3.62835">
        <ele>162.11950683594</ele>
        <time>2013-04-07T08:55:12Z</time>
      </trkpt>
      <trkpt lat="50.12714" lon="3.62809">
        <ele>162.60009765625</ele>
        <time>2013-04-07T08:55:16Z</time>
      </trkpt>
      <trkpt lat="50.12719" lon="3.62769">
        <ele>162.60009765625</ele>
        <time>2013-04-07T08:55:22Z</time>
      </trkpt>
      <trkpt lat="50.12727" lon="3.62745">
        <ele>162.60009765625</ele>
        <time>2013-04-07T08:55:26Z</time>
      </trkpt>
      <trkpt lat="50.12745" lon="3.62706">
        <ele>163.08081054688</ele>
        <time>2013-04-07T08:55:33Z</time>
      </trkpt>
      <trkpt lat="50.1276" lon="3.62664">
        <ele>163.08081054688</ele>
        <time>2013-04-07T08:55:40Z</time>
      </trkpt>
      <trkpt lat="50.12744" lon="3.62615">
        <ele>163.08081054688</ele>
        <time>2013-04-07T08:55:48Z</time>
      </trkpt>
      <trkpt lat="50.12735" lon="3.62599">
        <ele>162.60009765625</ele>
        <time>2013-04-07T08:55:51Z</time>
      </trkpt>
      <trkpt lat="50.12727" lon="3.62558">
        <ele>162.11950683594</ele>
        <time>2013-04-07T08:55:56Z</time>
      </trkpt>
      <trkpt lat="50.12727" lon="3.62489">
        <ele>160.67749023438</ele>
        <time>2013-04-07T08:56:04Z</time>
      </trkpt>
      <trkpt lat="50.12742" lon="3.62395">
        <ele>159.23547363281</ele>
        <time>2013-04-07T08:56:15Z</time>
      </trkpt>
      <trkpt lat="50.12749" lon="3.62365">
        <ele>158.75476074219</ele>
        <time>2013-04-07T08:56:19Z</time>
      </trkpt>
      <trkpt lat="50.12755" lon="3.6233">
        <ele>159.23547363281</ele>
        <time>2013-04-07T08:56:24Z</time>
      </trkpt>
      <trkpt lat="50.1276" lon="3.62303">
        <ele>158.75476074219</ele>
        <time>2013-04-07T08:56:27Z</time>
      </trkpt>
      <trkpt lat="50.12764" lon="3.62279">
        <ele>158.75476074219</ele>
        <time>2013-04-07T08:56:30Z</time>
      </trkpt>
      <trkpt lat="50.12768" lon="3.62244">
        <ele>159.71618652344</ele>
        <time>2013-04-07T08:56:34Z</time>
      </trkpt>
      <trkpt lat="50.12779" lon="3.62188">
        <ele>160.67749023438</ele>
        <time>2013-04-07T08:56:43Z</time>
      </trkpt>
      <trkpt lat="50.12783" lon="3.62162">
        <ele>159.71618652344</ele>
        <time>2013-04-07T08:56:47Z</time>
      </trkpt>
      <trkpt lat="50.12798" lon="3.62087">
        <ele>160.19689941406</ele>
        <time>2013-04-07T08:56:59Z</time>
      </trkpt>
      <trkpt lat="50.12804" lon="3.6204">
        <ele>160.67749023438</ele>
        <time>2013-04-07T08:57:06Z</time>
      </trkpt>
      <trkpt lat="50.12814" lon="3.61985">
        <ele>160.19689941406</ele>
        <time>2013-04-07T08:57:14Z</time>
      </trkpt>
      <trkpt lat="50.12817" lon="3.61963">
        <ele>159.71618652344</ele>
        <time>2013-04-07T08:57:17Z</time>
      </trkpt>
      <trkpt lat="50.12827" lon="3.61919">
        <ele>160.19689941406</ele>
        <time>2013-04-07T08:57:23Z</time>
      </trkpt>
      <trkpt lat="50.12832" lon="3.61895">
        <ele>159.23547363281</ele>
        <time>2013-04-07T08:57:26Z</time>
      </trkpt>
      <trkpt lat="50.12838" lon="3.61821">
        <ele>158.75476074219</ele>
        <time>2013-04-07T08:57:35Z</time>
      </trkpt>
      <trkpt lat="50.12841" lon="3.61761">
        <ele>156.83215332031</ele>
        <time>2013-04-07T08:57:42Z</time>
      </trkpt>
      <trkpt lat="50.12845" lon="3.61719">
        <ele>157.31286621094</ele>
        <time>2013-04-07T08:57:47Z</time>
      </trkpt>
      <trkpt lat="50.12849" lon="3.61663">
        <ele>157.79357910156</ele>
        <time>2013-04-07T08:57:54Z</time>
      </trkpt>
      <trkpt lat="50.1286" lon="3.61602">
        <ele>157.31286621094</ele>
        <time>2013-04-07T08:58:02Z</time>
      </trkpt>
      <trkpt lat="50.12873" lon="3.61506">
        <ele>157.31286621094</ele>
        <time>2013-04-07T08:58:15Z</time>
      </trkpt>
      <trkpt lat="50.12893" lon="3.61452">
        <ele>156.83215332031</ele>
        <time>2013-04-07T08:58:25Z</time>
      </trkpt>
      <trkpt lat="50.12913" lon="3.61417">
        <ele>154.90954589844</ele>
        <time>2013-04-07T08:58:33Z</time>
      </trkpt>
      <trkpt lat="50.12944" lon="3.61366">
        <ele>154.42895507812</ele>
        <time>2013-04-07T08:58:42Z</time>
      </trkpt>
      <trkpt lat="50.12957" lon="3.61342">
        <ele>153.94836425781</ele>
        <time>2013-04-07T08:58:47Z</time>
      </trkpt>
      <trkpt lat="50.12971" lon="3.61319">
        <ele>154.42895507812</ele>
        <time>2013-04-07T08:58:52Z</time>
      </trkpt>
      <trkpt lat="50.13007" lon="3.61276">
        <ele>152.02575683594</ele>
        <time>2013-04-07T08:59:01Z</time>
      </trkpt>
      <trkpt lat="50.13022" lon="3.61257">
        <ele>150.58361816406</ele>
        <time>2013-04-07T08:59:04Z</time>
      </trkpt>
      <trkpt lat="50.13029" lon="3.61244">
        <ele>150.58361816406</ele>
        <time>2013-04-07T08:59:06Z</time>
      </trkpt>
      <trkpt lat="50.13042" lon="3.6122">
        <ele>151.06420898438</ele>
        <time>2013-04-07T08:59:11Z</time>
      </trkpt>
      <trkpt lat="50.13048" lon="3.61207">
        <ele>151.06420898438</ele>
        <time>2013-04-07T08:59:14Z</time>
      </trkpt>
      <trkpt lat="50.13043" lon="3.61164">
        <ele>151.06420898438</ele>
        <time>2013-04-07T08:59:21Z</time>
      </trkpt>
      <trkpt lat="50.13035" lon="3.61141">
        <ele>151.544921875</ele>
        <time>2013-04-07T08:59:25Z</time>
      </trkpt>
      <trkpt lat="50.13025" lon="3.61113">
        <ele>151.06420898438</ele>
        <time>2013-04-07T08:59:30Z</time>
      </trkpt>
      <trkpt lat="50.13009" lon="3.61065">
        <ele>151.544921875</ele>
        <time>2013-04-07T08:59:38Z</time>
      </trkpt>
      <trkpt lat="50.13005" lon="3.61052">
        <ele>151.544921875</ele>
        <time>2013-04-07T08:59:40Z</time>
      </trkpt>
      <trkpt lat="50.12996" lon="3.61027">
        <ele>150.58361816406</ele>
        <time>2013-04-07T08:59:44Z</time>
      </trkpt>
      <trkpt lat="50.12976" lon="3.60968">
        <ele>150.10302734375</ele>
        <time>2013-04-07T08:59:53Z</time>
      </trkpt>
      <trkpt lat="50.12969" lon="3.60949">
        <ele>149.1416015625</ele>
        <time>2013-04-07T08:59:56Z</time>
      </trkpt>
      <trkpt lat="50.1296" lon="3.60924">
        <ele>148.18041992188</ele>
        <time>2013-04-07T09:00:00Z</time>
      </trkpt>
      <trkpt lat="50.12947" lon="3.60891">
        <ele>146.73840332031</ele>
        <time>2013-04-07T09:00:04Z</time>
      </trkpt>
      <trkpt lat="50.12934" lon="3.60856">
        <ele>145.29638671875</ele>
        <time>2013-04-07T09:00:08Z</time>
      </trkpt>
      <trkpt lat="50.12914" lon="3.60805">
        <ele>144.33520507812</ele>
        <time>2013-04-07T09:00:14Z</time>
      </trkpt>
      <trkpt lat="50.12908" lon="3.60791">
        <ele>145.77709960938</ele>
        <time>2013-04-07T09:00:20Z</time>
      </trkpt>
      <trkpt lat="50.12908" lon="3.60791">
        <ele>144.81579589844</ele>
        <time>2013-04-07T09:00:40Z</time>
      </trkpt>
      <trkpt lat="50.12908" lon="3.60791">
        <ele>144.81579589844</ele>
        <time>2013-04-07T09:04:48Z</time>
      </trkpt>
      <trkpt lat="50.12908" lon="3.60791">
        <ele>144.81579589844</ele>
        <time>2013-04-07T09:05:33Z</time>
      </trkpt>
      <trkpt lat="50.12908" lon="3.60791">
        <ele>144.33520507812</ele>
        <time>2013-04-07T09:06:58Z</time>
      </trkpt>
      <trkpt lat="50.12908" lon="3.60791">
        <ele>144.81579589844</ele>
        <time>2013-04-07T09:07:17Z</time>
      </trkpt>
      <trkpt lat="50.12908" lon="3.60791">
        <ele>144.33520507812</ele>
        <time>2013-04-07T09:07:21Z</time>
      </trkpt>
      <trkpt lat="50.12909" lon="3.60794">
        <ele>144.81579589844</ele>
        <time>2013-04-07T09:07:23Z</time>
      </trkpt>
      <trkpt lat="50.12911" lon="3.60798">
        <ele>144.81579589844</ele>
        <time>2013-04-07T09:07:27Z</time>
      </trkpt>
      <trkpt lat="50.1289" lon="3.60833">
        <ele>145.29638671875</ele>
        <time>2013-04-07T09:07:37Z</time>
      </trkpt>
      <trkpt lat="50.12858" lon="3.60854">
        <ele>144.33520507812</ele>
        <time>2013-04-07T09:07:47Z</time>
      </trkpt>
      <trkpt lat="50.12856" lon="3.60858">
        <ele>144.33520507812</ele>
        <time>2013-04-07T09:07:49Z</time>
      </trkpt>
      <trkpt lat="50.12838" lon="3.60894">
        <ele>144.81579589844</ele>
        <time>2013-04-07T09:07:56Z</time>
      </trkpt>
      <trkpt lat="50.12826" lon="3.60915">
        <ele>144.81579589844</ele>
        <time>2013-04-07T09:08:00Z</time>
      </trkpt>
      <trkpt lat="50.12818" lon="3.60928">
        <ele>145.29638671875</ele>
        <time>2013-04-07T09:08:02Z</time>
      </trkpt>
      <trkpt lat="50.12786" lon="3.60976">
        <ele>145.77709960938</ele>
        <time>2013-04-07T09:08:12Z</time>
      </trkpt>
      <trkpt lat="50.12765" lon="3.61003">
        <ele>146.2578125</ele>
        <time>2013-04-07T09:08:22Z</time>
      </trkpt>
      <trkpt lat="50.12752" lon="3.61021">
        <ele>146.73840332031</ele>
        <time>2013-04-07T09:08:25Z</time>
      </trkpt>
      <trkpt lat="50.12726" lon="3.61033">
        <ele>145.29638671875</ele>
        <time>2013-04-07T09:08:29Z</time>
      </trkpt>
      <trkpt lat="50.12722" lon="3.6103">
        <ele>144.81579589844</ele>
        <time>2013-04-07T09:08:30Z</time>
      </trkpt>
      <trkpt lat="50.12697" lon="3.61006">
        <ele>142.89306640625</ele>
        <time>2013-04-07T09:08:36Z</time>
      </trkpt>
      <trkpt lat="50.12691" lon="3.61">
        <ele>143.37365722656</ele>
        <time>2013-04-07T09:08:39Z</time>
      </trkpt>
      <trkpt lat="50.12641" lon="3.60941">
        <ele>146.2578125</ele>
        <time>2013-04-07T09:08:48Z</time>
      </trkpt>
      <trkpt lat="50.12629" lon="3.60927">
        <ele>147.69970703125</ele>
        <time>2013-04-07T09:08:52Z</time>
      </trkpt>
      <trkpt lat="50.12619" lon="3.60916">
        <ele>148.66101074219</ele>
        <time>2013-04-07T09:08:56Z</time>
      </trkpt>
      <trkpt lat="50.12602" lon="3.60897">
        <ele>150.10302734375</ele>
        <time>2013-04-07T09:09:04Z</time>
      </trkpt>
      <trkpt lat="50.12574" lon="3.60866">
        <ele>151.06420898438</ele>
        <time>2013-04-07T09:09:12Z</time>
      </trkpt>
      <trkpt lat="50.12559" lon="3.60834">
        <ele>152.98693847656</ele>
        <time>2013-04-07T09:09:18Z</time>
      </trkpt>
      <trkpt lat="50.12577" lon="3.60794">
        <ele>151.06420898438</ele>
        <time>2013-04-07T09:09:25Z</time>
      </trkpt>
      <trkpt lat="50.12588" lon="3.60769">
        <ele>150.58361816406</ele>
        <time>2013-04-07T09:09:29Z</time>
      </trkpt>
      <trkpt lat="50.12615" lon="3.60741">
        <ele>148.66101074219</ele>
        <time>2013-04-07T09:09:34Z</time>
      </trkpt>
      <trkpt lat="50.12629" lon="3.60734">
        <ele>147.69970703125</ele>
        <time>2013-04-07T09:09:36Z</time>
      </trkpt>
      <trkpt lat="50.12645" lon="3.60729">
        <ele>146.2578125</ele>
        <time>2013-04-07T09:09:38Z</time>
      </trkpt>
      <trkpt lat="50.1272" lon="3.60702">
        <ele>144.33520507812</ele>
        <time>2013-04-07T09:09:49Z</time>
      </trkpt>
      <trkpt lat="50.12742" lon="3.60694">
        <ele>141.93176269531</ele>
        <time>2013-04-07T09:09:52Z</time>
      </trkpt>
      <trkpt lat="50.12757" lon="3.60689">
        <ele>142.89306640625</ele>
        <time>2013-04-07T09:09:54Z</time>
      </trkpt>
      <trkpt lat="50.12772" lon="3.60683">
        <ele>144.33520507812</ele>
        <time>2013-04-07T09:09:57Z</time>
      </trkpt>
      <trkpt lat="50.12755" lon="3.60667">
        <ele>145.77709960938</ele>
        <time>2013-04-07T09:09:59Z</time>
      </trkpt>
      <trkpt lat="50.12755" lon="3.60665">
        <ele>146.2578125</ele>
        <time>2013-04-07T09:10:00Z</time>
      </trkpt>
      <trkpt lat="50.12748" lon="3.60653">
        <ele>148.18041992188</ele>
        <time>2013-04-07T09:10:04Z</time>
      </trkpt>
      <trkpt lat="50.12732" lon="3.60575">
        <ele>150.10302734375</ele>
        <time>2013-04-07T09:10:15Z</time>
      </trkpt>
      <trkpt lat="50.12705" lon="3.60557">
        <ele>151.06420898438</ele>
        <time>2013-04-07T09:10:24Z</time>
      </trkpt>
      <trkpt lat="50.12704" lon="3.60541">
        <ele>151.06420898438</ele>
        <time>2013-04-07T09:10:28Z</time>
      </trkpt>
      <trkpt lat="50.12687" lon="3.60547">
        <ele>152.02575683594</ele>
        <time>2013-04-07T09:10:32Z</time>
      </trkpt>
      <trkpt lat="50.1267" lon="3.60521">
        <ele>151.544921875</ele>
        <time>2013-04-07T09:10:34Z</time>
      </trkpt>
      <trkpt lat="50.12664" lon="3.60477">
        <ele>152.50634765625</ele>
        <time>2013-04-07T09:10:41Z</time>
      </trkpt>
      <trkpt lat="50.12651" lon="3.60446">
        <ele>152.98693847656</ele>
        <time>2013-04-07T09:10:46Z</time>
      </trkpt>
      <trkpt lat="50.12624" lon="3.60397">
        <ele>152.50634765625</ele>
        <time>2013-04-07T09:10:55Z</time>
      </trkpt>
      <trkpt lat="50.12611" lon="3.60377">
        <ele>152.50634765625</ele>
        <time>2013-04-07T09:10:59Z</time>
      </trkpt>
      <trkpt lat="50.12597" lon="3.60352">
        <ele>152.02575683594</ele>
        <time>2013-04-07T09:11:05Z</time>
      </trkpt>
      <trkpt lat="50.12594" lon="3.60336">
        <ele>152.02575683594</ele>
        <time>2013-04-07T09:11:07Z</time>
      </trkpt>
      <trkpt lat="50.12605" lon="3.60256">
        <ele>152.02575683594</ele>
        <time>2013-04-07T09:11:19Z</time>
      </trkpt>
      <trkpt lat="50.12608" lon="3.60223">
        <ele>150.58361816406</ele>
        <time>2013-04-07T09:11:24Z</time>
      </trkpt>
      <trkpt lat="50.12626" lon="3.60146">
        <ele>149.1416015625</ele>
        <time>2013-04-07T09:11:35Z</time>
      </trkpt>
      <trkpt lat="50.12636" lon="3.6012">
        <ele>150.10302734375</ele>
        <time>2013-04-07T09:11:40Z</time>
      </trkpt>
      <trkpt lat="50.12641" lon="3.60111">
        <ele>149.62231445312</ele>
        <time>2013-04-07T09:11:42Z</time>
      </trkpt>
      <trkpt lat="50.12642" lon="3.60082">
        <ele>149.62231445312</ele>
        <time>2013-04-07T09:11:46Z</time>
      </trkpt>
      <trkpt lat="50.12633" lon="3.60059">
        <ele>149.1416015625</ele>
        <time>2013-04-07T09:11:50Z</time>
      </trkpt>
      <trkpt lat="50.1261" lon="3.60078">
        <ele>148.18041992188</ele>
        <time>2013-04-07T09:11:57Z</time>
      </trkpt>
      <trkpt lat="50.1256" lon="3.60063">
        <ele>149.1416015625</ele>
        <time>2013-04-07T09:12:04Z</time>
      </trkpt>
      <trkpt lat="50.12559" lon="3.60064">
        <ele>148.66101074219</ele>
        <time>2013-04-07T09:12:07Z</time>
      </trkpt>
      <trkpt lat="50.12555" lon="3.60066">
        <ele>148.66101074219</ele>
        <time>2013-04-07T09:12:09Z</time>
      </trkpt>
      <trkpt lat="50.12533" lon="3.60046">
        <ele>147.21899414062</ele>
        <time>2013-04-07T09:12:17Z</time>
      </trkpt>
      <trkpt lat="50.12529" lon="3.60039">
        <ele>147.21899414062</ele>
        <time>2013-04-07T09:12:18Z</time>
      </trkpt>
      <trkpt lat="50.1249" lon="3.60077">
        <ele>147.21899414062</ele>
        <time>2013-04-07T09:12:26Z</time>
      </trkpt>
      <trkpt lat="50.1246" lon="3.60109">
        <ele>148.18041992188</ele>
        <time>2013-04-07T09:12:36Z</time>
      </trkpt>
      <trkpt lat="50.12434" lon="3.60138">
        <ele>148.18041992188</ele>
        <time>2013-04-07T09:12:44Z</time>
      </trkpt>
      <trkpt lat="50.12412" lon="3.60161">
        <ele>148.66101074219</ele>
        <time>2013-04-07T09:12:53Z</time>
      </trkpt>
      <trkpt lat="50.1239" lon="3.60143">
        <ele>147.69970703125</ele>
        <time>2013-04-07T09:13:00Z</time>
      </trkpt>
      <trkpt lat="50.12382" lon="3.60126">
        <ele>146.2578125</ele>
        <time>2013-04-07T09:13:03Z</time>
      </trkpt>
      <trkpt lat="50.12354" lon="3.60066">
        <ele>144.81579589844</ele>
        <time>2013-04-07T09:13:12Z</time>
      </trkpt>
      <trkpt lat="50.12325" lon="3.60008">
        <ele>148.18041992188</ele>
        <time>2013-04-07T09:13:22Z</time>
      </trkpt>
      <trkpt lat="50.12308" lon="3.59973">
        <ele>149.62231445312</ele>
        <time>2013-04-07T09:13:28Z</time>
      </trkpt>
      <trkpt lat="50.123" lon="3.59957">
        <ele>149.62231445312</ele>
        <time>2013-04-07T09:13:31Z</time>
      </trkpt>
      <trkpt lat="50.12284" lon="3.59925">
        <ele>150.10302734375</ele>
        <time>2013-04-07T09:13:37Z</time>
      </trkpt>
      <trkpt lat="50.12256" lon="3.5987">
        <ele>151.06420898438</ele>
        <time>2013-04-07T09:13:48Z</time>
      </trkpt>
      <trkpt lat="50.12247" lon="3.59858">
        <ele>150.58361816406</ele>
        <time>2013-04-07T09:13:51Z</time>
      </trkpt>
      <trkpt lat="50.12235" lon="3.59839">
        <ele>151.06420898438</ele>
        <time>2013-04-07T09:13:55Z</time>
      </trkpt>
      <trkpt lat="50.12224" lon="3.59816">
        <ele>151.06420898438</ele>
        <time>2013-04-07T09:13:59Z</time>
      </trkpt>
      <trkpt lat="50.12181" lon="3.59733">
        <ele>151.06420898438</ele>
        <time>2013-04-07T09:14:14Z</time>
      </trkpt>
      <trkpt lat="50.12173" lon="3.59715">
        <ele>151.06420898438</ele>
        <time>2013-04-07T09:14:17Z</time>
      </trkpt>
      <trkpt lat="50.12163" lon="3.59698">
        <ele>151.06420898438</ele>
        <time>2013-04-07T09:14:20Z</time>
      </trkpt>
      <trkpt lat="50.12154" lon="3.59681">
        <ele>150.58361816406</ele>
        <time>2013-04-07T09:14:23Z</time>
      </trkpt>
      <trkpt lat="50.12145" lon="3.59661">
        <ele>150.58361816406</ele>
        <time>2013-04-07T09:14:26Z</time>
      </trkpt>
      <trkpt lat="50.12136" lon="3.59642">
        <ele>150.58361816406</ele>
        <time>2013-04-07T09:14:29Z</time>
      </trkpt>
      <trkpt lat="50.12117" lon="3.59598">
        <ele>150.58361816406</ele>
        <time>2013-04-07T09:14:36Z</time>
      </trkpt>
      <trkpt lat="50.12082" lon="3.59527">
        <ele>150.10302734375</ele>
        <time>2013-04-07T09:14:47Z</time>
      </trkpt>
      <trkpt lat="50.1207" lon="3.59502">
        <ele>149.1416015625</ele>
        <time>2013-04-07T09:14:51Z</time>
      </trkpt>
      <trkpt lat="50.12051" lon="3.595">
        <ele>148.18041992188</ele>
        <time>2013-04-07T09:14:55Z</time>
      </trkpt>
      <trkpt lat="50.12036" lon="3.595">
        <ele>146.73840332031</ele>
        <time>2013-04-07T09:14:58Z</time>
      </trkpt>
      <trkpt lat="50.12021" lon="3.59496">
        <ele>145.29638671875</ele>
        <time>2013-04-07T09:15:01Z</time>
      </trkpt>
      <trkpt lat="50.12003" lon="3.59512">
        <ele>143.37365722656</ele>
        <time>2013-04-07T09:15:05Z</time>
      </trkpt>
      <trkpt lat="50.12002" lon="3.59519">
        <ele>142.89306640625</ele>
        <time>2013-04-07T09:15:06Z</time>
      </trkpt>
      <trkpt lat="50.12002" lon="3.59536">
        <ele>144.33520507812</ele>
        <time>2013-04-07T09:15:08Z</time>
      </trkpt>
      <trkpt lat="50.12007" lon="3.59559">
        <ele>145.29638671875</ele>
        <time>2013-04-07T09:15:11Z</time>
      </trkpt>
      <trkpt lat="50.12007" lon="3.59587">
        <ele>145.77709960938</ele>
        <time>2013-04-07T09:15:15Z</time>
      </trkpt>
      <trkpt lat="50.12019" lon="3.59635">
        <ele>145.77709960938</ele>
        <time>2013-04-07T09:15:22Z</time>
      </trkpt>
      <trkpt lat="50.12024" lon="3.59645">
        <ele>145.29638671875</ele>
        <time>2013-04-07T09:15:24Z</time>
      </trkpt>
      <trkpt lat="50.12036" lon="3.59664">
        <ele>145.77709960938</ele>
        <time>2013-04-07T09:15:28Z</time>
      </trkpt>
      <trkpt lat="50.12051" lon="3.59696">
        <ele>147.21899414062</ele>
        <time>2013-04-07T09:15:34Z</time>
      </trkpt>
      <trkpt lat="50.12082" lon="3.59759">
        <ele>146.73840332031</ele>
        <time>2013-04-07T09:15:46Z</time>
      </trkpt>
      <trkpt lat="50.12116" lon="3.59825">
        <ele>147.69970703125</ele>
        <time>2013-04-07T09:15:59Z</time>
      </trkpt>
      <trkpt lat="50.12126" lon="3.59846">
        <ele>148.66101074219</ele>
        <time>2013-04-07T09:16:03Z</time>
      </trkpt>
      <trkpt lat="50.1216" lon="3.5992">
        <ele>149.1416015625</ele>
        <time>2013-04-07T09:16:10Z</time>
      </trkpt>
      <trkpt lat="50.12138" lon="3.59935">
        <ele>149.62231445312</ele>
        <time>2013-04-07T09:16:19Z</time>
      </trkpt>
      <trkpt lat="50.12126" lon="3.59943">
        <ele>149.62231445312</ele>
        <time>2013-04-07T09:16:23Z</time>
      </trkpt>
      <trkpt lat="50.12107" lon="3.59955">
        <ele>147.21899414062</ele>
        <time>2013-04-07T09:16:28Z</time>
      </trkpt>
      <trkpt lat="50.12099" lon="3.5996">
        <ele>147.21899414062</ele>
        <time>2013-04-07T09:16:30Z</time>
      </trkpt>
      <trkpt lat="50.1204" lon="3.59995">
        <ele>144.33520507812</ele>
        <time>2013-04-07T09:16:41Z</time>
      </trkpt>
      <trkpt lat="50.12017" lon="3.60011">
        <ele>143.85437011719</ele>
        <time>2013-04-07T09:16:46Z</time>
      </trkpt>
      <trkpt lat="50.11975" lon="3.60037">
        <ele>140.97045898438</ele>
        <time>2013-04-07T09:16:52Z</time>
      </trkpt>
      <trkpt lat="50.11942" lon="3.60059">
        <ele>140.00915527344</ele>
        <time>2013-04-07T09:16:57Z</time>
      </trkpt>
      <trkpt lat="50.11931" lon="3.60083">
        <ele>140.00915527344</ele>
        <time>2013-04-07T09:17:00Z</time>
      </trkpt>
      <trkpt lat="50.11926" lon="3.60125">
        <ele>141.45104980469</ele>
        <time>2013-04-07T09:17:05Z</time>
      </trkpt>
      <trkpt lat="50.11922" lon="3.6016">
        <ele>142.41247558594</ele>
        <time>2013-04-07T09:17:10Z</time>
      </trkpt>
      <trkpt lat="50.11919" lon="3.6022">
        <ele>142.89306640625</ele>
        <time>2013-04-07T09:17:19Z</time>
      </trkpt>
      <trkpt lat="50.11926" lon="3.60294">
        <ele>142.41247558594</ele>
        <time>2013-04-07T09:17:31Z</time>
      </trkpt>
      <trkpt lat="50.11932" lon="3.60405">
        <ele>143.37365722656</ele>
        <time>2013-04-07T09:17:48Z</time>
      </trkpt>
      <trkpt lat="50.11931" lon="3.60411">
        <ele>143.37365722656</ele>
        <time>2013-04-07T09:17:49Z</time>
      </trkpt>
      <trkpt lat="50.11912" lon="3.60495">
        <ele>144.33520507812</ele>
        <time>2013-04-07T09:18:03Z</time>
      </trkpt>
      <trkpt lat="50.11896" lon="3.60574">
        <ele>143.85437011719</ele>
        <time>2013-04-07T09:18:16Z</time>
      </trkpt>
      <trkpt lat="50.11858" lon="3.6066">
        <ele>145.77709960938</ele>
        <time>2013-04-07T09:18:33Z</time>
      </trkpt>
      <trkpt lat="50.11851" lon="3.6064">
        <ele>145.29638671875</ele>
        <time>2013-04-07T09:18:38Z</time>
      </trkpt>
      <trkpt lat="50.1183" lon="3.60613">
        <ele>146.73840332031</ele>
        <time>2013-04-07T09:18:49Z</time>
      </trkpt>
      <trkpt lat="50.11803" lon="3.60584">
        <ele>148.18041992188</ele>
        <time>2013-04-07T09:19:01Z</time>
      </trkpt>
      <trkpt lat="50.11781" lon="3.6056">
        <ele>149.62231445312</ele>
        <time>2013-04-07T09:19:11Z</time>
      </trkpt>
      <trkpt lat="50.11771" lon="3.60549">
        <ele>149.62231445312</ele>
        <time>2013-04-07T09:19:16Z</time>
      </trkpt>
      <trkpt lat="50.11752" lon="3.60526">
        <ele>150.10302734375</ele>
        <time>2013-04-07T09:19:26Z</time>
      </trkpt>
      <trkpt lat="50.11725" lon="3.60492">
        <ele>150.58361816406</ele>
        <time>2013-04-07T09:19:38Z</time>
      </trkpt>
      <trkpt lat="50.11715" lon="3.60479">
        <ele>151.06420898438</ele>
        <time>2013-04-07T09:19:43Z</time>
      </trkpt>
      <trkpt lat="50.11679" lon="3.60426">
        <ele>150.10302734375</ele>
        <time>2013-04-07T09:19:55Z</time>
      </trkpt>
      <trkpt lat="50.11665" lon="3.60407">
        <ele>148.66101074219</ele>
        <time>2013-04-07T09:19:59Z</time>
      </trkpt>
      <trkpt lat="50.11639" lon="3.60363">
        <ele>145.77709960938</ele>
        <time>2013-04-07T09:20:06Z</time>
      </trkpt>
      <trkpt lat="50.11619" lon="3.60342">
        <ele>145.29638671875</ele>
        <time>2013-04-07T09:20:10Z</time>
      </trkpt>
      <trkpt lat="50.11603" lon="3.6033">
        <ele>145.29638671875</ele>
        <time>2013-04-07T09:20:14Z</time>
      </trkpt>
      <trkpt lat="50.11563" lon="3.60288">
        <ele>147.69970703125</ele>
        <time>2013-04-07T09:20:27Z</time>
      </trkpt>
      <trkpt lat="50.11541" lon="3.60223">
        <ele>146.2578125</ele>
        <time>2013-04-07T09:20:39Z</time>
      </trkpt>
      <trkpt lat="50.11534" lon="3.60198">
        <ele>146.2578125</ele>
        <time>2013-04-07T09:20:43Z</time>
      </trkpt>
      <trkpt lat="50.11526" lon="3.60174">
        <ele>145.29638671875</ele>
        <time>2013-04-07T09:20:47Z</time>
      </trkpt>
      <trkpt lat="50.11519" lon="3.60158">
        <ele>144.81579589844</ele>
        <time>2013-04-07T09:20:50Z</time>
      </trkpt>
      <trkpt lat="50.11502" lon="3.60137">
        <ele>143.37365722656</ele>
        <time>2013-04-07T09:20:54Z</time>
      </trkpt>
      <trkpt lat="50.11447" lon="3.60195">
        <ele>144.33520507812</ele>
        <time>2013-04-07T09:21:05Z</time>
      </trkpt>
      <trkpt lat="50.11435" lon="3.60251">
        <ele>146.73840332031</ele>
        <time>2013-04-07T09:21:17Z</time>
      </trkpt>
      <trkpt lat="50.11417" lon="3.60245">
        <ele>146.73840332031</ele>
        <time>2013-04-07T09:21:22Z</time>
      </trkpt>
      <trkpt lat="50.11379" lon="3.6023">
        <ele>146.2578125</ele>
        <time>2013-04-07T09:21:34Z</time>
      </trkpt>
      <trkpt lat="50.11376" lon="3.60229">
        <ele>146.2578125</ele>
        <time>2013-04-07T09:21:36Z</time>
      </trkpt>
      <trkpt lat="50.11372" lon="3.6021">
        <ele>146.73840332031</ele>
        <time>2013-04-07T09:21:51Z</time>
      </trkpt>
      <trkpt lat="50.11372" lon="3.6021">
        <ele>147.21899414062</ele>
        <time>2013-04-07T09:22:16Z</time>
      </trkpt>
      <trkpt lat="50.11372" lon="3.6021">
        <ele>146.73840332031</ele>
        <time>2013-04-07T09:22:52Z</time>
      </trkpt>
      <trkpt lat="50.1137" lon="3.60198">
        <ele>146.73840332031</ele>
        <time>2013-04-07T09:22:55Z</time>
      </trkpt>
      <trkpt lat="50.11371" lon="3.60215">
        <ele>146.2578125</ele>
        <time>2013-04-07T09:23:04Z</time>
      </trkpt>
      <trkpt lat="50.11365" lon="3.60216">
        <ele>145.77709960938</ele>
        <time>2013-04-07T09:23:06Z</time>
      </trkpt>
      <trkpt lat="50.11331" lon="3.60215">
        <ele>147.69970703125</ele>
        <time>2013-04-07T09:23:21Z</time>
      </trkpt>
      <trkpt lat="50.11268" lon="3.60212">
        <ele>149.1416015625</ele>
        <time>2013-04-07T09:23:42Z</time>
      </trkpt>
      <trkpt lat="50.11257" lon="3.60211">
        <ele>149.1416015625</ele>
        <time>2013-04-07T09:23:45Z</time>
      </trkpt>
      <trkpt lat="50.11249" lon="3.60188">
        <ele>148.66101074219</ele>
        <time>2013-04-07T09:23:50Z</time>
      </trkpt>
      <trkpt lat="50.1125" lon="3.60158">
        <ele>147.69970703125</ele>
        <time>2013-04-07T09:23:54Z</time>
      </trkpt>
      <trkpt lat="50.11251" lon="3.60142">
        <ele>146.73840332031</ele>
        <time>2013-04-07T09:23:56Z</time>
      </trkpt>
      <trkpt lat="50.11252" lon="3.60134">
        <ele>146.2578125</ele>
        <time>2013-04-07T09:23:57Z</time>
      </trkpt>
      <trkpt lat="50.11253" lon="3.60103">
        <ele>146.2578125</ele>
        <time>2013-04-07T09:24:01Z</time>
      </trkpt>
      <trkpt lat="50.11255" lon="3.60067">
        <ele>147.21899414062</ele>
        <time>2013-04-07T09:24:06Z</time>
      </trkpt>
      <trkpt lat="50.11248" lon="3.60043">
        <ele>148.66101074219</ele>
        <time>2013-04-07T09:24:12Z</time>
      </trkpt>
      <trkpt lat="50.11233" lon="3.6004">
        <ele>148.66101074219</ele>
        <time>2013-04-07T09:24:15Z</time>
      </trkpt>
      <trkpt lat="50.11212" lon="3.6005">
        <ele>149.1416015625</ele>
        <time>2013-04-07T09:24:20Z</time>
      </trkpt>
      <trkpt lat="50.11175" lon="3.60065">
        <ele>151.06420898438</ele>
        <time>2013-04-07T09:24:31Z</time>
      </trkpt>
      <trkpt lat="50.11164" lon="3.60068">
        <ele>150.58361816406</ele>
        <time>2013-04-07T09:24:35Z</time>
      </trkpt>
      <trkpt lat="50.1113" lon="3.60099">
        <ele>150.58361816406</ele>
        <time>2013-04-07T09:24:46Z</time>
      </trkpt>
      <trkpt lat="50.11113" lon="3.60143">
        <ele>151.544921875</ele>
        <time>2013-04-07T09:24:56Z</time>
      </trkpt>
      <trkpt lat="50.11097" lon="3.60186">
        <ele>151.544921875</ele>
        <time>2013-04-07T09:25:04Z</time>
      </trkpt>
      <trkpt lat="50.1108" lon="3.60224">
        <ele>151.544921875</ele>
        <time>2013-04-07T09:25:12Z</time>
      </trkpt>
      <trkpt lat="50.11063" lon="3.60256">
        <ele>152.02575683594</ele>
        <time>2013-04-07T09:25:20Z</time>
      </trkpt>
      <trkpt lat="50.11045" lon="3.60281">
        <ele>151.544921875</ele>
        <time>2013-04-07T09:25:27Z</time>
      </trkpt>
      <trkpt lat="50.11017" lon="3.60309">
        <ele>151.06420898438</ele>
        <time>2013-04-07T09:25:35Z</time>
      </trkpt>
      <trkpt lat="50.10996" lon="3.60317">
        <ele>150.58361816406</ele>
        <time>2013-04-07T09:25:40Z</time>
      </trkpt>
      <trkpt lat="50.10954" lon="3.60301">
        <ele>147.69970703125</ele>
        <time>2013-04-07T09:25:49Z</time>
      </trkpt>
      <trkpt lat="50.1094" lon="3.60293">
        <ele>147.69970703125</ele>
        <time>2013-04-07T09:25:52Z</time>
      </trkpt>
      <trkpt lat="50.10885" lon="3.60261">
        <ele>144.81579589844</ele>
        <time>2013-04-07T09:26:01Z</time>
      </trkpt>
      <trkpt lat="50.10849" lon="3.60255">
        <ele>143.85437011719</ele>
        <time>2013-04-07T09:26:08Z</time>
      </trkpt>
      <trkpt lat="50.10831" lon="3.60255">
        <ele>143.37365722656</ele>
        <time>2013-04-07T09:26:13Z</time>
      </trkpt>
      <trkpt lat="50.10817" lon="3.60259">
        <ele>142.89306640625</ele>
        <time>2013-04-07T09:26:15Z</time>
      </trkpt>
      <trkpt lat="50.10798" lon="3.60285">
        <ele>142.41247558594</ele>
        <time>2013-04-07T09:26:19Z</time>
      </trkpt>
      <trkpt lat="50.10787" lon="3.60299">
        <ele>140.97045898438</ele>
        <time>2013-04-07T09:26:21Z</time>
      </trkpt>
      <trkpt lat="50.10763" lon="3.60333">
        <ele>140.97045898438</ele>
        <time>2013-04-07T09:26:28Z</time>
      </trkpt>
      <trkpt lat="50.10753" lon="3.60349">
        <ele>140.97045898438</ele>
        <time>2013-04-07T09:26:31Z</time>
      </trkpt>
      <trkpt lat="50.10723" lon="3.60391">
        <ele>141.45104980469</ele>
        <time>2013-04-07T09:26:39Z</time>
      </trkpt>
      <trkpt lat="50.10713" lon="3.60405">
        <ele>140.97045898438</ele>
        <time>2013-04-07T09:26:42Z</time>
      </trkpt>
      <trkpt lat="50.10701" lon="3.60428">
        <ele>140.48986816406</ele>
        <time>2013-04-07T09:26:46Z</time>
      </trkpt>
      <trkpt lat="50.10679" lon="3.60487">
        <ele>140.48986816406</ele>
        <time>2013-04-07T09:26:56Z</time>
      </trkpt>
      <trkpt lat="50.10655" lon="3.6056">
        <ele>140.00915527344</ele>
        <time>2013-04-07T09:27:07Z</time>
      </trkpt>
      <trkpt lat="50.10641" lon="3.60604">
        <ele>139.52844238281</ele>
        <time>2013-04-07T09:27:14Z</time>
      </trkpt>
      <trkpt lat="50.10614" lon="3.60681">
        <ele>140.00915527344</ele>
        <time>2013-04-07T09:27:25Z</time>
      </trkpt>
      <trkpt lat="50.10599" lon="3.6073">
        <ele>139.52844238281</ele>
        <time>2013-04-07T09:27:34Z</time>
      </trkpt>
      <trkpt lat="50.10598" lon="3.60735">
        <ele>139.52844238281</ele>
        <time>2013-04-07T09:27:35Z</time>
      </trkpt>
      <trkpt lat="50.10591" lon="3.60761">
        <ele>138.56726074219</ele>
        <time>2013-04-07T09:27:39Z</time>
      </trkpt>
      <trkpt lat="50.10588" lon="3.60778">
        <ele>138.56726074219</ele>
        <time>2013-04-07T09:27:43Z</time>
      </trkpt>
      <trkpt lat="50.10586" lon="3.60789">
        <ele>138.56726074219</ele>
        <time>2013-04-07T09:27:45Z</time>
      </trkpt>
      <trkpt lat="50.10571" lon="3.60851">
        <ele>139.0478515625</ele>
        <time>2013-04-07T09:27:55Z</time>
      </trkpt>
      <trkpt lat="50.10568" lon="3.60902">
        <ele>139.0478515625</ele>
        <time>2013-04-07T09:28:04Z</time>
      </trkpt>
      <trkpt lat="50.10568" lon="3.60906">
        <ele>139.0478515625</ele>
        <time>2013-04-07T09:28:06Z</time>
      </trkpt>
      <trkpt lat="50.10536" lon="3.60949">
        <ele>139.0478515625</ele>
        <time>2013-04-07T09:28:09Z</time>
      </trkpt>
      <trkpt lat="50.10509" lon="3.6091">
        <ele>139.0478515625</ele>
        <time>2013-04-07T09:28:21Z</time>
      </trkpt>
      <trkpt lat="50.10484" lon="3.60873">
        <ele>140.48986816406</ele>
        <time>2013-04-07T09:28:34Z</time>
      </trkpt>
      <trkpt lat="50.10458" lon="3.60837">
        <ele>141.93176269531</ele>
        <time>2013-04-07T09:28:50Z</time>
      </trkpt>
      <trkpt lat="50.10457" lon="3.60835">
        <ele>141.93176269531</ele>
        <time>2013-04-07T09:28:51Z</time>
      </trkpt>
      <trkpt lat="50.10461" lon="3.60811">
        <ele>141.93176269531</ele>
        <time>2013-04-07T09:28:55Z</time>
      </trkpt>
      <trkpt lat="50.10463" lon="3.60789">
        <ele>141.93176269531</ele>
        <time>2013-04-07T09:29:03Z</time>
      </trkpt>
      <trkpt lat="50.10482" lon="3.60753">
        <ele>142.41247558594</ele>
        <time>2013-04-07T09:29:13Z</time>
      </trkpt>
      <trkpt lat="50.10504" lon="3.60706">
        <ele>142.89306640625</ele>
        <time>2013-04-07T09:29:26Z</time>
      </trkpt>
      <trkpt lat="50.10514" lon="3.6068">
        <ele>142.89306640625</ele>
        <time>2013-04-07T09:29:33Z</time>
      </trkpt>
      <trkpt lat="50.1052" lon="3.6063">
        <ele>143.85437011719</ele>
        <time>2013-04-07T09:29:45Z</time>
      </trkpt>
      <trkpt lat="50.10511" lon="3.60607">
        <ele>144.81579589844</ele>
        <time>2013-04-07T09:29:52Z</time>
      </trkpt>
      <trkpt lat="50.10496" lon="3.60573">
        <ele>145.29638671875</ele>
        <time>2013-04-07T09:30:02Z</time>
      </trkpt>
      <trkpt lat="50.10486" lon="3.60553">
        <ele>145.29638671875</ele>
        <time>2013-04-07T09:30:08Z</time>
      </trkpt>
      <trkpt lat="50.1048" lon="3.60541">
        <ele>146.2578125</ele>
        <time>2013-04-07T09:30:12Z</time>
      </trkpt>
      <trkpt lat="50.10468" lon="3.60504">
        <ele>146.73840332031</ele>
        <time>2013-04-07T09:30:21Z</time>
      </trkpt>
      <trkpt lat="50.10464" lon="3.60489">
        <ele>146.73840332031</ele>
        <time>2013-04-07T09:30:25Z</time>
      </trkpt>
      <trkpt lat="50.10436" lon="3.60448">
        <ele>146.73840332031</ele>
        <time>2013-04-07T09:30:38Z</time>
      </trkpt>
      <trkpt lat="50.10433" lon="3.6044">
        <ele>147.21899414062</ele>
        <time>2013-04-07T09:30:40Z</time>
      </trkpt>
      <trkpt lat="50.10425" lon="3.6043">
        <ele>147.21899414062</ele>
        <time>2013-04-07T09:30:43Z</time>
      </trkpt>
      <trkpt lat="50.10399" lon="3.60395">
        <ele>146.73840332031</ele>
        <time>2013-04-07T09:30:53Z</time>
      </trkpt>
      <trkpt lat="50.10379" lon="3.60361">
        <ele>146.73840332031</ele>
        <time>2013-04-07T09:31:02Z</time>
      </trkpt>
      <trkpt lat="50.10359" lon="3.60329">
        <ele>147.21899414062</ele>
        <time>2013-04-07T09:31:10Z</time>
      </trkpt>
      <trkpt lat="50.10347" lon="3.60314">
        <ele>147.69970703125</ele>
        <time>2013-04-07T09:31:15Z</time>
      </trkpt>
      <trkpt lat="50.10337" lon="3.60314">
        <ele>147.21899414062</ele>
        <time>2013-04-07T09:31:19Z</time>
      </trkpt>
      <trkpt lat="50.10311" lon="3.6032">
        <ele>146.2578125</ele>
        <time>2013-04-07T09:31:27Z</time>
      </trkpt>
      <trkpt lat="50.10293" lon="3.60325">
        <ele>145.77709960938</ele>
        <time>2013-04-07T09:31:32Z</time>
      </trkpt>
      <trkpt lat="50.10273" lon="3.60328">
        <ele>143.85437011719</ele>
        <time>2013-04-07T09:31:38Z</time>
      </trkpt>
      <trkpt lat="50.10257" lon="3.60314">
        <ele>144.81579589844</ele>
        <time>2013-04-07T09:31:45Z</time>
      </trkpt>
      <trkpt lat="50.10244" lon="3.60258">
        <ele>144.81579589844</ele>
        <time>2013-04-07T09:31:55Z</time>
      </trkpt>
      <trkpt lat="50.10219" lon="3.60212">
        <ele>143.85437011719</ele>
        <time>2013-04-07T09:32:05Z</time>
      </trkpt>
      <trkpt lat="50.10211" lon="3.60208">
        <ele>143.37365722656</ele>
        <time>2013-04-07T09:32:08Z</time>
      </trkpt>
      <trkpt lat="50.10177" lon="3.60188">
        <ele>142.41247558594</ele>
        <time>2013-04-07T09:32:16Z</time>
      </trkpt>
      <trkpt lat="50.10147" lon="3.60166">
        <ele>139.0478515625</ele>
        <time>2013-04-07T09:32:21Z</time>
      </trkpt>
      <trkpt lat="50.1014" lon="3.60158">
        <ele>139.0478515625</ele>
        <time>2013-04-07T09:32:22Z</time>
      </trkpt>
      <trkpt lat="50.10134" lon="3.6015">
        <ele>139.0478515625</ele>
        <time>2013-04-07T09:32:23Z</time>
      </trkpt>
      <trkpt lat="50.10115" lon="3.60115">
        <ele>138.56726074219</ele>
        <time>2013-04-07T09:32:27Z</time>
      </trkpt>
      <trkpt lat="50.1011" lon="3.60102">
        <ele>137.60583496094</ele>
        <time>2013-04-07T09:32:29Z</time>
      </trkpt>
      <trkpt lat="50.10102" lon="3.60041">
        <ele>136.64465332031</ele>
        <time>2013-04-07T09:32:36Z</time>
      </trkpt>
      <trkpt lat="50.10088" lon="3.60025">
        <ele>135.20251464844</ele>
        <time>2013-04-07T09:32:39Z</time>
      </trkpt>
      <trkpt lat="50.10065" lon="3.60003">
        <ele>134.72192382812</ele>
        <time>2013-04-07T09:32:43Z</time>
      </trkpt>
      <trkpt lat="50.10032" lon="3.59984">
        <ele>133.76049804688</ele>
        <time>2013-04-07T09:32:48Z</time>
      </trkpt>
      <trkpt lat="50.10003" lon="3.59969">
        <ele>133.27990722656</ele>
        <time>2013-04-07T09:32:55Z</time>
      </trkpt>
      <trkpt lat="50.10003" lon="3.59969">
        <ele>133.27990722656</ele>
        <time>2013-04-07T09:32:56Z</time>
      </trkpt>
      <trkpt lat="50.10003" lon="3.59969">
        <ele>131.837890625</ele>
        <time>2013-04-07T09:33:29Z</time>
      </trkpt>
      <trkpt lat="50.10003" lon="3.59969">
        <ele>131.837890625</ele>
        <time>2013-04-07T09:35:18Z</time>
      </trkpt>
      <trkpt lat="50.10003" lon="3.59969">
        <ele>132.31860351562</ele>
        <time>2013-04-07T09:39:13Z</time>
      </trkpt>
      <trkpt lat="50.10003" lon="3.59969">
        <ele>132.31860351562</ele>
        <time>2013-04-07T09:39:36Z</time>
      </trkpt>
      <trkpt lat="50.10003" lon="3.59969">
        <ele>132.79931640625</ele>
        <time>2013-04-07T09:39:39Z</time>
      </trkpt>
      <trkpt lat="50.09957" lon="3.5998">
        <ele>130.39599609375</ele>
        <time>2013-04-07T09:39:48Z</time>
      </trkpt>
      <trkpt lat="50.09934" lon="3.6003">
        <ele>130.87670898438</ele>
        <time>2013-04-07T09:39:59Z</time>
      </trkpt>
      <trkpt lat="50.09921" lon="3.60055">
        <ele>131.35729980469</ele>
        <time>2013-04-07T09:40:05Z</time>
      </trkpt>
      <trkpt lat="50.09892" lon="3.60096">
        <ele>131.35729980469</ele>
        <time>2013-04-07T09:40:17Z</time>
      </trkpt>
      <trkpt lat="50.09885" lon="3.60122">
        <ele>131.35729980469</ele>
        <time>2013-04-07T09:40:20Z</time>
      </trkpt>
      <trkpt lat="50.09895" lon="3.60175">
        <ele>132.79931640625</ele>
        <time>2013-04-07T09:40:32Z</time>
      </trkpt>
      <trkpt lat="50.09896" lon="3.60179">
        <ele>132.79931640625</ele>
        <time>2013-04-07T09:40:33Z</time>
      </trkpt>
      <trkpt lat="50.099" lon="3.60195">
        <ele>134.2412109375</ele>
        <time>2013-04-07T09:40:37Z</time>
      </trkpt>
      <trkpt lat="50.09917" lon="3.60248">
        <ele>135.68310546875</ele>
        <time>2013-04-07T09:40:50Z</time>
      </trkpt>
      <trkpt lat="50.0992" lon="3.60278">
        <ele>137.12524414062</ele>
        <time>2013-04-07T09:40:57Z</time>
      </trkpt>
      <trkpt lat="50.09909" lon="3.6032">
        <ele>138.56726074219</ele>
        <time>2013-04-07T09:41:08Z</time>
      </trkpt>
      <trkpt lat="50.09893" lon="3.60374">
        <ele>140.00915527344</ele>
        <time>2013-04-07T09:41:21Z</time>
      </trkpt>
      <trkpt lat="50.0991" lon="3.60429">
        <ele>141.93176269531</ele>
        <time>2013-04-07T09:41:34Z</time>
      </trkpt>
      <trkpt lat="50.09888" lon="3.60469">
        <ele>142.89306640625</ele>
        <time>2013-04-07T09:41:45Z</time>
      </trkpt>
      <trkpt lat="50.09863" lon="3.6051">
        <ele>144.33520507812</ele>
        <time>2013-04-07T09:41:57Z</time>
      </trkpt>
      <trkpt lat="50.09845" lon="3.6054">
        <ele>144.81579589844</ele>
        <time>2013-04-07T09:42:07Z</time>
      </trkpt>
      <trkpt lat="50.09838" lon="3.60551">
        <ele>144.81579589844</ele>
        <time>2013-04-07T09:42:10Z</time>
      </trkpt>
      <trkpt lat="50.09821" lon="3.60536">
        <ele>143.85437011719</ele>
        <time>2013-04-07T09:42:15Z</time>
      </trkpt>
      <trkpt lat="50.09811" lon="3.60527">
        <ele>143.85437011719</ele>
        <time>2013-04-07T09:42:18Z</time>
      </trkpt>
      <trkpt lat="50.09789" lon="3.60541">
        <ele>143.37365722656</ele>
        <time>2013-04-07T09:42:22Z</time>
      </trkpt>
      <trkpt lat="50.09762" lon="3.60579">
        <ele>144.81579589844</ele>
        <time>2013-04-07T09:42:32Z</time>
      </trkpt>
      <trkpt lat="50.0974" lon="3.60633">
        <ele>144.81579589844</ele>
        <time>2013-04-07T09:42:44Z</time>
      </trkpt>
      <trkpt lat="50.09714" lon="3.60717">
        <ele>145.77709960938</ele>
        <time>2013-04-07T09:42:59Z</time>
      </trkpt>
      <trkpt lat="50.09703" lon="3.60781">
        <ele>145.29638671875</ele>
        <time>2013-04-07T09:43:10Z</time>
      </trkpt>
      <trkpt lat="50.09701" lon="3.60802">
        <ele>145.29638671875</ele>
        <time>2013-04-07T09:43:13Z</time>
      </trkpt>
      <trkpt lat="50.09685" lon="3.60827">
        <ele>144.81579589844</ele>
        <time>2013-04-07T09:43:18Z</time>
      </trkpt>
      <trkpt lat="50.0966" lon="3.60851">
        <ele>144.33520507812</ele>
        <time>2013-04-07T09:43:24Z</time>
      </trkpt>
      <trkpt lat="50.09634" lon="3.60876">
        <ele>142.41247558594</ele>
        <time>2013-04-07T09:43:31Z</time>
      </trkpt>
      <trkpt lat="50.09614" lon="3.60882">
        <ele>140.97045898438</ele>
        <time>2013-04-07T09:43:35Z</time>
      </trkpt>
      <trkpt lat="50.096" lon="3.60883">
        <ele>138.56726074219</ele>
        <time>2013-04-07T09:43:38Z</time>
      </trkpt>
      <trkpt lat="50.09588" lon="3.60931">
        <ele>138.56726074219</ele>
        <time>2013-04-07T09:43:44Z</time>
      </trkpt>
      <trkpt lat="50.09595" lon="3.60978">
        <ele>140.48986816406</ele>
        <time>2013-04-07T09:43:53Z</time>
      </trkpt>
      <trkpt lat="50.09605" lon="3.61025">
        <ele>141.93176269531</ele>
        <time>2013-04-07T09:44:02Z</time>
      </trkpt>
      <trkpt lat="50.09618" lon="3.61082">
        <ele>143.85437011719</ele>
        <time>2013-04-07T09:44:14Z</time>
      </trkpt>
      <trkpt lat="50.09628" lon="3.61126">
        <ele>144.81579589844</ele>
        <time>2013-04-07T09:44:25Z</time>
      </trkpt>
      <trkpt lat="50.09643" lon="3.61193">
        <ele>146.2578125</ele>
        <time>2013-04-07T09:44:39Z</time>
      </trkpt>
      <trkpt lat="50.0966" lon="3.61261">
        <ele>145.29638671875</ele>
        <time>2013-04-07T09:44:53Z</time>
      </trkpt>
      <trkpt lat="50.09688" lon="3.61345">
        <ele>144.81579589844</ele>
        <time>2013-04-07T09:45:08Z</time>
      </trkpt>
      <trkpt lat="50.0971" lon="3.61408">
        <ele>144.81579589844</ele>
        <time>2013-04-07T09:45:20Z</time>
      </trkpt>
      <trkpt lat="50.09731" lon="3.61469">
        <ele>144.81579589844</ele>
        <time>2013-04-07T09:45:32Z</time>
      </trkpt>
      <trkpt lat="50.09743" lon="3.615">
        <ele>145.29638671875</ele>
        <time>2013-04-07T09:45:38Z</time>
      </trkpt>
      <trkpt lat="50.09753" lon="3.61499">
        <ele>145.77709960938</ele>
        <time>2013-04-07T09:45:42Z</time>
      </trkpt>
      <trkpt lat="50.09777" lon="3.61467">
        <ele>145.29638671875</ele>
        <time>2013-04-07T09:45:53Z</time>
      </trkpt>
      <trkpt lat="50.09784" lon="3.61462">
        <ele>145.29638671875</ele>
        <time>2013-04-07T09:45:55Z</time>
      </trkpt>
      <trkpt lat="50.09789" lon="3.61453">
        <ele>145.77709960938</ele>
        <time>2013-04-07T09:45:57Z</time>
      </trkpt>
      <trkpt lat="50.09818" lon="3.61408">
        <ele>145.77709960938</ele>
        <time>2013-04-07T09:46:10Z</time>
      </trkpt>
      <trkpt lat="50.09821" lon="3.61402">
        <ele>145.29638671875</ele>
        <time>2013-04-07T09:46:12Z</time>
      </trkpt>
      <trkpt lat="50.09828" lon="3.61317">
        <ele>143.37365722656</ele>
        <time>2013-04-07T09:46:31Z</time>
      </trkpt>
      <trkpt lat="50.09835" lon="3.61289">
        <ele>143.85437011719</ele>
        <time>2013-04-07T09:46:39Z</time>
      </trkpt>
      <trkpt lat="50.09844" lon="3.6126">
        <ele>143.85437011719</ele>
        <time>2013-04-07T09:46:47Z</time>
      </trkpt>
      <trkpt lat="50.09873" lon="3.61212">
        <ele>145.77709960938</ele>
        <time>2013-04-07T09:47:03Z</time>
      </trkpt>
      <trkpt lat="50.09881" lon="3.61205">
        <ele>146.73840332031</ele>
        <time>2013-04-07T09:47:06Z</time>
      </trkpt>
      <trkpt lat="50.09889" lon="3.61206">
        <ele>145.77709960938</ele>
        <time>2013-04-07T09:47:09Z</time>
      </trkpt>
      <trkpt lat="50.09902" lon="3.61204">
        <ele>146.2578125</ele>
        <time>2013-04-07T09:47:13Z</time>
      </trkpt>
      <trkpt lat="50.09942" lon="3.612">
        <ele>144.81579589844</ele>
        <time>2013-04-07T09:47:24Z</time>
      </trkpt>
      <trkpt lat="50.09955" lon="3.61202">
        <ele>144.81579589844</ele>
        <time>2013-04-07T09:47:28Z</time>
      </trkpt>
      <trkpt lat="50.09965" lon="3.61199">
        <ele>144.81579589844</ele>
        <time>2013-04-07T09:47:32Z</time>
      </trkpt>
      <trkpt lat="50.09987" lon="3.61219">
        <ele>142.89306640625</ele>
        <time>2013-04-07T09:47:39Z</time>
      </trkpt>
      <trkpt lat="50.09987" lon="3.61225">
        <ele>142.89306640625</ele>
        <time>2013-04-07T09:47:40Z</time>
      </trkpt>
      <trkpt lat="50.09988" lon="3.61234">
        <ele>141.93176269531</ele>
        <time>2013-04-07T09:47:42Z</time>
      </trkpt>
      <trkpt lat="50.09988" lon="3.61249">
        <ele>140.97045898438</ele>
        <time>2013-04-07T09:47:44Z</time>
      </trkpt>
      <trkpt lat="50.0999" lon="3.61294">
        <ele>141.93176269531</ele>
        <time>2013-04-07T09:47:51Z</time>
      </trkpt>
      <trkpt lat="50.09997" lon="3.61332">
        <ele>140.48986816406</ele>
        <time>2013-04-07T09:47:56Z</time>
      </trkpt>
      <trkpt lat="50.09994" lon="3.61353">
        <ele>142.41247558594</ele>
        <time>2013-04-07T09:48:01Z</time>
      </trkpt>
      <trkpt lat="50.09989" lon="3.6141">
        <ele>143.37365722656</ele>
        <time>2013-04-07T09:48:13Z</time>
      </trkpt>
      <trkpt lat="50.09987" lon="3.61484">
        <ele>143.85437011719</ele>
        <time>2013-04-07T09:48:28Z</time>
      </trkpt>
      <trkpt lat="50.09999" lon="3.61586">
        <ele>145.29638671875</ele>
        <time>2013-04-07T09:48:48Z</time>
      </trkpt>
      <trkpt lat="50.10015" lon="3.61692">
        <ele>142.41247558594</ele>
        <time>2013-04-07T09:49:03Z</time>
      </trkpt>
      <trkpt lat="50.10047" lon="3.61882">
        <ele>140.00915527344</ele>
        <time>2013-04-07T09:49:29Z</time>
      </trkpt>
      <trkpt lat="50.10066" lon="3.61993">
        <ele>140.00915527344</ele>
        <time>2013-04-07T09:49:45Z</time>
      </trkpt>
      <trkpt lat="50.10098" lon="3.62143">
        <ele>140.00915527344</ele>
        <time>2013-04-07T09:50:08Z</time>
      </trkpt>
      <trkpt lat="50.10104" lon="3.62203">
        <ele>138.56726074219</ele>
        <time>2013-04-07T09:50:16Z</time>
      </trkpt>
      <trkpt lat="50.101" lon="3.62227">
        <ele>139.52844238281</ele>
        <time>2013-04-07T09:50:20Z</time>
      </trkpt>
      <trkpt lat="50.10118" lon="3.62277">
        <ele>138.56726074219</ele>
        <time>2013-04-07T09:50:27Z</time>
      </trkpt>
      <trkpt lat="50.10181" lon="3.62401">
        <ele>139.52844238281</ele>
        <time>2013-04-07T09:50:49Z</time>
      </trkpt>
      <trkpt lat="50.10196" lon="3.62428">
        <ele>138.08654785156</ele>
        <time>2013-04-07T09:50:54Z</time>
      </trkpt>
      <trkpt lat="50.10244" lon="3.62512">
        <ele>140.00915527344</ele>
        <time>2013-04-07T09:51:10Z</time>
      </trkpt>
      <trkpt lat="50.10297" lon="3.62606">
        <ele>139.0478515625</ele>
        <time>2013-04-07T09:51:29Z</time>
      </trkpt>
      <trkpt lat="50.10303" lon="3.62615">
        <ele>139.52844238281</ele>
        <time>2013-04-07T09:51:31Z</time>
      </trkpt>
      <trkpt lat="50.10347" lon="3.62661">
        <ele>137.60583496094</ele>
        <time>2013-04-07T09:51:44Z</time>
      </trkpt>
      <trkpt lat="50.10337" lon="3.62687">
        <ele>139.52844238281</ele>
        <time>2013-04-07T09:51:50Z</time>
      </trkpt>
      <trkpt lat="50.10328" lon="3.62698">
        <ele>139.52844238281</ele>
        <time>2013-04-07T09:51:53Z</time>
      </trkpt>
      <trkpt lat="50.10315" lon="3.62713">
        <ele>138.08654785156</ele>
        <time>2013-04-07T09:51:57Z</time>
      </trkpt>
      <trkpt lat="50.10322" lon="3.62731">
        <ele>137.60583496094</ele>
        <time>2013-04-07T09:51:59Z</time>
      </trkpt>
      <trkpt lat="50.10341" lon="3.62782">
        <ele>138.08654785156</ele>
        <time>2013-04-07T09:52:08Z</time>
      </trkpt>
      <trkpt lat="50.10393" lon="3.6295">
        <ele>136.16394042969</ele>
        <time>2013-04-07T09:52:34Z</time>
      </trkpt>
      <trkpt lat="50.10421" lon="3.63073">
        <ele>137.60583496094</ele>
        <time>2013-04-07T09:52:53Z</time>
      </trkpt>
      <trkpt lat="50.10435" lon="3.63221">
        <ele>138.08654785156</ele>
        <time>2013-04-07T09:53:15Z</time>
      </trkpt>
      <trkpt lat="50.10435" lon="3.63228">
        <ele>137.60583496094</ele>
        <time>2013-04-07T09:53:16Z</time>
      </trkpt>
      <trkpt lat="50.10436" lon="3.63318">
        <ele>136.64465332031</ele>
        <time>2013-04-07T09:53:29Z</time>
      </trkpt>
      <trkpt lat="50.10443" lon="3.63387">
        <ele>137.60583496094</ele>
        <time>2013-04-07T09:53:39Z</time>
      </trkpt>
      <trkpt lat="50.10443" lon="3.63458">
        <ele>135.68310546875</ele>
        <time>2013-04-07T09:53:50Z</time>
      </trkpt>
      <trkpt lat="50.10442" lon="3.63484">
        <ele>135.20251464844</ele>
        <time>2013-04-07T09:53:54Z</time>
      </trkpt>
      <trkpt lat="50.10443" lon="3.63498">
        <ele>135.68310546875</ele>
        <time>2013-04-07T09:53:56Z</time>
      </trkpt>
      <trkpt lat="50.10447" lon="3.63517">
        <ele>135.68310546875</ele>
        <time>2013-04-07T09:53:59Z</time>
      </trkpt>
      <trkpt lat="50.10457" lon="3.63541">
        <ele>136.16394042969</ele>
        <time>2013-04-07T09:54:03Z</time>
      </trkpt>
      <trkpt lat="50.1044" lon="3.63603">
        <ele>134.2412109375</ele>
        <time>2013-04-07T09:54:13Z</time>
      </trkpt>
      <trkpt lat="50.10389" lon="3.63733">
        <ele>133.76049804688</ele>
        <time>2013-04-07T09:54:31Z</time>
      </trkpt>
      <trkpt lat="50.10343" lon="3.63814">
        <ele>130.87670898438</ele>
        <time>2013-04-07T09:54:42Z</time>
      </trkpt>
      <trkpt lat="50.10338" lon="3.63821">
        <ele>130.87670898438</ele>
        <time>2013-04-07T09:54:43Z</time>
      </trkpt>
      <trkpt lat="50.10294" lon="3.63897">
        <ele>129.43469238281</ele>
        <time>2013-04-07T09:54:54Z</time>
      </trkpt>
      <trkpt lat="50.10287" lon="3.63907">
        <ele>130.39599609375</ele>
        <time>2013-04-07T09:54:58Z</time>
      </trkpt>
      <trkpt lat="50.10292" lon="3.63941">
        <ele>130.39599609375</ele>
        <time>2013-04-07T09:55:03Z</time>
      </trkpt>
      <trkpt lat="50.10334" lon="3.63992">
        <ele>130.87670898438</ele>
        <time>2013-04-07T09:55:15Z</time>
      </trkpt>
      <trkpt lat="50.1041" lon="3.64085">
        <ele>129.91528320312</ele>
        <time>2013-04-07T09:55:37Z</time>
      </trkpt>
      <trkpt lat="50.10482" lon="3.64172">
        <ele>130.87670898438</ele>
        <time>2013-04-07T09:55:58Z</time>
      </trkpt>
      <trkpt lat="50.10565" lon="3.64272">
        <ele>130.39599609375</ele>
        <time>2013-04-07T09:56:22Z</time>
      </trkpt>
      <trkpt lat="50.10665" lon="3.64364">
        <ele>130.39599609375</ele>
        <time>2013-04-07T09:56:49Z</time>
      </trkpt>
      <trkpt lat="50.10761" lon="3.64447">
        <ele>130.39599609375</ele>
        <time>2013-04-07T09:57:16Z</time>
      </trkpt>
      <trkpt lat="50.10852" lon="3.64526">
        <ele>129.91528320312</ele>
        <time>2013-04-07T09:57:41Z</time>
      </trkpt>
      <trkpt lat="50.1093" lon="3.64593">
        <ele>129.43469238281</ele>
        <time>2013-04-07T09:58:03Z</time>
      </trkpt>
      <trkpt lat="50.10978" lon="3.64635">
        <ele>129.43469238281</ele>
        <time>2013-04-07T09:58:17Z</time>
      </trkpt>
      <trkpt lat="50.11048" lon="3.647">
        <ele>129.43469238281</ele>
        <time>2013-04-07T09:58:37Z</time>
      </trkpt>
      <trkpt lat="50.11105" lon="3.64788">
        <ele>129.43469238281</ele>
        <time>2013-04-07T09:58:57Z</time>
      </trkpt>
      <trkpt lat="50.11182" lon="3.64915">
        <ele>129.43469238281</ele>
        <time>2013-04-07T09:59:24Z</time>
      </trkpt>
      <trkpt lat="50.11255" lon="3.65035">
        <ele>129.91528320312</ele>
        <time>2013-04-07T09:59:49Z</time>
      </trkpt>
      <trkpt lat="50.11267" lon="3.65054">
        <ele>129.43469238281</ele>
        <time>2013-04-07T09:59:53Z</time>
      </trkpt>
      <trkpt lat="50.11302" lon="3.65111">
        <ele>128.9541015625</ele>
        <time>2013-04-07T10:00:05Z</time>
      </trkpt>
      <trkpt lat="50.11379" lon="3.65246">
        <ele>130.39599609375</ele>
        <time>2013-04-07T10:00:32Z</time>
      </trkpt>
      <trkpt lat="50.11416" lon="3.65372">
        <ele>127.51196289062</ele>
        <time>2013-04-07T10:00:52Z</time>
      </trkpt>
      <trkpt lat="50.11419" lon="3.6545">
        <ele>129.91528320312</ele>
        <time>2013-04-07T10:01:04Z</time>
      </trkpt>
      <trkpt lat="50.11386" lon="3.65563">
        <ele>130.87670898438</ele>
        <time>2013-04-07T10:01:23Z</time>
      </trkpt>
      <trkpt lat="50.1131" lon="3.6572">
        <ele>129.91528320312</ele>
        <time>2013-04-07T10:01:53Z</time>
      </trkpt>
      <trkpt lat="50.1125" lon="3.65845">
        <ele>130.87670898438</ele>
        <time>2013-04-07T10:02:17Z</time>
      </trkpt>
      <trkpt lat="50.11178" lon="3.65992">
        <ele>130.87670898438</ele>
        <time>2013-04-07T10:02:46Z</time>
      </trkpt>
      <trkpt lat="50.11111" lon="3.66131">
        <ele>131.35729980469</ele>
        <time>2013-04-07T10:03:13Z</time>
      </trkpt>
      <trkpt lat="50.11078" lon="3.66247">
        <ele>129.91528320312</ele>
        <time>2013-04-07T10:03:33Z</time>
      </trkpt>
      <trkpt lat="50.11087" lon="3.66355">
        <ele>130.39599609375</ele>
        <time>2013-04-07T10:03:50Z</time>
      </trkpt>
      <trkpt lat="50.11135" lon="3.66478">
        <ele>129.43469238281</ele>
        <time>2013-04-07T10:04:13Z</time>
      </trkpt>
      <trkpt lat="50.11139" lon="3.66488">
        <ele>127.99255371094</ele>
        <time>2013-04-07T10:04:15Z</time>
      </trkpt>
      <trkpt lat="50.11163" lon="3.6655">
        <ele>129.43469238281</ele>
        <time>2013-04-07T10:04:27Z</time>
      </trkpt>
      <trkpt lat="50.1118" lon="3.66591">
        <ele>129.91528320312</ele>
        <time>2013-04-07T10:04:36Z</time>
      </trkpt>
      <trkpt lat="50.11219" lon="3.66689">
        <ele>130.87670898438</ele>
        <time>2013-04-07T10:04:59Z</time>
      </trkpt>
      <trkpt lat="50.11255" lon="3.66782">
        <ele>130.39599609375</ele>
        <time>2013-04-07T10:05:19Z</time>
      </trkpt>
      <trkpt lat="50.1131" lon="3.66881">
        <ele>128.9541015625</ele>
        <time>2013-04-07T10:05:41Z</time>
      </trkpt>
      <trkpt lat="50.11376" lon="3.66971">
        <ele>128.47338867188</ele>
        <time>2013-04-07T10:06:03Z</time>
      </trkpt>
      <trkpt lat="50.11438" lon="3.67055">
        <ele>129.43469238281</ele>
        <time>2013-04-07T10:06:25Z</time>
      </trkpt>
      <trkpt lat="50.11505" lon="3.67147">
        <ele>130.39599609375</ele>
        <time>2013-04-07T10:06:49Z</time>
      </trkpt>
      <trkpt lat="50.11554" lon="3.67213">
        <ele>130.39599609375</ele>
        <time>2013-04-07T10:07:07Z</time>
      </trkpt>
      <trkpt lat="50.11601" lon="3.67278">
        <ele>129.43469238281</ele>
        <time>2013-04-07T10:07:24Z</time>
      </trkpt>
      <trkpt lat="50.11666" lon="3.67367">
        <ele>128.47338867188</ele>
        <time>2013-04-07T10:07:48Z</time>
      </trkpt>
      <trkpt lat="50.11703" lon="3.67418">
        <ele>129.43469238281</ele>
        <time>2013-04-07T10:08:02Z</time>
      </trkpt>
      <trkpt lat="50.11767" lon="3.67506">
        <ele>129.91528320312</ele>
        <time>2013-04-07T10:08:27Z</time>
      </trkpt>
      <trkpt lat="50.11838" lon="3.67602">
        <ele>129.43469238281</ele>
        <time>2013-04-07T10:08:53Z</time>
      </trkpt>
      <trkpt lat="50.1188" lon="3.67656">
        <ele>129.43469238281</ele>
        <time>2013-04-07T10:09:08Z</time>
      </trkpt>
      <trkpt lat="50.11895" lon="3.67677">
        <ele>130.39599609375</ele>
        <time>2013-04-07T10:09:21Z</time>
      </trkpt>
      <trkpt lat="50.11895" lon="3.67677">
        <ele>129.91528320312</ele>
        <time>2013-04-07T10:09:40Z</time>
      </trkpt>
      <trkpt lat="50.11895" lon="3.67677">
        <ele>131.35729980469</ele>
        <time>2013-04-07T10:13:56Z</time>
      </trkpt>
      <trkpt lat="50.11894" lon="3.67675">
        <ele>132.31860351562</ele>
        <time>2013-04-07T10:13:58Z</time>
      </trkpt>
      <trkpt lat="50.11875" lon="3.6765">
        <ele>131.837890625</ele>
        <time>2013-04-07T10:14:17Z</time>
      </trkpt>
      <trkpt lat="50.11861" lon="3.67632">
        <ele>131.837890625</ele>
        <time>2013-04-07T10:14:40Z</time>
      </trkpt>
      <trkpt lat="50.11861" lon="3.67632">
        <ele>131.837890625</ele>
        <time>2013-04-07T10:14:42Z</time>
      </trkpt>
      <trkpt lat="50.11861" lon="3.67632">
        <ele>130.87670898438</ele>
        <time>2013-04-07T10:14:57Z</time>
      </trkpt>
      <trkpt lat="50.11861" lon="3.67632">
        <ele>130.39599609375</ele>
        <time>2013-04-07T10:19:30Z</time>
      </trkpt>
      <trkpt lat="50.11861" lon="3.67632">
        <ele>130.87670898438</ele>
        <time>2013-04-07T10:19:42Z</time>
      </trkpt>
      <trkpt lat="50.1185" lon="3.67617">
        <ele>130.39599609375</ele>
        <time>2013-04-07T10:19:48Z</time>
      </trkpt>
      <trkpt lat="50.11839" lon="3.67602">
        <ele>130.39599609375</ele>
        <time>2013-04-07T10:20:02Z</time>
      </trkpt>
      <trkpt lat="50.11839" lon="3.67602">
        <ele>130.39599609375</ele>
        <time>2013-04-07T10:20:11Z</time>
      </trkpt>
      <trkpt lat="50.11845" lon="3.67611">
        <ele>130.39599609375</ele>
        <time>2013-04-07T10:20:28Z</time>
      </trkpt>
      <trkpt lat="50.11845" lon="3.67611">
        <ele>130.39599609375</ele>
        <time>2013-04-07T10:21:10Z</time>
      </trkpt>
      <trkpt lat="50.11845" lon="3.67611">
        <ele>130.87670898438</ele>
        <time>2013-04-07T10:23:15Z</time>
      </trkpt>
      <trkpt lat="50.11845" lon="3.67611">
        <ele>131.35729980469</ele>
        <time>2013-04-07T10:23:40Z</time>
      </trkpt>
      <trkpt lat="50.11875" lon="3.6765">
        <ele>130.87670898438</ele>
        <time>2013-04-07T10:23:52Z</time>
      </trkpt>
      <trkpt lat="50.11928" lon="3.6772">
        <ele>129.91528320312</ele>
        <time>2013-04-07T10:24:12Z</time>
      </trkpt>
      <trkpt lat="50.11966" lon="3.67776">
        <ele>130.39599609375</ele>
        <time>2013-04-07T10:24:26Z</time>
      </trkpt>
      <trkpt lat="50.12033" lon="3.67866">
        <ele>129.91528320312</ele>
        <time>2013-04-07T10:24:47Z</time>
      </trkpt>
      <trkpt lat="50.1207" lon="3.67911">
        <ele>130.39599609375</ele>
        <time>2013-04-07T10:24:58Z</time>
      </trkpt>
      <trkpt lat="50.12129" lon="3.6799">
        <ele>130.87670898438</ele>
        <time>2013-04-07T10:25:17Z</time>
      </trkpt>
      <trkpt lat="50.12187" lon="3.68067">
        <ele>131.35729980469</ele>
        <time>2013-04-07T10:25:36Z</time>
      </trkpt>
      <trkpt lat="50.12208" lon="3.68095">
        <ele>130.87670898438</ele>
        <time>2013-04-07T10:25:42Z</time>
      </trkpt>
      <trkpt lat="50.1228" lon="3.68194">
        <ele>129.43469238281</ele>
        <time>2013-04-07T10:26:02Z</time>
      </trkpt>
      <trkpt lat="50.12289" lon="3.68206">
        <ele>130.39599609375</ele>
        <time>2013-04-07T10:26:05Z</time>
      </trkpt>
      <trkpt lat="50.12299" lon="3.68198">
        <ele>128.9541015625</ele>
        <time>2013-04-07T10:26:10Z</time>
      </trkpt>
      <trkpt lat="50.12302" lon="3.68192">
        <ele>128.9541015625</ele>
        <time>2013-04-07T10:26:11Z</time>
      </trkpt>
      <trkpt lat="50.12284" lon="3.68199">
        <ele>129.43469238281</ele>
        <time>2013-04-07T10:26:17Z</time>
      </trkpt>
      <trkpt lat="50.12334" lon="3.68033">
        <ele>128.9541015625</ele>
        <time>2013-04-07T10:26:34Z</time>
      </trkpt>
      <trkpt lat="50.1233" lon="3.6792">
        <ele>129.91528320312</ele>
        <time>2013-04-07T10:26:42Z</time>
      </trkpt>
      <trkpt lat="50.12338" lon="3.67952">
        <ele>129.43469238281</ele>
        <time>2013-04-07T10:26:46Z</time>
      </trkpt>
      <trkpt lat="50.12331" lon="3.67927">
        <ele>129.43469238281</ele>
        <time>2013-04-07T10:26:51Z</time>
      </trkpt>
      <trkpt lat="50.12377" lon="3.67871">
        <ele>128.9541015625</ele>
        <time>2013-04-07T10:27:05Z</time>
      </trkpt>
      <trkpt lat="50.12443" lon="3.67806">
        <ele>129.43469238281</ele>
        <time>2013-04-07T10:27:24Z</time>
      </trkpt>
      <trkpt lat="50.12462" lon="3.67793">
        <ele>129.43469238281</ele>
        <time>2013-04-07T10:27:29Z</time>
      </trkpt>
      <trkpt lat="50.12474" lon="3.67793">
        <ele>129.91528320312</ele>
        <time>2013-04-07T10:27:34Z</time>
      </trkpt>
      <trkpt lat="50.12487" lon="3.6782">
        <ele>129.43469238281</ele>
        <time>2013-04-07T10:27:36Z</time>
      </trkpt>
      <trkpt lat="50.12547" lon="3.67882">
        <ele>129.43469238281</ele>
        <time>2013-04-07T10:27:51Z</time>
      </trkpt>
      <trkpt lat="50.12558" lon="3.67892">
        <ele>129.43469238281</ele>
        <time>2013-04-07T10:27:54Z</time>
      </trkpt>
      <trkpt lat="50.1259" lon="3.67927">
        <ele>129.91528320312</ele>
        <time>2013-04-07T10:28:03Z</time>
      </trkpt>
      <trkpt lat="50.12594" lon="3.67934">
        <ele>130.39599609375</ele>
        <time>2013-04-07T10:28:18Z</time>
      </trkpt>
      <trkpt lat="50.12594" lon="3.67934">
        <ele>130.87670898438</ele>
        <time>2013-04-07T10:29:19Z</time>
      </trkpt>
      <trkpt lat="50.12594" lon="3.67934">
        <ele>130.87670898438</ele>
        <time>2013-04-07T10:29:57Z</time>
      </trkpt>
      <trkpt lat="50.12599" lon="3.67942">
        <ele>130.39599609375</ele>
        <time>2013-04-07T10:31:30Z</time>
      </trkpt>
      <trkpt lat="50.12622" lon="3.67989">
        <ele>130.39599609375</ele>
        <time>2013-04-07T10:31:46Z</time>
      </trkpt>
      <trkpt lat="50.12642" lon="3.68034">
        <ele>128.9541015625</ele>
        <time>2013-04-07T10:31:55Z</time>
      </trkpt>
      <trkpt lat="50.12651" lon="3.68056">
        <ele>129.43469238281</ele>
        <time>2013-04-07T10:31:59Z</time>
      </trkpt>
      <trkpt lat="50.12665" lon="3.6809">
        <ele>129.43469238281</ele>
        <time>2013-04-07T10:32:05Z</time>
      </trkpt>
      <trkpt lat="50.12676" lon="3.68112">
        <ele>129.43469238281</ele>
        <time>2013-04-07T10:32:09Z</time>
      </trkpt>
      <trkpt lat="50.12723" lon="3.68209">
        <ele>130.39599609375</ele>
        <time>2013-04-07T10:32:28Z</time>
      </trkpt>
      <trkpt lat="50.12727" lon="3.68222">
        <ele>129.91528320312</ele>
        <time>2013-04-07T10:32:30Z</time>
      </trkpt>
      <trkpt lat="50.12774" lon="3.68365">
        <ele>129.91528320312</ele>
        <time>2013-04-07T10:32:51Z</time>
      </trkpt>
      <trkpt lat="50.128" lon="3.68441">
        <ele>131.35729980469</ele>
        <time>2013-04-07T10:33:06Z</time>
      </trkpt>
      <trkpt lat="50.12829" lon="3.68418">
        <ele>132.79931640625</ele>
        <time>2013-04-07T10:33:16Z</time>
      </trkpt>
      <trkpt lat="50.12835" lon="3.68414">
        <ele>132.79931640625</ele>
        <time>2013-04-07T10:33:20Z</time>
      </trkpt>
      <trkpt lat="50.12839" lon="3.68407">
        <ele>133.76049804688</ele>
        <time>2013-04-07T10:33:34Z</time>
      </trkpt>
      <trkpt lat="50.12839" lon="3.68407">
        <ele>134.2412109375</ele>
        <time>2013-04-07T10:33:48Z</time>
      </trkpt>
      <trkpt lat="50.12839" lon="3.68407">
        <ele>133.76049804688</ele>
        <time>2013-04-07T10:34:17Z</time>
      </trkpt>
      <trkpt lat="50.12839" lon="3.68407">
        <ele>133.27990722656</ele>
        <time>2013-04-07T10:40:15Z</time>
      </trkpt>
      <trkpt lat="50.12839" lon="3.68407">
        <ele>132.79931640625</ele>
        <time>2013-04-07T10:41:47Z</time>
      </trkpt>
      <trkpt lat="50.1287" lon="3.68407">
        <ele>133.27990722656</ele>
        <time>2013-04-07T10:41:53Z</time>
      </trkpt>
      <trkpt lat="50.12888" lon="3.68454">
        <ele>133.27990722656</ele>
        <time>2013-04-07T10:42:06Z</time>
      </trkpt>
      <trkpt lat="50.12909" lon="3.68523">
        <ele>133.27990722656</ele>
        <time>2013-04-07T10:42:19Z</time>
      </trkpt>
      <trkpt lat="50.12929" lon="3.68585">
        <ele>132.79931640625</ele>
        <time>2013-04-07T10:42:29Z</time>
      </trkpt>
      <trkpt lat="50.12933" lon="3.68597">
        <ele>131.35729980469</ele>
        <time>2013-04-07T10:42:31Z</time>
      </trkpt>
      <trkpt lat="50.12944" lon="3.68628">
        <ele>130.87670898438</ele>
        <time>2013-04-07T10:42:36Z</time>
      </trkpt>
      <trkpt lat="50.12952" lon="3.68645">
        <ele>131.837890625</ele>
        <time>2013-04-07T10:42:39Z</time>
      </trkpt>
      <trkpt lat="50.12971" lon="3.68677">
        <ele>130.39599609375</ele>
        <time>2013-04-07T10:42:45Z</time>
      </trkpt>
      <trkpt lat="50.1298" lon="3.68692">
        <ele>131.837890625</ele>
        <time>2013-04-07T10:42:48Z</time>
      </trkpt>
      <trkpt lat="50.13024" lon="3.68809">
        <ele>131.837890625</ele>
        <time>2013-04-07T10:43:08Z</time>
      </trkpt>
      <trkpt lat="50.13037" lon="3.68851">
        <ele>132.79931640625</ele>
        <time>2013-04-07T10:43:15Z</time>
      </trkpt>
      <trkpt lat="50.1304" lon="3.68863">
        <ele>133.27990722656</ele>
        <time>2013-04-07T10:43:17Z</time>
      </trkpt>
      <trkpt lat="50.13023" lon="3.68881">
        <ele>132.79931640625</ele>
        <time>2013-04-07T10:43:23Z</time>
      </trkpt>
      <trkpt lat="50.12998" lon="3.68881">
        <ele>131.35729980469</ele>
        <time>2013-04-07T10:43:27Z</time>
      </trkpt>
      <trkpt lat="50.12964" lon="3.68875">
        <ele>128.9541015625</ele>
        <time>2013-04-07T10:43:32Z</time>
      </trkpt>
      <trkpt lat="50.1295" lon="3.68874">
        <ele>127.99255371094</ele>
        <time>2013-04-07T10:43:34Z</time>
      </trkpt>
      <trkpt lat="50.12936" lon="3.68873">
        <ele>126.06994628906</ele>
        <time>2013-04-07T10:43:36Z</time>
      </trkpt>
      <trkpt lat="50.12922" lon="3.68872">
        <ele>126.06994628906</ele>
        <time>2013-04-07T10:43:38Z</time>
      </trkpt>
      <trkpt lat="50.12883" lon="3.68909">
        <ele>125.10876464844</ele>
        <time>2013-04-07T10:43:45Z</time>
      </trkpt>
      <trkpt lat="50.12894" lon="3.68947">
        <ele>126.55065917969</ele>
        <time>2013-04-07T10:43:48Z</time>
      </trkpt>
      <trkpt lat="50.12926" lon="3.69063">
        <ele>126.55065917969</ele>
        <time>2013-04-07T10:44:04Z</time>
      </trkpt>
      <trkpt lat="50.12972" lon="3.69167">
        <ele>127.51196289062</ele>
        <time>2013-04-07T10:44:22Z</time>
      </trkpt>
      <trkpt lat="50.12994" lon="3.69211">
        <ele>128.47338867188</ele>
        <time>2013-04-07T10:44:31Z</time>
      </trkpt>
      <trkpt lat="50.13022" lon="3.6932">
        <ele>127.99255371094</ele>
        <time>2013-04-07T10:44:45Z</time>
      </trkpt>
      <trkpt lat="50.13031" lon="3.69343">
        <ele>127.51196289062</ele>
        <time>2013-04-07T10:44:48Z</time>
      </trkpt>
      <trkpt lat="50.13092" lon="3.69448">
        <ele>127.51196289062</ele>
        <time>2013-04-07T10:45:03Z</time>
      </trkpt>
      <trkpt lat="50.13095" lon="3.69456">
        <ele>127.51196289062</ele>
        <time>2013-04-07T10:45:04Z</time>
      </trkpt>
      <trkpt lat="50.13129" lon="3.69591">
        <ele>127.03137207031</ele>
        <time>2013-04-07T10:45:21Z</time>
      </trkpt>
      <trkpt lat="50.13144" lon="3.69654">
        <ele>127.51196289062</ele>
        <time>2013-04-07T10:45:29Z</time>
      </trkpt>
      <trkpt lat="50.13179" lon="3.69793">
        <ele>126.55065917969</ele>
        <time>2013-04-07T10:45:47Z</time>
      </trkpt>
      <trkpt lat="50.1319" lon="3.69822">
        <ele>127.03137207031</ele>
        <time>2013-04-07T10:45:51Z</time>
      </trkpt>
      <trkpt lat="50.13193" lon="3.69838">
        <ele>127.99255371094</ele>
        <time>2013-04-07T10:45:53Z</time>
      </trkpt>
      <trkpt lat="50.13194" lon="3.69846">
        <ele>127.99255371094</ele>
        <time>2013-04-07T10:45:54Z</time>
      </trkpt>
      <trkpt lat="50.13221" lon="3.69967">
        <ele>128.47338867188</ele>
        <time>2013-04-07T10:46:10Z</time>
      </trkpt>
      <trkpt lat="50.13241" lon="3.7004">
        <ele>127.51196289062</ele>
        <time>2013-04-07T10:46:19Z</time>
      </trkpt>
      <trkpt lat="50.13258" lon="3.70083">
        <ele>126.55065917969</ele>
        <time>2013-04-07T10:46:25Z</time>
      </trkpt>
      <trkpt lat="50.13263" lon="3.70098">
        <ele>126.06994628906</ele>
        <time>2013-04-07T10:46:27Z</time>
      </trkpt>
      <trkpt lat="50.13269" lon="3.70122">
        <ele>127.51196289062</ele>
        <time>2013-04-07T10:46:30Z</time>
      </trkpt>
      <trkpt lat="50.13277" lon="3.70149">
        <ele>126.55065917969</ele>
        <time>2013-04-07T10:46:34Z</time>
      </trkpt>
      <trkpt lat="50.13303" lon="3.70219">
        <ele>127.99255371094</ele>
        <time>2013-04-07T10:46:47Z</time>
      </trkpt>
      <trkpt lat="50.13309" lon="3.70234">
        <ele>127.51196289062</ele>
        <time>2013-04-07T10:46:50Z</time>
      </trkpt>
      <trkpt lat="50.13316" lon="3.70252">
        <ele>127.99255371094</ele>
        <time>2013-04-07T10:46:53Z</time>
      </trkpt>
      <trkpt lat="50.1333" lon="3.70305">
        <ele>127.99255371094</ele>
        <time>2013-04-07T10:47:01Z</time>
      </trkpt>
      <trkpt lat="50.13328" lon="3.70337">
        <ele>127.03137207031</ele>
        <time>2013-04-07T10:47:06Z</time>
      </trkpt>
      <trkpt lat="50.1333" lon="3.7036">
        <ele>127.51196289062</ele>
        <time>2013-04-07T10:47:09Z</time>
      </trkpt>
      <trkpt lat="50.13337" lon="3.70414">
        <ele>127.99255371094</ele>
        <time>2013-04-07T10:47:16Z</time>
      </trkpt>
      <trkpt lat="50.13342" lon="3.7046">
        <ele>127.03137207031</ele>
        <time>2013-04-07T10:47:23Z</time>
      </trkpt>
      <trkpt lat="50.13344" lon="3.70477">
        <ele>127.03137207031</ele>
        <time>2013-04-07T10:47:25Z</time>
      </trkpt>
      <trkpt lat="50.13352" lon="3.70505">
        <ele>127.51196289062</ele>
        <time>2013-04-07T10:47:29Z</time>
      </trkpt>
      <trkpt lat="50.13359" lon="3.70517">
        <ele>127.03137207031</ele>
        <time>2013-04-07T10:47:31Z</time>
      </trkpt>
      <trkpt lat="50.1338" lon="3.70549">
        <ele>127.51196289062</ele>
        <time>2013-04-07T10:47:38Z</time>
      </trkpt>
      <trkpt lat="50.13397" lon="3.70584">
        <ele>127.51196289062</ele>
        <time>2013-04-07T10:47:43Z</time>
      </trkpt>
      <trkpt lat="50.13414" lon="3.70636">
        <ele>127.51196289062</ele>
        <time>2013-04-07T10:47:50Z</time>
      </trkpt>
      <trkpt lat="50.1343" lon="3.70702">
        <ele>127.03137207031</ele>
        <time>2013-04-07T10:47:59Z</time>
      </trkpt>
      <trkpt lat="50.13434" lon="3.70716">
        <ele>127.03137207031</ele>
        <time>2013-04-07T10:48:01Z</time>
      </trkpt>
      <trkpt lat="50.13476" lon="3.70791">
        <ele>127.51196289062</ele>
        <time>2013-04-07T10:48:15Z</time>
      </trkpt>
      <trkpt lat="50.13495" lon="3.70804">
        <ele>127.51196289062</ele>
        <time>2013-04-07T10:48:24Z</time>
      </trkpt>
      <trkpt lat="50.13526" lon="3.70819">
        <ele>127.51196289062</ele>
        <time>2013-04-07T10:48:37Z</time>
      </trkpt>
      <trkpt lat="50.13529" lon="3.70821">
        <ele>127.99255371094</ele>
        <time>2013-04-07T10:48:50Z</time>
      </trkpt>
      <trkpt lat="50.13529" lon="3.70821">
        <ele>129.43469238281</ele>
        <time>2013-04-07T10:51:10Z</time>
      </trkpt>
      <trkpt lat="50.13529" lon="3.70821">
        <ele>129.91528320312</ele>
        <time>2013-04-07T10:52:31Z</time>
      </trkpt>
      <trkpt lat="50.13529" lon="3.70821">
        <ele>129.43469238281</ele>
        <time>2013-04-07T10:55:24Z</time>
      </trkpt>
      <trkpt lat="50.13529" lon="3.70821">
        <ele>127.51196289062</ele>
        <time>2013-04-07T10:55:38Z</time>
      </trkpt>
      <trkpt lat="50.13529" lon="3.70821">
        <ele>130.39599609375</ele>
        <time>2013-04-07T10:55:40Z</time>
      </trkpt>
      <trkpt lat="50.13529" lon="3.70821">
        <ele>128.9541015625</ele>
        <time>2013-04-07T10:55:42Z</time>
      </trkpt>
      <trkpt lat="50.13529" lon="3.70821">
        <ele>130.39599609375</ele>
        <time>2013-04-07T10:58:21Z</time>
      </trkpt>
      <trkpt lat="50.13529" lon="3.70821">
        <ele>128.9541015625</ele>
        <time>2013-04-07T10:58:23Z</time>
      </trkpt>
      <trkpt lat="50.13529" lon="3.70821">
        <ele>128.9541015625</ele>
        <time>2013-04-07T10:59:45Z</time>
      </trkpt>
      <trkpt lat="50.13529" lon="3.70821">
        <ele>128.9541015625</ele>
        <time>2013-04-07T11:00:02Z</time>
      </trkpt>
      <trkpt lat="50.13548" lon="3.70838">
        <ele>129.43469238281</ele>
        <time>2013-04-07T11:00:17Z</time>
      </trkpt>
      <trkpt lat="50.13567" lon="3.70873">
        <ele>129.43469238281</ele>
        <time>2013-04-07T11:00:28Z</time>
      </trkpt>
      <trkpt lat="50.13558" lon="3.70882">
        <ele>128.9541015625</ele>
        <time>2013-04-07T11:00:32Z</time>
      </trkpt>
      <trkpt lat="50.13543" lon="3.709">
        <ele>129.43469238281</ele>
        <time>2013-04-07T11:00:38Z</time>
      </trkpt>
      <trkpt lat="50.13531" lon="3.70964">
        <ele>128.9541015625</ele>
        <time>2013-04-07T11:00:52Z</time>
      </trkpt>
      <trkpt lat="50.13531" lon="3.70979">
        <ele>127.51196289062</ele>
        <time>2013-04-07T11:00:55Z</time>
      </trkpt>
      <trkpt lat="50.13531" lon="3.71">
        <ele>127.99255371094</ele>
        <time>2013-04-07T11:00:59Z</time>
      </trkpt>
      <trkpt lat="50.13534" lon="3.71026">
        <ele>128.47338867188</ele>
        <time>2013-04-07T11:01:05Z</time>
      </trkpt>
      <trkpt lat="50.13526" lon="3.71089">
        <ele>128.47338867188</ele>
        <time>2013-04-07T11:01:16Z</time>
      </trkpt>
      <trkpt lat="50.135" lon="3.71173">
        <ele>128.47338867188</ele>
        <time>2013-04-07T11:01:30Z</time>
      </trkpt>
      <trkpt lat="50.13472" lon="3.7123">
        <ele>128.47338867188</ele>
        <time>2013-04-07T11:01:43Z</time>
      </trkpt>
      <trkpt lat="50.13447" lon="3.71272">
        <ele>128.9541015625</ele>
        <time>2013-04-07T11:01:54Z</time>
      </trkpt>
      <trkpt lat="50.1342" lon="3.71314">
        <ele>128.47338867188</ele>
        <time>2013-04-07T11:02:05Z</time>
      </trkpt>
      <trkpt lat="50.13393" lon="3.71359">
        <ele>129.43469238281</ele>
        <time>2013-04-07T11:02:15Z</time>
      </trkpt>
      <trkpt lat="50.13378" lon="3.71385">
        <ele>129.43469238281</ele>
        <time>2013-04-07T11:02:23Z</time>
      </trkpt>
      <trkpt lat="50.13373" lon="3.71394">
        <ele>128.47338867188</ele>
        <time>2013-04-07T11:02:26Z</time>
      </trkpt>
      <trkpt lat="50.13368" lon="3.71424">
        <ele>128.9541015625</ele>
        <time>2013-04-07T11:02:30Z</time>
      </trkpt>
      <trkpt lat="50.13354" lon="3.71497">
        <ele>128.9541015625</ele>
        <time>2013-04-07T11:02:41Z</time>
      </trkpt>
      <trkpt lat="50.13354" lon="3.71555">
        <ele>128.47338867188</ele>
        <time>2013-04-07T11:02:47Z</time>
      </trkpt>
      <trkpt lat="50.13385" lon="3.71634">
        <ele>128.9541015625</ele>
        <time>2013-04-07T11:03:00Z</time>
      </trkpt>
      <trkpt lat="50.13381" lon="3.71647">
        <ele>129.91528320312</ele>
        <time>2013-04-07T11:03:04Z</time>
      </trkpt>
      <trkpt lat="50.13381" lon="3.71647">
        <ele>130.39599609375</ele>
        <time>2013-04-07T11:03:18Z</time>
      </trkpt>
      <trkpt lat="50.13399" lon="3.71676">
        <ele>129.43469238281</ele>
        <time>2013-04-07T11:03:54Z</time>
      </trkpt>
      <trkpt lat="50.13438" lon="3.71737">
        <ele>129.43469238281</ele>
        <time>2013-04-07T11:04:11Z</time>
      </trkpt>
      <trkpt lat="50.13461" lon="3.71796">
        <ele>129.43469238281</ele>
        <time>2013-04-07T11:04:25Z</time>
      </trkpt>
      <trkpt lat="50.13473" lon="3.71876">
        <ele>129.91528320312</ele>
        <time>2013-04-07T11:04:42Z</time>
      </trkpt>
      <trkpt lat="50.13491" lon="3.71952">
        <ele>129.91528320312</ele>
        <time>2013-04-07T11:04:57Z</time>
      </trkpt>
      <trkpt lat="50.13538" lon="3.71987">
        <ele>129.91528320312</ele>
        <time>2013-04-07T11:05:12Z</time>
      </trkpt>
      <trkpt lat="50.1358" lon="3.72006">
        <ele>128.9541015625</ele>
        <time>2013-04-07T11:05:26Z</time>
      </trkpt>
      <trkpt lat="50.13624" lon="3.71958">
        <ele>130.39599609375</ele>
        <time>2013-04-07T11:05:41Z</time>
      </trkpt>
      <trkpt lat="50.13668" lon="3.71875">
        <ele>129.91528320312</ele>
        <time>2013-04-07T11:05:59Z</time>
      </trkpt>
      <trkpt lat="50.13707" lon="3.7181">
        <ele>129.91528320312</ele>
        <time>2013-04-07T11:06:14Z</time>
      </trkpt>
      <trkpt lat="50.13721" lon="3.71787">
        <ele>129.43469238281</ele>
        <time>2013-04-07T11:06:19Z</time>
      </trkpt>
      <trkpt lat="50.1375" lon="3.71721">
        <ele>128.9541015625</ele>
        <time>2013-04-07T11:06:32Z</time>
      </trkpt>
      <trkpt lat="50.13773" lon="3.71692">
        <ele>129.91528320312</ele>
        <time>2013-04-07T11:06:39Z</time>
      </trkpt>
      <trkpt lat="50.13841" lon="3.71689">
        <ele>129.43469238281</ele>
        <time>2013-04-07T11:06:55Z</time>
      </trkpt>
      <trkpt lat="50.13887" lon="3.7171">
        <ele>129.43469238281</ele>
        <time>2013-04-07T11:07:06Z</time>
      </trkpt>
      <trkpt lat="50.1391" lon="3.71736">
        <ele>129.43469238281</ele>
        <time>2013-04-07T11:07:12Z</time>
      </trkpt>
      <trkpt lat="50.13927" lon="3.71761">
        <ele>129.91528320312</ele>
        <time>2013-04-07T11:07:17Z</time>
      </trkpt>
      <trkpt lat="50.13963" lon="3.71831">
        <ele>128.9541015625</ele>
        <time>2013-04-07T11:07:30Z</time>
      </trkpt>
      <trkpt lat="50.14023" lon="3.71888">
        <ele>129.43469238281</ele>
        <time>2013-04-07T11:07:47Z</time>
      </trkpt>
      <trkpt lat="50.14029" lon="3.71896">
        <ele>129.91528320312</ele>
        <time>2013-04-07T11:07:49Z</time>
      </trkpt>
      <trkpt lat="50.14026" lon="3.71913">
        <ele>129.91528320312</ele>
        <time>2013-04-07T11:07:53Z</time>
      </trkpt>
      <trkpt lat="50.14021" lon="3.71924">
        <ele>130.39599609375</ele>
        <time>2013-04-07T11:07:56Z</time>
      </trkpt>
      <trkpt lat="50.13973" lon="3.71889">
        <ele>129.91528320312</ele>
        <time>2013-04-07T11:08:00Z</time>
      </trkpt>
      <trkpt lat="50.13973" lon="3.71889">
        <ele>130.39599609375</ele>
        <time>2013-04-07T11:08:15Z</time>
      </trkpt>
      <trkpt lat="50.13935" lon="3.71845">
        <ele>129.91528320312</ele>
        <time>2013-04-07T11:08:30Z</time>
      </trkpt>
      <trkpt lat="50.13889" lon="3.71759">
        <ele>129.91528320312</ele>
        <time>2013-04-07T11:08:50Z</time>
      </trkpt>
      <trkpt lat="50.13841" lon="3.71729">
        <ele>129.91528320312</ele>
        <time>2013-04-07T11:09:04Z</time>
      </trkpt>
      <trkpt lat="50.13787" lon="3.71729">
        <ele>128.47338867188</ele>
        <time>2013-04-07T11:09:19Z</time>
      </trkpt>
      <trkpt lat="50.13784" lon="3.7173">
        <ele>128.47338867188</ele>
        <time>2013-04-07T11:09:20Z</time>
      </trkpt>
      <trkpt lat="50.13771" lon="3.71744">
        <ele>127.99255371094</ele>
        <time>2013-04-07T11:09:24Z</time>
      </trkpt>
      <trkpt lat="50.13723" lon="3.71841">
        <ele>129.43469238281</ele>
        <time>2013-04-07T11:09:47Z</time>
      </trkpt>
      <trkpt lat="50.13696" lon="3.71887">
        <ele>128.9541015625</ele>
        <time>2013-04-07T11:09:59Z</time>
      </trkpt>
      <trkpt lat="50.1365" lon="3.71973">
        <ele>128.47338867188</ele>
        <time>2013-04-07T11:10:19Z</time>
      </trkpt>
      <trkpt lat="50.13644" lon="3.7199">
        <ele>128.47338867188</ele>
        <time>2013-04-07T11:10:23Z</time>
      </trkpt>
      <trkpt lat="50.13669" lon="3.72029">
        <ele>127.51196289062</ele>
        <time>2013-04-07T11:10:33Z</time>
      </trkpt>
      <trkpt lat="50.13672" lon="3.72038">
        <ele>128.47338867188</ele>
        <time>2013-04-07T11:10:43Z</time>
      </trkpt>
      <trkpt lat="50.13674" lon="3.72041">
        <ele>127.51196289062</ele>
        <time>2013-04-07T11:10:58Z</time>
      </trkpt>
      <trkpt lat="50.1368" lon="3.72049">
        <ele>128.47338867188</ele>
        <time>2013-04-07T11:12:07Z</time>
      </trkpt>
      <trkpt lat="50.13697" lon="3.72082">
        <ele>128.9541015625</ele>
        <time>2013-04-07T11:12:20Z</time>
      </trkpt>
      <trkpt lat="50.13712" lon="3.72107">
        <ele>127.99255371094</ele>
        <time>2013-04-07T11:12:32Z</time>
      </trkpt>
      <trkpt lat="50.13736" lon="3.72147">
        <ele>128.47338867188</ele>
        <time>2013-04-07T11:12:45Z</time>
      </trkpt>
      <trkpt lat="50.13759" lon="3.72187">
        <ele>128.9541015625</ele>
        <time>2013-04-07T11:12:59Z</time>
      </trkpt>
      <trkpt lat="50.13787" lon="3.72222">
        <ele>127.99255371094</ele>
        <time>2013-04-07T11:13:12Z</time>
      </trkpt>
      <trkpt lat="50.13808" lon="3.72259">
        <ele>128.47338867188</ele>
        <time>2013-04-07T11:13:25Z</time>
      </trkpt>
      <trkpt lat="50.13833" lon="3.72278">
        <ele>127.99255371094</ele>
        <time>2013-04-07T11:13:36Z</time>
      </trkpt>
      <trkpt lat="50.13833" lon="3.72301">
        <ele>128.9541015625</ele>
        <time>2013-04-07T11:13:42Z</time>
      </trkpt>
      <trkpt lat="50.13792" lon="3.72365">
        <ele>127.51196289062</ele>
        <time>2013-04-07T11:13:58Z</time>
      </trkpt>
      <trkpt lat="50.13774" lon="3.7239">
        <ele>127.51196289062</ele>
        <time>2013-04-07T11:14:04Z</time>
      </trkpt>
      <trkpt lat="50.1371" lon="3.72456">
        <ele>128.47338867188</ele>
        <time>2013-04-07T11:14:23Z</time>
      </trkpt>
      <trkpt lat="50.13696" lon="3.72469">
        <ele>128.47338867188</ele>
        <time>2013-04-07T11:14:27Z</time>
      </trkpt>
      <trkpt lat="50.13687" lon="3.72498">
        <ele>127.03137207031</ele>
        <time>2013-04-07T11:14:32Z</time>
      </trkpt>
      <trkpt lat="50.13692" lon="3.72659">
        <ele>128.9541015625</ele>
        <time>2013-04-07T11:14:57Z</time>
      </trkpt>
      <trkpt lat="50.13692" lon="3.72694">
        <ele>128.47338867188</ele>
        <time>2013-04-07T11:15:03Z</time>
      </trkpt>
      <trkpt lat="50.1365" lon="3.72703">
        <ele>128.9541015625</ele>
        <time>2013-04-07T11:15:13Z</time>
      </trkpt>
      <trkpt lat="50.13618" lon="3.72714">
        <ele>128.9541015625</ele>
        <time>2013-04-07T11:15:21Z</time>
      </trkpt>
      <trkpt lat="50.13601" lon="3.72738">
        <ele>127.99255371094</ele>
        <time>2013-04-07T11:15:26Z</time>
      </trkpt>
      <trkpt lat="50.13595" lon="3.72757">
        <ele>127.99255371094</ele>
        <time>2013-04-07T11:15:29Z</time>
      </trkpt>
      <trkpt lat="50.13579" lon="3.72765">
        <ele>128.9541015625</ele>
        <time>2013-04-07T11:15:34Z</time>
      </trkpt>
      <trkpt lat="50.13496" lon="3.72727">
        <ele>129.91528320312</ele>
        <time>2013-04-07T11:15:55Z</time>
      </trkpt>
      <trkpt lat="50.13423" lon="3.72704">
        <ele>130.87670898438</ele>
        <time>2013-04-07T11:16:13Z</time>
      </trkpt>
      <trkpt lat="50.13336" lon="3.72685">
        <ele>130.87670898438</ele>
        <time>2013-04-07T11:16:32Z</time>
      </trkpt>
      <trkpt lat="50.13246" lon="3.72642">
        <ele>130.87670898438</ele>
        <time>2013-04-07T11:16:52Z</time>
      </trkpt>
      <trkpt lat="50.13145" lon="3.72589">
        <ele>129.43469238281</ele>
        <time>2013-04-07T11:17:15Z</time>
      </trkpt>
      <trkpt lat="50.13105" lon="3.72573">
        <ele>130.87670898438</ele>
        <time>2013-04-07T11:17:24Z</time>
      </trkpt>
      <trkpt lat="50.13097" lon="3.72567">
        <ele>129.91528320312</ele>
        <time>2013-04-07T11:17:26Z</time>
      </trkpt>
      <trkpt lat="50.13075" lon="3.72544">
        <ele>129.91528320312</ele>
        <time>2013-04-07T11:17:32Z</time>
      </trkpt>
      <trkpt lat="50.13033" lon="3.72471">
        <ele>130.39599609375</ele>
        <time>2013-04-07T11:17:45Z</time>
      </trkpt>
      <trkpt lat="50.13014" lon="3.72467">
        <ele>130.39599609375</ele>
        <time>2013-04-07T11:17:50Z</time>
      </trkpt>
      <trkpt lat="50.12971" lon="3.72526">
        <ele>131.35729980469</ele>
        <time>2013-04-07T11:18:06Z</time>
      </trkpt>
      <trkpt lat="50.12928" lon="3.72586">
        <ele>132.31860351562</ele>
        <time>2013-04-07T11:18:22Z</time>
      </trkpt>
      <trkpt lat="50.12882" lon="3.72648">
        <ele>133.76049804688</ele>
        <time>2013-04-07T11:18:40Z</time>
      </trkpt>
      <trkpt lat="50.12851" lon="3.72692">
        <ele>135.68310546875</ele>
        <time>2013-04-07T11:18:54Z</time>
      </trkpt>
      <trkpt lat="50.12852" lon="3.7271">
        <ele>135.68310546875</ele>
        <time>2013-04-07T11:18:59Z</time>
      </trkpt>
      <trkpt lat="50.12873" lon="3.7274">
        <ele>135.68310546875</ele>
        <time>2013-04-07T11:19:08Z</time>
      </trkpt>
      <trkpt lat="50.12865" lon="3.72762">
        <ele>136.16394042969</ele>
        <time>2013-04-07T11:19:14Z</time>
      </trkpt>
      <trkpt lat="50.12823" lon="3.72836">
        <ele>138.08654785156</ele>
        <time>2013-04-07T11:19:34Z</time>
      </trkpt>
      <trkpt lat="50.12816" lon="3.72891">
        <ele>139.0478515625</ele>
        <time>2013-04-07T11:19:47Z</time>
      </trkpt>
      <trkpt lat="50.12823" lon="3.72992">
        <ele>140.48986816406</ele>
        <time>2013-04-07T11:20:07Z</time>
      </trkpt>
      <trkpt lat="50.1282" lon="3.73073">
        <ele>141.93176269531</ele>
        <time>2013-04-07T11:20:26Z</time>
      </trkpt>
      <trkpt lat="50.12806" lon="3.73111">
        <ele>143.85437011719</ele>
        <time>2013-04-07T11:20:41Z</time>
      </trkpt>
      <trkpt lat="50.12812" lon="3.73185">
        <ele>144.33520507812</ele>
        <time>2013-04-07T11:21:03Z</time>
      </trkpt>
      <trkpt lat="50.12817" lon="3.73263">
        <ele>145.77709960938</ele>
        <time>2013-04-07T11:21:23Z</time>
      </trkpt>
      <trkpt lat="50.12812" lon="3.73332">
        <ele>147.69970703125</ele>
        <time>2013-04-07T11:21:43Z</time>
      </trkpt>
      <trkpt lat="50.12789" lon="3.73416">
        <ele>149.1416015625</ele>
        <time>2013-04-07T11:22:05Z</time>
      </trkpt>
      <trkpt lat="50.12764" lon="3.73488">
        <ele>150.58361816406</ele>
        <time>2013-04-07T11:22:23Z</time>
      </trkpt>
      <trkpt lat="50.12733" lon="3.73527">
        <ele>150.58361816406</ele>
        <time>2013-04-07T11:22:37Z</time>
      </trkpt>
      <trkpt lat="50.12716" lon="3.73614">
        <ele>151.06420898438</ele>
        <time>2013-04-07T11:22:55Z</time>
      </trkpt>
      <trkpt lat="50.12692" lon="3.73699">
        <ele>151.06420898438</ele>
        <time>2013-04-07T11:23:11Z</time>
      </trkpt>
      <trkpt lat="50.12674" lon="3.73744">
        <ele>149.62231445312</ele>
        <time>2013-04-07T11:23:19Z</time>
      </trkpt>
      <trkpt lat="50.12658" lon="3.73785">
        <ele>148.18041992188</ele>
        <time>2013-04-07T11:23:25Z</time>
      </trkpt>
      <trkpt lat="50.1263" lon="3.73834">
        <ele>151.544921875</ele>
        <time>2013-04-07T11:23:37Z</time>
      </trkpt>
      <trkpt lat="50.12628" lon="3.73836">
        <ele>151.544921875</ele>
        <time>2013-04-07T11:23:38Z</time>
      </trkpt>
      <trkpt lat="50.12617" lon="3.73789">
        <ele>152.50634765625</ele>
        <time>2013-04-07T11:23:50Z</time>
      </trkpt>
      <trkpt lat="50.12594" lon="3.73694">
        <ele>154.42895507812</ele>
        <time>2013-04-07T11:24:14Z</time>
      </trkpt>
      <trkpt lat="50.12548" lon="3.73702">
        <ele>154.42895507812</ele>
        <time>2013-04-07T11:24:28Z</time>
      </trkpt>
      <trkpt lat="50.1253" lon="3.73713">
        <ele>155.39025878906</ele>
        <time>2013-04-07T11:24:34Z</time>
      </trkpt>
      <trkpt lat="50.12491" lon="3.73799">
        <ele>154.90954589844</ele>
        <time>2013-04-07T11:24:54Z</time>
      </trkpt>
      <trkpt lat="50.12444" lon="3.7387">
        <ele>156.83215332031</ele>
        <time>2013-04-07T11:25:13Z</time>
      </trkpt>
      <trkpt lat="50.12415" lon="3.73916">
        <ele>155.87097167969</ele>
        <time>2013-04-07T11:25:25Z</time>
      </trkpt>
      <trkpt lat="50.12403" lon="3.73951">
        <ele>154.42895507812</ele>
        <time>2013-04-07T11:25:31Z</time>
      </trkpt>
      <trkpt lat="50.12381" lon="3.74076">
        <ele>152.50634765625</ele>
        <time>2013-04-07T11:25:50Z</time>
      </trkpt>
      <trkpt lat="50.12372" lon="3.74162">
        <ele>152.98693847656</ele>
        <time>2013-04-07T11:26:01Z</time>
      </trkpt>
      <trkpt lat="50.12362" lon="3.74275">
        <ele>151.544921875</ele>
        <time>2013-04-07T11:26:18Z</time>
      </trkpt>
      <trkpt lat="50.1236" lon="3.74282">
        <ele>151.544921875</ele>
        <time>2013-04-07T11:26:19Z</time>
      </trkpt>
      <trkpt lat="50.12352" lon="3.74322">
        <ele>149.1416015625</ele>
        <time>2013-04-07T11:26:24Z</time>
      </trkpt>
      <trkpt lat="50.12323" lon="3.74426">
        <ele>146.2578125</ele>
        <time>2013-04-07T11:26:36Z</time>
      </trkpt>
      <trkpt lat="50.12316" lon="3.74444">
        <ele>145.29638671875</ele>
        <time>2013-04-07T11:26:38Z</time>
      </trkpt>
      <trkpt lat="50.1231" lon="3.74463">
        <ele>143.85437011719</ele>
        <time>2013-04-07T11:26:40Z</time>
      </trkpt>
      <trkpt lat="50.12308" lon="3.74506">
        <ele>142.41247558594</ele>
        <time>2013-04-07T11:26:44Z</time>
      </trkpt>
      <trkpt lat="50.12307" lon="3.7461">
        <ele>144.33520507812</ele>
        <time>2013-04-07T11:26:56Z</time>
      </trkpt>
      <trkpt lat="50.12288" lon="3.74696">
        <ele>143.37365722656</ele>
        <time>2013-04-07T11:27:08Z</time>
      </trkpt>
      <trkpt lat="50.1225" lon="3.74821">
        <ele>141.93176269531</ele>
        <time>2013-04-07T11:27:23Z</time>
      </trkpt>
      <trkpt lat="50.12242" lon="3.74841">
        <ele>141.45104980469</ele>
        <time>2013-04-07T11:27:26Z</time>
      </trkpt>
      <trkpt lat="50.12238" lon="3.74855">
        <ele>141.93176269531</ele>
        <time>2013-04-07T11:27:30Z</time>
      </trkpt>
      <trkpt lat="50.12245" lon="3.74884">
        <ele>141.45104980469</ele>
        <time>2013-04-07T11:27:32Z</time>
      </trkpt>
      <trkpt lat="50.12282" lon="3.74899">
        <ele>139.52844238281</ele>
        <time>2013-04-07T11:27:38Z</time>
      </trkpt>
      <trkpt lat="50.12323" lon="3.74916">
        <ele>135.68310546875</ele>
        <time>2013-04-07T11:27:43Z</time>
      </trkpt>
      <trkpt lat="50.12331" lon="3.7492">
        <ele>135.68310546875</ele>
        <time>2013-04-07T11:27:44Z</time>
      </trkpt>
      <trkpt lat="50.12354" lon="3.74928">
        <ele>136.64465332031</ele>
        <time>2013-04-07T11:27:47Z</time>
      </trkpt>
      <trkpt lat="50.12393" lon="3.74908">
        <ele>135.20251464844</ele>
        <time>2013-04-07T11:27:53Z</time>
      </trkpt>
      <trkpt lat="50.12437" lon="3.74908">
        <ele>132.79931640625</ele>
        <time>2013-04-07T11:27:59Z</time>
      </trkpt>
      <trkpt lat="50.12509" lon="3.74908">
        <ele>133.27990722656</ele>
        <time>2013-04-07T11:28:10Z</time>
      </trkpt>
      <trkpt lat="50.12574" lon="3.7489">
        <ele>130.87670898438</ele>
        <time>2013-04-07T11:28:19Z</time>
      </trkpt>
      <trkpt lat="50.12641" lon="3.74891">
        <ele>130.39599609375</ele>
        <time>2013-04-07T11:28:28Z</time>
      </trkpt>
      <trkpt lat="50.12754" lon="3.74934">
        <ele>129.91528320312</ele>
        <time>2013-04-07T11:28:45Z</time>
      </trkpt>
      <trkpt lat="50.12765" lon="3.7494">
        <ele>129.91528320312</ele>
        <time>2013-04-07T11:28:47Z</time>
      </trkpt>
      <trkpt lat="50.12814" lon="3.74992">
        <ele>129.43469238281</ele>
        <time>2013-04-07T11:28:58Z</time>
      </trkpt>
      <trkpt lat="50.12815" lon="3.75023">
        <ele>129.43469238281</ele>
        <time>2013-04-07T11:29:03Z</time>
      </trkpt>
      <trkpt lat="50.1281" lon="3.75049">
        <ele>128.9541015625</ele>
        <time>2013-04-07T11:29:06Z</time>
      </trkpt>
      <trkpt lat="50.12808" lon="3.75112">
        <ele>127.03137207031</ele>
        <time>2013-04-07T11:29:13Z</time>
      </trkpt>
      <trkpt lat="50.12808" lon="3.75122">
        <ele>127.51196289062</ele>
        <time>2013-04-07T11:29:14Z</time>
      </trkpt>
      <trkpt lat="50.12845" lon="3.75243">
        <ele>128.9541015625</ele>
        <time>2013-04-07T11:29:28Z</time>
      </trkpt>
      <trkpt lat="50.12862" lon="3.75297">
        <ele>127.03137207031</ele>
        <time>2013-04-07T11:29:34Z</time>
      </trkpt>
      <trkpt lat="50.12894" lon="3.75456">
        <ele>128.47338867188</ele>
        <time>2013-04-07T11:29:52Z</time>
      </trkpt>
      <trkpt lat="50.12915" lon="3.75601">
        <ele>127.99255371094</ele>
        <time>2013-04-07T11:30:13Z</time>
      </trkpt>
      <trkpt lat="50.12928" lon="3.75741">
        <ele>130.39599609375</ele>
        <time>2013-04-07T11:30:34Z</time>
      </trkpt>
      <trkpt lat="50.12922" lon="3.75874">
        <ele>130.39599609375</ele>
        <time>2013-04-07T11:30:55Z</time>
      </trkpt>
      <trkpt lat="50.12918" lon="3.75901">
        <ele>128.47338867188</ele>
        <time>2013-04-07T11:30:59Z</time>
      </trkpt>
      <trkpt lat="50.12906" lon="3.75979">
        <ele>130.39599609375</ele>
        <time>2013-04-07T11:31:11Z</time>
      </trkpt>
      <trkpt lat="50.12929" lon="3.75998">
        <ele>129.91528320312</ele>
        <time>2013-04-07T11:31:19Z</time>
      </trkpt>
      <trkpt lat="50.12943" lon="3.76001">
        <ele>129.43469238281</ele>
        <time>2013-04-07T11:31:22Z</time>
      </trkpt>
      <trkpt lat="50.13016" lon="3.75996">
        <ele>130.87670898438</ele>
        <time>2013-04-07T11:31:38Z</time>
      </trkpt>
      <trkpt lat="50.131" lon="3.75986">
        <ele>129.91528320312</ele>
        <time>2013-04-07T11:31:58Z</time>
      </trkpt>
      <trkpt lat="50.13114" lon="3.75981">
        <ele>130.39599609375</ele>
        <time>2013-04-07T11:32:02Z</time>
      </trkpt>
      <trkpt lat="50.1318" lon="3.75931">
        <ele>129.91528320312</ele>
        <time>2013-04-07T11:32:19Z</time>
      </trkpt>
      <trkpt lat="50.13189" lon="3.75925">
        <ele>128.9541015625</ele>
        <time>2013-04-07T11:32:21Z</time>
      </trkpt>
      <trkpt lat="50.13204" lon="3.75918">
        <ele>128.47338867188</ele>
        <time>2013-04-07T11:32:24Z</time>
      </trkpt>
      <trkpt lat="50.13217" lon="3.75912">
        <ele>129.91528320312</ele>
        <time>2013-04-07T11:32:27Z</time>
      </trkpt>
      <trkpt lat="50.13254" lon="3.75882">
        <ele>131.837890625</ele>
        <time>2013-04-07T11:32:41Z</time>
      </trkpt>
      <trkpt lat="50.13287" lon="3.75842">
        <ele>131.35729980469</ele>
        <time>2013-04-07T11:32:51Z</time>
      </trkpt>
      <trkpt lat="50.13287" lon="3.75842">
        <ele>131.837890625</ele>
        <time>2013-04-07T11:32:55Z</time>
      </trkpt>
      <trkpt lat="50.13287" lon="3.75842">
        <ele>133.76049804688</ele>
        <time>2013-04-07T11:33:09Z</time>
      </trkpt>
      <trkpt lat="50.13287" lon="3.75842">
        <ele>134.72192382812</ele>
        <time>2013-04-07T11:33:22Z</time>
      </trkpt>
      <trkpt lat="50.13294" lon="3.75932">
        <ele>134.72192382812</ele>
        <time>2013-04-07T11:33:39Z</time>
      </trkpt>
      <trkpt lat="50.13293" lon="3.7596">
        <ele>132.31860351562</ele>
        <time>2013-04-07T11:33:47Z</time>
      </trkpt>
      <trkpt lat="50.13283" lon="3.75964">
        <ele>131.35729980469</ele>
        <time>2013-04-07T11:33:50Z</time>
      </trkpt>
      <trkpt lat="50.13295" lon="3.75921">
        <ele>130.39599609375</ele>
        <time>2013-04-07T11:33:52Z</time>
      </trkpt>
      <trkpt lat="50.13285" lon="3.76004">
        <ele>132.31860351562</ele>
        <time>2013-04-07T11:33:57Z</time>
      </trkpt>
      <trkpt lat="50.13299" lon="3.7601">
        <ele>132.79931640625</ele>
        <time>2013-04-07T11:34:02Z</time>
      </trkpt>
      <trkpt lat="50.13305" lon="3.76024">
        <ele>133.27990722656</ele>
        <time>2013-04-07T11:34:07Z</time>
      </trkpt>
      <trkpt lat="50.13304" lon="3.76035">
        <ele>133.76049804688</ele>
        <time>2013-04-07T11:34:10Z</time>
      </trkpt>
      <trkpt lat="50.13295" lon="3.76091">
        <ele>133.27990722656</ele>
        <time>2013-04-07T11:34:22Z</time>
      </trkpt>
      <trkpt lat="50.13283" lon="3.76148">
        <ele>135.20251464844</ele>
        <time>2013-04-07T11:34:36Z</time>
      </trkpt>
      <trkpt lat="50.13285" lon="3.76164">
        <ele>135.68310546875</ele>
        <time>2013-04-07T11:34:49Z</time>
      </trkpt>
      <trkpt lat="50.13263" lon="3.76173">
        <ele>132.31860351562</ele>
        <time>2013-04-07T11:34:56Z</time>
      </trkpt>
      <trkpt lat="50.13243" lon="3.76189">
        <ele>129.43469238281</ele>
        <time>2013-04-07T11:35:00Z</time>
      </trkpt>
      <trkpt lat="50.13199" lon="3.76259">
        <ele>130.87670898438</ele>
        <time>2013-04-07T11:35:13Z</time>
      </trkpt>
      <trkpt lat="50.13191" lon="3.76273">
        <ele>131.837890625</ele>
        <time>2013-04-07T11:35:18Z</time>
      </trkpt>
      <trkpt lat="50.13182" lon="3.7629">
        <ele>132.31860351562</ele>
        <time>2013-04-07T11:35:33Z</time>
      </trkpt>
      <trkpt lat="50.13161" lon="3.76406">
        <ele>132.79931640625</ele>
        <time>2013-04-07T11:35:46Z</time>
      </trkpt>
      <trkpt lat="50.13156" lon="3.76417">
        <ele>133.76049804688</ele>
        <time>2013-04-07T11:35:52Z</time>
      </trkpt>
      <trkpt lat="50.13146" lon="3.76419">
        <ele>134.2412109375</ele>
        <time>2013-04-07T11:36:03Z</time>
      </trkpt>
      <trkpt lat="50.13156" lon="3.76421">
        <ele>133.76049804688</ele>
        <time>2013-04-07T11:36:06Z</time>
      </trkpt>
      <trkpt lat="50.13185" lon="3.76372">
        <ele>136.64465332031</ele>
        <time>2013-04-07T11:36:20Z</time>
      </trkpt>
      <trkpt lat="50.13217" lon="3.76346">
        <ele>138.56726074219</ele>
        <time>2013-04-07T11:36:30Z</time>
      </trkpt>
      <trkpt lat="50.13243" lon="3.76331">
        <ele>141.93176269531</ele>
        <time>2013-04-07T11:36:37Z</time>
      </trkpt>
      <trkpt lat="50.13247" lon="3.76333">
        <ele>141.93176269531</ele>
        <time>2013-04-07T11:36:38Z</time>
      </trkpt>
      <trkpt lat="50.13273" lon="3.76348">
        <ele>145.29638671875</ele>
        <time>2013-04-07T11:36:51Z</time>
      </trkpt>
      <trkpt lat="50.1331" lon="3.76352">
        <ele>147.21899414062</ele>
        <time>2013-04-07T11:37:09Z</time>
      </trkpt>
      <trkpt lat="50.1336" lon="3.76344">
        <ele>149.62231445312</ele>
        <time>2013-04-07T11:37:32Z</time>
      </trkpt>
      <trkpt lat="50.13413" lon="3.7638">
        <ele>151.06420898438</ele>
        <time>2013-04-07T11:37:53Z</time>
      </trkpt>
      <trkpt lat="50.13421" lon="3.76391">
        <ele>151.544921875</ele>
        <time>2013-04-07T11:37:59Z</time>
      </trkpt>
      <trkpt lat="50.13429" lon="3.76374">
        <ele>151.544921875</ele>
        <time>2013-04-07T11:38:01Z</time>
      </trkpt>
      <trkpt lat="50.13434" lon="3.76369">
        <ele>152.02575683594</ele>
        <time>2013-04-07T11:38:14Z</time>
      </trkpt>
      <trkpt lat="50.13434" lon="3.76369">
        <ele>152.50634765625</ele>
        <time>2013-04-07T11:38:36Z</time>
      </trkpt>
      <trkpt lat="50.13434" lon="3.76369">
        <ele>152.98693847656</ele>
        <time>2013-04-07T11:38:53Z</time>
      </trkpt>
    </trkseg>
  </trk>
</gpx>